<?xml version="1.0" encoding="UTF-8" standalone="no" ?>
<gpx xmlns="http://www.topografix.com/GPX/1/1" xmlns:xsi="http://www.w3.org/2001/XMLSchema-instance" xsi:schemaLocation="http://www.topografix.com/GPX/1/1 http://www.topografix.com/GPX/1/1/gpx.xsd" version="1.1" creator="VisuGPX - https://www.visugpx.com">
  <metadata>
    <name>lundi 2016 07</name>
    <desc><![CDATA[cumul des lundi du mois de juillet 2016]]></desc>
  </metadata>
  <trk>
    <name><![CDATA[lundi 2016 07 04]]></name>
    <trkseg>
      <trkpt lat="48.85807" lon="2.34789">
        <ele>43.200000762939</ele>
        <time>2016-07-04T18:20:39.000Z</time>
      </trkpt>
      <trkpt lat="48.85775" lon="2.34779">
        <ele>39.400001525879</ele>
        <time>2016-07-04T18:20:43.000Z</time>
      </trkpt>
      <trkpt lat="48.8579" lon="2.34794">
        <ele>41</ele>
        <time>2016-07-04T18:20:48.000Z</time>
      </trkpt>
      <trkpt lat="48.85795" lon="2.34797">
        <ele>41.400001525879</ele>
        <time>2016-07-04T18:20:50.000Z</time>
      </trkpt>
      <trkpt lat="48.85775" lon="2.34795">
        <ele>39.200000762939</ele>
        <time>2016-07-04T18:20:56.000Z</time>
      </trkpt>
      <trkpt lat="48.85795" lon="2.34799">
        <ele>41.400001525879</ele>
        <time>2016-07-04T18:20:57.000Z</time>
      </trkpt>
      <trkpt lat="48.85788" lon="2.34793">
        <ele>40.799999237061</ele>
        <time>2016-07-04T18:21:02.000Z</time>
      </trkpt>
      <trkpt lat="48.85755" lon="2.3479">
        <ele>39.200000762939</ele>
        <time>2016-07-04T18:21:04.000Z</time>
      </trkpt>
      <trkpt lat="48.85804" lon="2.34801">
        <ele>42.400001525879</ele>
        <time>2016-07-04T18:21:13.000Z</time>
      </trkpt>
      <trkpt lat="48.85823" lon="2.34813">
        <ele>44.400001525879</ele>
        <time>2016-07-04T18:21:17.000Z</time>
      </trkpt>
      <trkpt lat="48.85843" lon="2.34827">
        <ele>46.400001525879</ele>
        <time>2016-07-04T18:21:21.000Z</time>
      </trkpt>
      <trkpt lat="48.8586" lon="2.3484">
        <ele>48</ele>
        <time>2016-07-04T18:21:24.000Z</time>
      </trkpt>
      <trkpt lat="48.85875" lon="2.34844">
        <ele>48</ele>
        <time>2016-07-04T18:21:26.000Z</time>
      </trkpt>
      <trkpt lat="48.85891" lon="2.34855">
        <ele>48</ele>
        <time>2016-07-04T18:21:29.000Z</time>
      </trkpt>
      <trkpt lat="48.8591" lon="2.34865">
        <ele>48</ele>
        <time>2016-07-04T18:21:32.000Z</time>
      </trkpt>
      <trkpt lat="48.85928" lon="2.34876">
        <ele>48</ele>
        <time>2016-07-04T18:21:35.000Z</time>
      </trkpt>
      <trkpt lat="48.85949" lon="2.34884">
        <ele>48.200000762939</ele>
        <time>2016-07-04T18:21:39.000Z</time>
      </trkpt>
      <trkpt lat="48.85966" lon="2.34893">
        <ele>48.400001525879</ele>
        <time>2016-07-04T18:21:42.000Z</time>
      </trkpt>
      <trkpt lat="48.85988" lon="2.34905">
        <ele>48.599998474121</ele>
        <time>2016-07-04T18:21:46.000Z</time>
      </trkpt>
      <trkpt lat="48.86009" lon="2.34915">
        <ele>48.799999237061</ele>
        <time>2016-07-04T18:21:50.000Z</time>
      </trkpt>
      <trkpt lat="48.86031" lon="2.34931">
        <ele>48.599998474121</ele>
        <time>2016-07-04T18:21:54.000Z</time>
      </trkpt>
      <trkpt lat="48.86053" lon="2.34945">
        <ele>48</ele>
        <time>2016-07-04T18:21:58.000Z</time>
      </trkpt>
      <trkpt lat="48.86063" lon="2.34952">
        <ele>47.599998474121</ele>
        <time>2016-07-04T18:22:00.000Z</time>
      </trkpt>
      <trkpt lat="48.86079" lon="2.34966">
        <ele>47</ele>
        <time>2016-07-04T18:22:03.000Z</time>
      </trkpt>
      <trkpt lat="48.86098" lon="2.34975">
        <ele>46.400001525879</ele>
        <time>2016-07-04T18:22:06.000Z</time>
      </trkpt>
      <trkpt lat="48.86117" lon="2.34981">
        <ele>46.400001525879</ele>
        <time>2016-07-04T18:22:09.000Z</time>
      </trkpt>
      <trkpt lat="48.86136" lon="2.34989">
        <ele>46.400001525879</ele>
        <time>2016-07-04T18:22:12.000Z</time>
      </trkpt>
      <trkpt lat="48.86155" lon="2.34998">
        <ele>46.599998474121</ele>
        <time>2016-07-04T18:22:15.000Z</time>
      </trkpt>
      <trkpt lat="48.86175" lon="2.35007">
        <ele>47</ele>
        <time>2016-07-04T18:22:18.000Z</time>
      </trkpt>
      <trkpt lat="48.8618" lon="2.3501">
        <ele>47</ele>
        <time>2016-07-04T18:22:19.000Z</time>
      </trkpt>
      <trkpt lat="48.86199" lon="2.35021">
        <ele>47.400001525879</ele>
        <time>2016-07-04T18:22:22.000Z</time>
      </trkpt>
      <trkpt lat="48.86219" lon="2.35034">
        <ele>47.799999237061</ele>
        <time>2016-07-04T18:22:25.000Z</time>
      </trkpt>
      <trkpt lat="48.86238" lon="2.35051">
        <ele>48.200000762939</ele>
        <time>2016-07-04T18:22:28.000Z</time>
      </trkpt>
      <trkpt lat="48.86257" lon="2.35063">
        <ele>48.599998474121</ele>
        <time>2016-07-04T18:22:31.000Z</time>
      </trkpt>
      <trkpt lat="48.86275" lon="2.35077">
        <ele>49</ele>
        <time>2016-07-04T18:22:34.000Z</time>
      </trkpt>
      <trkpt lat="48.86296" lon="2.35083">
        <ele>48.599998474121</ele>
        <time>2016-07-04T18:22:38.000Z</time>
      </trkpt>
      <trkpt lat="48.86316" lon="2.35094">
        <ele>48.400001525879</ele>
        <time>2016-07-04T18:22:42.000Z</time>
      </trkpt>
      <trkpt lat="48.86334" lon="2.35107">
        <ele>48</ele>
        <time>2016-07-04T18:22:47.000Z</time>
      </trkpt>
      <trkpt lat="48.86338" lon="2.35105">
        <ele>48</ele>
        <time>2016-07-04T18:22:51.000Z</time>
      </trkpt>
      <trkpt lat="48.86346" lon="2.35097">
        <ele>48</ele>
        <time>2016-07-04T18:23:04.000Z</time>
      </trkpt>
      <trkpt lat="48.86363" lon="2.35104">
        <ele>47.799999237061</ele>
        <time>2016-07-04T18:23:08.000Z</time>
      </trkpt>
      <trkpt lat="48.86383" lon="2.35116">
        <ele>47.599998474121</ele>
        <time>2016-07-04T18:23:12.000Z</time>
      </trkpt>
      <trkpt lat="48.86401" lon="2.35125">
        <ele>47.400001525879</ele>
        <time>2016-07-04T18:23:17.000Z</time>
      </trkpt>
      <trkpt lat="48.86418" lon="2.3514">
        <ele>47.200000762939</ele>
        <time>2016-07-04T18:23:25.000Z</time>
      </trkpt>
      <trkpt lat="48.86435" lon="2.35155">
        <ele>47</ele>
        <time>2016-07-04T18:23:30.000Z</time>
      </trkpt>
      <trkpt lat="48.86453" lon="2.35172">
        <ele>47</ele>
        <time>2016-07-04T18:23:34.000Z</time>
      </trkpt>
      <trkpt lat="48.86473" lon="2.35184">
        <ele>46.799999237061</ele>
        <time>2016-07-04T18:23:39.000Z</time>
      </trkpt>
      <trkpt lat="48.8649" lon="2.35198">
        <ele>47</ele>
        <time>2016-07-04T18:23:43.000Z</time>
      </trkpt>
      <trkpt lat="48.86505" lon="2.35214">
        <ele>47.200000762939</ele>
        <time>2016-07-04T18:23:47.000Z</time>
      </trkpt>
      <trkpt lat="48.86521" lon="2.35228">
        <ele>47.400001525879</ele>
        <time>2016-07-04T18:23:51.000Z</time>
      </trkpt>
      <trkpt lat="48.8654" lon="2.3524">
        <ele>48</ele>
        <time>2016-07-04T18:23:55.000Z</time>
      </trkpt>
      <trkpt lat="48.8656" lon="2.35258">
        <ele>48.400001525879</ele>
        <time>2016-07-04T18:23:59.000Z</time>
      </trkpt>
      <trkpt lat="48.86579" lon="2.35274">
        <ele>48.400001525879</ele>
        <time>2016-07-04T18:24:03.000Z</time>
      </trkpt>
      <trkpt lat="48.86596" lon="2.35285">
        <ele>48.400001525879</ele>
        <time>2016-07-04T18:24:07.000Z</time>
      </trkpt>
      <trkpt lat="48.86617" lon="2.35294">
        <ele>48.599998474121</ele>
        <time>2016-07-04T18:24:18.000Z</time>
      </trkpt>
      <trkpt lat="48.86636" lon="2.35305">
        <ele>49</ele>
        <time>2016-07-04T18:24:23.000Z</time>
      </trkpt>
      <trkpt lat="48.86655" lon="2.35319">
        <ele>49.400001525879</ele>
        <time>2016-07-04T18:24:27.000Z</time>
      </trkpt>
      <trkpt lat="48.86676" lon="2.35314">
        <ele>49.799999237061</ele>
        <time>2016-07-04T18:24:32.000Z</time>
      </trkpt>
      <trkpt lat="48.86688" lon="2.35307">
        <ele>50</ele>
        <time>2016-07-04T18:24:35.000Z</time>
      </trkpt>
      <trkpt lat="48.86709" lon="2.35297">
        <ele>48.799999237061</ele>
        <time>2016-07-04T18:24:40.000Z</time>
      </trkpt>
      <trkpt lat="48.86714" lon="2.35302">
        <ele>48.599998474121</ele>
        <time>2016-07-04T18:24:41.000Z</time>
      </trkpt>
      <trkpt lat="48.86732" lon="2.35317">
        <ele>47.400001525879</ele>
        <time>2016-07-04T18:24:45.000Z</time>
      </trkpt>
      <trkpt lat="48.86751" lon="2.35331">
        <ele>46.400001525879</ele>
        <time>2016-07-04T18:24:49.000Z</time>
      </trkpt>
      <trkpt lat="48.86768" lon="2.35343">
        <ele>45.200000762939</ele>
        <time>2016-07-04T18:24:53.000Z</time>
      </trkpt>
      <trkpt lat="48.86773" lon="2.35345">
        <ele>45</ele>
        <time>2016-07-04T18:24:54.000Z</time>
      </trkpt>
      <trkpt lat="48.86791" lon="2.35358">
        <ele>45.599998474121</ele>
        <time>2016-07-04T18:24:58.000Z</time>
      </trkpt>
      <trkpt lat="48.86799" lon="2.3536">
        <ele>46</ele>
        <time>2016-07-04T18:25:00.000Z</time>
      </trkpt>
      <trkpt lat="48.8682" lon="2.35363">
        <ele>46.599998474121</ele>
        <time>2016-07-04T18:25:05.000Z</time>
      </trkpt>
      <trkpt lat="48.86824" lon="2.35365">
        <ele>46.799999237061</ele>
        <time>2016-07-04T18:25:06.000Z</time>
      </trkpt>
      <trkpt lat="48.86842" lon="2.35378">
        <ele>47.400001525879</ele>
        <time>2016-07-04T18:25:10.000Z</time>
      </trkpt>
      <trkpt lat="48.86862" lon="2.35393">
        <ele>48</ele>
        <time>2016-07-04T18:25:15.000Z</time>
      </trkpt>
      <trkpt lat="48.86876" lon="2.35408">
        <ele>47.799999237061</ele>
        <time>2016-07-04T18:25:19.000Z</time>
      </trkpt>
      <trkpt lat="48.86892" lon="2.35424">
        <ele>48</ele>
        <time>2016-07-04T18:25:24.000Z</time>
      </trkpt>
      <trkpt lat="48.86905" lon="2.35414">
        <ele>47.400001525879</ele>
        <time>2016-07-04T18:25:31.000Z</time>
      </trkpt>
      <trkpt lat="48.86907" lon="2.3541">
        <ele>47.400001525879</ele>
        <time>2016-07-04T18:25:33.000Z</time>
      </trkpt>
      <trkpt lat="48.86916" lon="2.35411">
        <ele>47.200000762939</ele>
        <time>2016-07-04T18:25:37.000Z</time>
      </trkpt>
      <trkpt lat="48.86923" lon="2.35409">
        <ele>47.200000762939</ele>
        <time>2016-07-04T18:25:40.000Z</time>
      </trkpt>
      <trkpt lat="48.86937" lon="2.35417">
        <ele>47.200000762939</ele>
        <time>2016-07-04T18:25:44.000Z</time>
      </trkpt>
      <trkpt lat="48.86957" lon="2.35429">
        <ele>47.599998474121</ele>
        <time>2016-07-04T18:25:49.000Z</time>
      </trkpt>
      <trkpt lat="48.86975" lon="2.35443">
        <ele>48.200000762939</ele>
        <time>2016-07-04T18:25:54.000Z</time>
      </trkpt>
      <trkpt lat="48.86993" lon="2.35456">
        <ele>48.799999237061</ele>
        <time>2016-07-04T18:25:59.000Z</time>
      </trkpt>
      <trkpt lat="48.87013" lon="2.35472">
        <ele>49.400001525879</ele>
        <time>2016-07-04T18:26:03.000Z</time>
      </trkpt>
      <trkpt lat="48.87032" lon="2.35486">
        <ele>49.599998474121</ele>
        <time>2016-07-04T18:26:07.000Z</time>
      </trkpt>
      <trkpt lat="48.87049" lon="2.35497">
        <ele>49</ele>
        <time>2016-07-04T18:26:10.000Z</time>
      </trkpt>
      <trkpt lat="48.87064" lon="2.35506">
        <ele>48.599998474121</ele>
        <time>2016-07-04T18:26:13.000Z</time>
      </trkpt>
      <trkpt lat="48.87084" lon="2.35518">
        <ele>48</ele>
        <time>2016-07-04T18:26:17.000Z</time>
      </trkpt>
      <trkpt lat="48.87106" lon="2.35527">
        <ele>47.400001525879</ele>
        <time>2016-07-04T18:26:21.000Z</time>
      </trkpt>
      <trkpt lat="48.87121" lon="2.35538">
        <ele>47.200000762939</ele>
        <time>2016-07-04T18:26:24.000Z</time>
      </trkpt>
      <trkpt lat="48.87143" lon="2.35554">
        <ele>46.799999237061</ele>
        <time>2016-07-04T18:26:28.000Z</time>
      </trkpt>
      <trkpt lat="48.87161" lon="2.3557">
        <ele>46.599998474121</ele>
        <time>2016-07-04T18:26:31.000Z</time>
      </trkpt>
      <trkpt lat="48.87179" lon="2.35586">
        <ele>46.400001525879</ele>
        <time>2016-07-04T18:26:34.000Z</time>
      </trkpt>
      <trkpt lat="48.87191" lon="2.3559">
        <ele>46.200000762939</ele>
        <time>2016-07-04T18:26:36.000Z</time>
      </trkpt>
      <trkpt lat="48.87207" lon="2.35598">
        <ele>46.400001525879</ele>
        <time>2016-07-04T18:26:39.000Z</time>
      </trkpt>
      <trkpt lat="48.87221" lon="2.35605">
        <ele>46.400001525879</ele>
        <time>2016-07-04T18:26:42.000Z</time>
      </trkpt>
      <trkpt lat="48.8724" lon="2.35619">
        <ele>46.799999237061</ele>
        <time>2016-07-04T18:26:46.000Z</time>
      </trkpt>
      <trkpt lat="48.87259" lon="2.35632">
        <ele>47</ele>
        <time>2016-07-04T18:26:50.000Z</time>
      </trkpt>
      <trkpt lat="48.87277" lon="2.35643">
        <ele>47.200000762939</ele>
        <time>2016-07-04T18:26:54.000Z</time>
      </trkpt>
      <trkpt lat="48.87296" lon="2.35659">
        <ele>47.200000762939</ele>
        <time>2016-07-04T18:26:58.000Z</time>
      </trkpt>
      <trkpt lat="48.87315" lon="2.35673">
        <ele>47</ele>
        <time>2016-07-04T18:27:02.000Z</time>
      </trkpt>
      <trkpt lat="48.87334" lon="2.35687">
        <ele>46.799999237061</ele>
        <time>2016-07-04T18:27:06.000Z</time>
      </trkpt>
      <trkpt lat="48.87349" lon="2.35699">
        <ele>46.599998474121</ele>
        <time>2016-07-04T18:27:09.000Z</time>
      </trkpt>
      <trkpt lat="48.87367" lon="2.35713">
        <ele>46.599998474121</ele>
        <time>2016-07-04T18:27:13.000Z</time>
      </trkpt>
      <trkpt lat="48.87389" lon="2.35726">
        <ele>46.799999237061</ele>
        <time>2016-07-04T18:27:17.000Z</time>
      </trkpt>
      <trkpt lat="48.8741" lon="2.3573">
        <ele>46.799999237061</ele>
        <time>2016-07-04T18:27:22.000Z</time>
      </trkpt>
      <trkpt lat="48.87432" lon="2.35736">
        <ele>47</ele>
        <time>2016-07-04T18:27:27.000Z</time>
      </trkpt>
      <trkpt lat="48.87443" lon="2.35741">
        <ele>47.200000762939</ele>
        <time>2016-07-04T18:27:29.000Z</time>
      </trkpt>
      <trkpt lat="48.87455" lon="2.35745">
        <ele>47.200000762939</ele>
        <time>2016-07-04T18:27:33.000Z</time>
      </trkpt>
      <trkpt lat="48.87457" lon="2.3574">
        <ele>47.400001525879</ele>
        <time>2016-07-04T18:27:35.000Z</time>
      </trkpt>
      <trkpt lat="48.87457" lon="2.35734">
        <ele>47.400001525879</ele>
        <time>2016-07-04T18:27:38.000Z</time>
      </trkpt>
      <trkpt lat="48.87472" lon="2.35749">
        <ele>47.400001525879</ele>
        <time>2016-07-04T18:27:54.000Z</time>
      </trkpt>
      <trkpt lat="48.87491" lon="2.35758">
        <ele>47.799999237061</ele>
        <time>2016-07-04T18:28:02.000Z</time>
      </trkpt>
      <trkpt lat="48.87505" lon="2.35765">
        <ele>48</ele>
        <time>2016-07-04T18:28:06.000Z</time>
      </trkpt>
      <trkpt lat="48.87513" lon="2.3577">
        <ele>48.200000762939</ele>
        <time>2016-07-04T18:28:08.000Z</time>
      </trkpt>
      <trkpt lat="48.8753" lon="2.35786">
        <ele>48.599998474121</ele>
        <time>2016-07-04T18:28:13.000Z</time>
      </trkpt>
      <trkpt lat="48.8755" lon="2.35801">
        <ele>49.400001525879</ele>
        <time>2016-07-04T18:28:18.000Z</time>
      </trkpt>
      <trkpt lat="48.8757" lon="2.35817">
        <ele>50</ele>
        <time>2016-07-04T18:28:22.000Z</time>
      </trkpt>
      <trkpt lat="48.87585" lon="2.3583">
        <ele>50.400001525879</ele>
        <time>2016-07-04T18:28:26.000Z</time>
      </trkpt>
      <trkpt lat="48.87603" lon="2.35841">
        <ele>51</ele>
        <time>2016-07-04T18:28:31.000Z</time>
      </trkpt>
      <trkpt lat="48.87608" lon="2.35866">
        <ele>51</ele>
        <time>2016-07-04T18:28:39.000Z</time>
      </trkpt>
      <trkpt lat="48.87605" lon="2.35897">
        <ele>51</ele>
        <time>2016-07-04T18:28:44.000Z</time>
      </trkpt>
      <trkpt lat="48.87603" lon="2.35929">
        <ele>51</ele>
        <time>2016-07-04T18:28:47.000Z</time>
      </trkpt>
      <trkpt lat="48.87583" lon="2.35951">
        <ele>50</ele>
        <time>2016-07-04T18:28:52.000Z</time>
      </trkpt>
      <trkpt lat="48.87574" lon="2.35972">
        <ele>49.599998474121</ele>
        <time>2016-07-04T18:28:57.000Z</time>
      </trkpt>
      <trkpt lat="48.87571" lon="2.35987">
        <ele>49.200000762939</ele>
        <time>2016-07-04T18:29:02.000Z</time>
      </trkpt>
      <trkpt lat="48.87574" lon="2.36014">
        <ele>49.200000762939</ele>
        <time>2016-07-04T18:29:13.000Z</time>
      </trkpt>
      <trkpt lat="48.87582" lon="2.36033">
        <ele>50</ele>
        <time>2016-07-04T18:29:17.000Z</time>
      </trkpt>
      <trkpt lat="48.87594" lon="2.36058">
        <ele>51</ele>
        <time>2016-07-04T18:29:22.000Z</time>
      </trkpt>
      <trkpt lat="48.87592" lon="2.36089">
        <ele>50.799999237061</ele>
        <time>2016-07-04T18:29:27.000Z</time>
      </trkpt>
      <trkpt lat="48.87596" lon="2.36117">
        <ele>50.799999237061</ele>
        <time>2016-07-04T18:29:34.000Z</time>
      </trkpt>
      <trkpt lat="48.87609" lon="2.36144">
        <ele>51.400001525879</ele>
        <time>2016-07-04T18:29:40.000Z</time>
      </trkpt>
      <trkpt lat="48.87616" lon="2.36173">
        <ele>51.400001525879</ele>
        <time>2016-07-04T18:29:46.000Z</time>
      </trkpt>
      <trkpt lat="48.87628" lon="2.36203">
        <ele>51.799999237061</ele>
        <time>2016-07-04T18:29:50.000Z</time>
      </trkpt>
      <trkpt lat="48.8764" lon="2.36225">
        <ele>52.200000762939</ele>
        <time>2016-07-04T18:29:54.000Z</time>
      </trkpt>
      <trkpt lat="48.87657" lon="2.36251">
        <ele>52.599998474121</ele>
        <time>2016-07-04T18:29:58.000Z</time>
      </trkpt>
      <trkpt lat="48.87663" lon="2.36278">
        <ele>51.200000762939</ele>
        <time>2016-07-04T18:30:03.000Z</time>
      </trkpt>
      <trkpt lat="48.87671" lon="2.36304">
        <ele>50</ele>
        <time>2016-07-04T18:30:08.000Z</time>
      </trkpt>
      <trkpt lat="48.87667" lon="2.36334">
        <ele>49.200000762939</ele>
        <time>2016-07-04T18:30:19.000Z</time>
      </trkpt>
      <trkpt lat="48.87663" lon="2.36334">
        <ele>49.200000762939</ele>
        <time>2016-07-04T18:30:20.000Z</time>
      </trkpt>
      <trkpt lat="48.87671" lon="2.36344">
        <ele>48.599998474121</ele>
        <time>2016-07-04T18:30:34.000Z</time>
      </trkpt>
      <trkpt lat="48.87671" lon="2.36344">
        <ele>48.599998474121</ele>
        <time>2016-07-04T18:30:35.000Z</time>
      </trkpt>
      <trkpt lat="48.87687" lon="2.36373">
        <ele>47</ele>
        <time>2016-07-04T18:30:40.000Z</time>
      </trkpt>
      <trkpt lat="48.87701" lon="2.36389">
        <ele>47.200000762939</ele>
        <time>2016-07-04T18:30:42.000Z</time>
      </trkpt>
      <trkpt lat="48.87716" lon="2.36407">
        <ele>47.599998474121</ele>
        <time>2016-07-04T18:30:45.000Z</time>
      </trkpt>
      <trkpt lat="48.87729" lon="2.36431">
        <ele>47.400001525879</ele>
        <time>2016-07-04T18:30:50.000Z</time>
      </trkpt>
      <trkpt lat="48.87748" lon="2.36447">
        <ele>48</ele>
        <time>2016-07-04T18:30:55.000Z</time>
      </trkpt>
      <trkpt lat="48.87768" lon="2.36468">
        <ele>48.400001525879</ele>
        <time>2016-07-04T18:30:59.000Z</time>
      </trkpt>
      <trkpt lat="48.87784" lon="2.36481">
        <ele>48.599998474121</ele>
        <time>2016-07-04T18:31:03.000Z</time>
      </trkpt>
      <trkpt lat="48.87796" lon="2.36493">
        <ele>48.599998474121</ele>
        <time>2016-07-04T18:31:16.000Z</time>
      </trkpt>
      <trkpt lat="48.87791" lon="2.36495">
        <ele>48.200000762939</ele>
        <time>2016-07-04T18:31:23.000Z</time>
      </trkpt>
      <trkpt lat="48.87783" lon="2.3652">
        <ele>47.599998474121</ele>
        <time>2016-07-04T18:31:29.000Z</time>
      </trkpt>
      <trkpt lat="48.87771" lon="2.36544">
        <ele>47.599998474121</ele>
        <time>2016-07-04T18:31:36.000Z</time>
      </trkpt>
      <trkpt lat="48.87755" lon="2.36562">
        <ele>47.799999237061</ele>
        <time>2016-07-04T18:31:42.000Z</time>
      </trkpt>
      <trkpt lat="48.87738" lon="2.3658">
        <ele>48.400001525879</ele>
        <time>2016-07-04T18:31:49.000Z</time>
      </trkpt>
      <trkpt lat="48.87736" lon="2.36579">
        <ele>48.400001525879</ele>
        <time>2016-07-04T18:31:51.000Z</time>
      </trkpt>
      <trkpt lat="48.87748" lon="2.36593">
        <ele>48.599998474121</ele>
        <time>2016-07-04T18:32:02.000Z</time>
      </trkpt>
      <trkpt lat="48.87764" lon="2.36611">
        <ele>48.799999237061</ele>
        <time>2016-07-04T18:32:06.000Z</time>
      </trkpt>
      <trkpt lat="48.87781" lon="2.36624">
        <ele>49.400001525879</ele>
        <time>2016-07-04T18:32:10.000Z</time>
      </trkpt>
      <trkpt lat="48.87798" lon="2.36638">
        <ele>50.200000762939</ele>
        <time>2016-07-04T18:32:14.000Z</time>
      </trkpt>
      <trkpt lat="48.87814" lon="2.36653">
        <ele>51.200000762939</ele>
        <time>2016-07-04T18:32:19.000Z</time>
      </trkpt>
      <trkpt lat="48.87834" lon="2.36676">
        <ele>53</ele>
        <time>2016-07-04T18:32:24.000Z</time>
      </trkpt>
      <trkpt lat="48.87849" lon="2.36695">
        <ele>55</ele>
        <time>2016-07-04T18:32:28.000Z</time>
      </trkpt>
      <trkpt lat="48.87862" lon="2.36716">
        <ele>56.599998474121</ele>
        <time>2016-07-04T18:32:33.000Z</time>
      </trkpt>
      <trkpt lat="48.87877" lon="2.36744">
        <ele>58.400001525879</ele>
        <time>2016-07-04T18:32:38.000Z</time>
      </trkpt>
      <trkpt lat="48.87894" lon="2.36759">
        <ele>58.599998474121</ele>
        <time>2016-07-04T18:32:42.000Z</time>
      </trkpt>
      <trkpt lat="48.87901" lon="2.36759">
        <ele>58.400001525879</ele>
        <time>2016-07-04T18:32:44.000Z</time>
      </trkpt>
      <trkpt lat="48.87923" lon="2.36767">
        <ele>58.200000762939</ele>
        <time>2016-07-04T18:32:51.000Z</time>
      </trkpt>
      <trkpt lat="48.87938" lon="2.36789">
        <ele>58</ele>
        <time>2016-07-04T18:32:57.000Z</time>
      </trkpt>
      <trkpt lat="48.87955" lon="2.36815">
        <ele>57.200000762939</ele>
        <time>2016-07-04T18:33:08.000Z</time>
      </trkpt>
      <trkpt lat="48.87974" lon="2.36837">
        <ele>56.599998474121</ele>
        <time>2016-07-04T18:33:12.000Z</time>
      </trkpt>
      <trkpt lat="48.87991" lon="2.36856">
        <ele>56.799999237061</ele>
        <time>2016-07-04T18:33:15.000Z</time>
      </trkpt>
      <trkpt lat="48.88009" lon="2.36877">
        <ele>56.799999237061</ele>
        <time>2016-07-04T18:33:19.000Z</time>
      </trkpt>
      <trkpt lat="48.88023" lon="2.36896">
        <ele>57</ele>
        <time>2016-07-04T18:33:22.000Z</time>
      </trkpt>
      <trkpt lat="48.88039" lon="2.36918">
        <ele>57.799999237061</ele>
        <time>2016-07-04T18:33:26.000Z</time>
      </trkpt>
      <trkpt lat="48.88053" lon="2.36939">
        <ele>58.400001525879</ele>
        <time>2016-07-04T18:33:30.000Z</time>
      </trkpt>
      <trkpt lat="48.88058" lon="2.36944">
        <ele>58.599998474121</ele>
        <time>2016-07-04T18:33:31.000Z</time>
      </trkpt>
      <trkpt lat="48.88067" lon="2.36951">
        <ele>58.599998474121</ele>
        <time>2016-07-04T18:33:33.000Z</time>
      </trkpt>
      <trkpt lat="48.88087" lon="2.36964">
        <ele>58.799999237061</ele>
        <time>2016-07-04T18:33:37.000Z</time>
      </trkpt>
      <trkpt lat="48.88104" lon="2.36983">
        <ele>59.400001525879</ele>
        <time>2016-07-04T18:33:41.000Z</time>
      </trkpt>
      <trkpt lat="48.88119" lon="2.37007">
        <ele>59.799999237061</ele>
        <time>2016-07-04T18:33:45.000Z</time>
      </trkpt>
      <trkpt lat="48.88135" lon="2.3703">
        <ele>59.799999237061</ele>
        <time>2016-07-04T18:33:49.000Z</time>
      </trkpt>
      <trkpt lat="48.88148" lon="2.37047">
        <ele>59.799999237061</ele>
        <time>2016-07-04T18:33:53.000Z</time>
      </trkpt>
      <trkpt lat="48.88144" lon="2.37016">
        <ele>59.200000762939</ele>
        <time>2016-07-04T18:33:57.000Z</time>
      </trkpt>
      <trkpt lat="48.88142" lon="2.37006">
        <ele>59</ele>
        <time>2016-07-04T18:34:00.000Z</time>
      </trkpt>
      <trkpt lat="48.88136" lon="2.36989">
        <ele>58.400001525879</ele>
        <time>2016-07-04T18:34:08.000Z</time>
      </trkpt>
      <trkpt lat="48.88136" lon="2.36989">
        <ele>58.599998474121</ele>
        <time>2016-07-04T18:34:09.000Z</time>
      </trkpt>
      <trkpt lat="48.88139" lon="2.37002">
        <ele>59</ele>
        <time>2016-07-04T18:34:18.000Z</time>
      </trkpt>
      <trkpt lat="48.88152" lon="2.37028">
        <ele>59.400001525879</ele>
        <time>2016-07-04T18:34:27.000Z</time>
      </trkpt>
      <trkpt lat="48.88171" lon="2.37031">
        <ele>58.799999237061</ele>
        <time>2016-07-04T18:34:33.000Z</time>
      </trkpt>
      <trkpt lat="48.88195" lon="2.37043">
        <ele>58.599998474121</ele>
        <time>2016-07-04T18:34:38.000Z</time>
      </trkpt>
      <trkpt lat="48.88216" lon="2.37052">
        <ele>59</ele>
        <time>2016-07-04T18:34:42.000Z</time>
      </trkpt>
      <trkpt lat="48.88235" lon="2.3705">
        <ele>58.799999237061</ele>
        <time>2016-07-04T18:34:47.000Z</time>
      </trkpt>
      <trkpt lat="48.88253" lon="2.37036">
        <ele>58</ele>
        <time>2016-07-04T18:34:53.000Z</time>
      </trkpt>
      <trkpt lat="48.88272" lon="2.37038">
        <ele>58</ele>
        <time>2016-07-04T18:35:00.000Z</time>
      </trkpt>
      <trkpt lat="48.88286" lon="2.37047">
        <ele>57.400001525879</ele>
        <time>2016-07-04T18:35:06.000Z</time>
      </trkpt>
      <trkpt lat="48.88298" lon="2.37072">
        <ele>57.799999237061</ele>
        <time>2016-07-04T18:35:11.000Z</time>
      </trkpt>
      <trkpt lat="48.88309" lon="2.37084">
        <ele>57.599998474121</ele>
        <time>2016-07-04T18:35:14.000Z</time>
      </trkpt>
      <trkpt lat="48.88329" lon="2.37092">
        <ele>56.599998474121</ele>
        <time>2016-07-04T18:35:21.000Z</time>
      </trkpt>
      <trkpt lat="48.88346" lon="2.37103">
        <ele>55.799999237061</ele>
        <time>2016-07-04T18:35:27.000Z</time>
      </trkpt>
      <trkpt lat="48.88352" lon="2.37136">
        <ele>57</ele>
        <time>2016-07-04T18:35:33.000Z</time>
      </trkpt>
      <trkpt lat="48.88369" lon="2.3716">
        <ele>57</ele>
        <time>2016-07-04T18:35:37.000Z</time>
      </trkpt>
      <trkpt lat="48.88386" lon="2.37174">
        <ele>56.400001525879</ele>
        <time>2016-07-04T18:35:40.000Z</time>
      </trkpt>
      <trkpt lat="48.88401" lon="2.37189">
        <ele>56</ele>
        <time>2016-07-04T18:35:43.000Z</time>
      </trkpt>
      <trkpt lat="48.88414" lon="2.37212">
        <ele>55.599998474121</ele>
        <time>2016-07-04T18:35:46.000Z</time>
      </trkpt>
      <trkpt lat="48.88425" lon="2.37236">
        <ele>55.599998474121</ele>
        <time>2016-07-04T18:35:49.000Z</time>
      </trkpt>
      <trkpt lat="48.88438" lon="2.3726">
        <ele>55.400001525879</ele>
        <time>2016-07-04T18:35:52.000Z</time>
      </trkpt>
      <trkpt lat="48.8844" lon="2.3732">
        <ele>56.799999237061</ele>
        <time>2016-07-04T18:35:54.000Z</time>
      </trkpt>
      <trkpt lat="48.88449" lon="2.37356">
        <ele>57.200000762939</ele>
        <time>2016-07-04T18:35:57.000Z</time>
      </trkpt>
      <trkpt lat="48.88454" lon="2.37385">
        <ele>57.599998474121</ele>
        <time>2016-07-04T18:35:59.000Z</time>
      </trkpt>
      <trkpt lat="48.88455" lon="2.37393">
        <ele>57.799999237061</ele>
        <time>2016-07-04T18:36:00.000Z</time>
      </trkpt>
      <trkpt lat="48.8846" lon="2.37406">
        <ele>57.799999237061</ele>
        <time>2016-07-04T18:36:02.000Z</time>
      </trkpt>
      <trkpt lat="48.88478" lon="2.37434">
        <ele>57.599998474121</ele>
        <time>2016-07-04T18:36:05.000Z</time>
      </trkpt>
      <trkpt lat="48.88492" lon="2.3746">
        <ele>57.599998474121</ele>
        <time>2016-07-04T18:36:09.000Z</time>
      </trkpt>
      <trkpt lat="48.8851" lon="2.37487">
        <ele>57.400001525879</ele>
        <time>2016-07-04T18:36:15.000Z</time>
      </trkpt>
      <trkpt lat="48.88522" lon="2.37511">
        <ele>57.400001525879</ele>
        <time>2016-07-04T18:36:18.000Z</time>
      </trkpt>
      <trkpt lat="48.88535" lon="2.37534">
        <ele>57.400001525879</ele>
        <time>2016-07-04T18:36:21.000Z</time>
      </trkpt>
      <trkpt lat="48.88547" lon="2.37556">
        <ele>57.200000762939</ele>
        <time>2016-07-04T18:36:24.000Z</time>
      </trkpt>
      <trkpt lat="48.8856" lon="2.37576">
        <ele>57</ele>
        <time>2016-07-04T18:36:27.000Z</time>
      </trkpt>
      <trkpt lat="48.88575" lon="2.37596">
        <ele>57</ele>
        <time>2016-07-04T18:36:30.000Z</time>
      </trkpt>
      <trkpt lat="48.88586" lon="2.37618">
        <ele>57.400001525879</ele>
        <time>2016-07-04T18:36:33.000Z</time>
      </trkpt>
      <trkpt lat="48.88601" lon="2.37626">
        <ele>56.799999237061</ele>
        <time>2016-07-04T18:36:39.000Z</time>
      </trkpt>
      <trkpt lat="48.8861" lon="2.37644">
        <ele>57.200000762939</ele>
        <time>2016-07-04T18:36:43.000Z</time>
      </trkpt>
      <trkpt lat="48.8862" lon="2.37668">
        <ele>58</ele>
        <time>2016-07-04T18:36:47.000Z</time>
      </trkpt>
      <trkpt lat="48.8863" lon="2.37691">
        <ele>58.599998474121</ele>
        <time>2016-07-04T18:36:52.000Z</time>
      </trkpt>
      <trkpt lat="48.88644" lon="2.37713">
        <ele>59.599998474121</ele>
        <time>2016-07-04T18:36:56.000Z</time>
      </trkpt>
      <trkpt lat="48.88654" lon="2.37738">
        <ele>61</ele>
        <time>2016-07-04T18:37:01.000Z</time>
      </trkpt>
      <trkpt lat="48.88668" lon="2.37759">
        <ele>60.599998474121</ele>
        <time>2016-07-04T18:37:05.000Z</time>
      </trkpt>
      <trkpt lat="48.88682" lon="2.37779">
        <ele>58.799999237061</ele>
        <time>2016-07-04T18:37:09.000Z</time>
      </trkpt>
      <trkpt lat="48.88693" lon="2.37805">
        <ele>57.599998474121</ele>
        <time>2016-07-04T18:37:14.000Z</time>
      </trkpt>
      <trkpt lat="48.88702" lon="2.37829">
        <ele>56.799999237061</ele>
        <time>2016-07-04T18:37:20.000Z</time>
      </trkpt>
      <trkpt lat="48.88702" lon="2.37839">
        <ele>56.799999237061</ele>
        <time>2016-07-04T18:37:22.000Z</time>
      </trkpt>
      <trkpt lat="48.88714" lon="2.37855">
        <ele>56.799999237061</ele>
        <time>2016-07-04T18:37:28.000Z</time>
      </trkpt>
      <trkpt lat="48.88726" lon="2.3788">
        <ele>56.599998474121</ele>
        <time>2016-07-04T18:37:32.000Z</time>
      </trkpt>
      <trkpt lat="48.8874" lon="2.37909">
        <ele>56.400001525879</ele>
        <time>2016-07-04T18:37:36.000Z</time>
      </trkpt>
      <trkpt lat="48.88751" lon="2.37935">
        <ele>56.799999237061</ele>
        <time>2016-07-04T18:37:41.000Z</time>
      </trkpt>
      <trkpt lat="48.88765" lon="2.3796">
        <ele>57.200000762939</ele>
        <time>2016-07-04T18:37:46.000Z</time>
      </trkpt>
      <trkpt lat="48.88772" lon="2.37974">
        <ele>57.400001525879</ele>
        <time>2016-07-04T18:37:48.000Z</time>
      </trkpt>
      <trkpt lat="48.88788" lon="2.37974">
        <ele>56.799999237061</ele>
        <time>2016-07-04T18:37:54.000Z</time>
      </trkpt>
      <trkpt lat="48.88795" lon="2.37969">
        <ele>56.200000762939</ele>
        <time>2016-07-04T18:37:58.000Z</time>
      </trkpt>
      <trkpt lat="48.88802" lon="2.37969">
        <ele>56</ele>
        <time>2016-07-04T18:38:03.000Z</time>
      </trkpt>
      <trkpt lat="48.8881" lon="2.37964">
        <ele>55.400001525879</ele>
        <time>2016-07-04T18:38:11.000Z</time>
      </trkpt>
      <trkpt lat="48.88821" lon="2.37989">
        <ele>55.599998474121</ele>
        <time>2016-07-04T18:38:42.000Z</time>
      </trkpt>
      <trkpt lat="48.8882" lon="2.37976">
        <ele>55.200000762939</ele>
        <time>2016-07-04T18:38:51.000Z</time>
      </trkpt>
      <trkpt lat="48.88831" lon="2.38">
        <ele>55.400001525879</ele>
        <time>2016-07-04T18:39:00.000Z</time>
      </trkpt>
      <trkpt lat="48.88844" lon="2.38021">
        <ele>56</ele>
        <time>2016-07-04T18:39:05.000Z</time>
      </trkpt>
      <trkpt lat="48.8886" lon="2.38047">
        <ele>56.799999237061</ele>
        <time>2016-07-04T18:39:09.000Z</time>
      </trkpt>
      <trkpt lat="48.88873" lon="2.38071">
        <ele>57.799999237061</ele>
        <time>2016-07-04T18:39:12.000Z</time>
      </trkpt>
      <trkpt lat="48.88887" lon="2.38099">
        <ele>58.799999237061</ele>
        <time>2016-07-04T18:39:16.000Z</time>
      </trkpt>
      <trkpt lat="48.88898" lon="2.38122">
        <ele>59.400001525879</ele>
        <time>2016-07-04T18:39:19.000Z</time>
      </trkpt>
      <trkpt lat="48.88909" lon="2.38145">
        <ele>60</ele>
        <time>2016-07-04T18:39:22.000Z</time>
      </trkpt>
      <trkpt lat="48.88921" lon="2.38171">
        <ele>60.400001525879</ele>
        <time>2016-07-04T18:39:25.000Z</time>
      </trkpt>
      <trkpt lat="48.88934" lon="2.38196">
        <ele>60.799999237061</ele>
        <time>2016-07-04T18:39:28.000Z</time>
      </trkpt>
      <trkpt lat="48.88946" lon="2.38222">
        <ele>61</ele>
        <time>2016-07-04T18:39:31.000Z</time>
      </trkpt>
      <trkpt lat="48.88959" lon="2.38243">
        <ele>61</ele>
        <time>2016-07-04T18:39:34.000Z</time>
      </trkpt>
      <trkpt lat="48.88976" lon="2.38269">
        <ele>60.200000762939</ele>
        <time>2016-07-04T18:39:39.000Z</time>
      </trkpt>
      <trkpt lat="48.88991" lon="2.38288">
        <ele>59.599998474121</ele>
        <time>2016-07-04T18:39:43.000Z</time>
      </trkpt>
      <trkpt lat="48.89003" lon="2.38313">
        <ele>59</ele>
        <time>2016-07-04T18:39:47.000Z</time>
      </trkpt>
      <trkpt lat="48.89015" lon="2.38336">
        <ele>58.400001525879</ele>
        <time>2016-07-04T18:39:50.000Z</time>
      </trkpt>
      <trkpt lat="48.89016" lon="2.38341">
        <ele>58.200000762939</ele>
        <time>2016-07-04T18:39:51.000Z</time>
      </trkpt>
      <trkpt lat="48.89028" lon="2.38363">
        <ele>57.400001525879</ele>
        <time>2016-07-04T18:39:55.000Z</time>
      </trkpt>
      <trkpt lat="48.89042" lon="2.38391">
        <ele>56.799999237061</ele>
        <time>2016-07-04T18:39:59.000Z</time>
      </trkpt>
      <trkpt lat="48.89053" lon="2.38418">
        <ele>56.400001525879</ele>
        <time>2016-07-04T18:40:03.000Z</time>
      </trkpt>
      <trkpt lat="48.89064" lon="2.38443">
        <ele>56.400001525879</ele>
        <time>2016-07-04T18:40:06.000Z</time>
      </trkpt>
      <trkpt lat="48.89079" lon="2.38468">
        <ele>56.400001525879</ele>
        <time>2016-07-04T18:40:09.000Z</time>
      </trkpt>
      <trkpt lat="48.89088" lon="2.38493">
        <ele>56.400001525879</ele>
        <time>2016-07-04T18:40:12.000Z</time>
      </trkpt>
      <trkpt lat="48.89099" lon="2.38524">
        <ele>57.200000762939</ele>
        <time>2016-07-04T18:40:16.000Z</time>
      </trkpt>
      <trkpt lat="48.89102" lon="2.3853">
        <ele>57.200000762939</ele>
        <time>2016-07-04T18:40:18.000Z</time>
      </trkpt>
      <trkpt lat="48.89116" lon="2.38553">
        <ele>57.599998474121</ele>
        <time>2016-07-04T18:40:22.000Z</time>
      </trkpt>
      <trkpt lat="48.89132" lon="2.38576">
        <ele>57.799999237061</ele>
        <time>2016-07-04T18:40:27.000Z</time>
      </trkpt>
      <trkpt lat="48.89135" lon="2.3858">
        <ele>58</ele>
        <time>2016-07-04T18:40:28.000Z</time>
      </trkpt>
      <trkpt lat="48.89141" lon="2.38592">
        <ele>57.599998474121</ele>
        <time>2016-07-04T18:40:30.000Z</time>
      </trkpt>
      <trkpt lat="48.89153" lon="2.38613">
        <ele>56.599998474121</ele>
        <time>2016-07-04T18:40:33.000Z</time>
      </trkpt>
      <trkpt lat="48.89163" lon="2.38639">
        <ele>55.599998474121</ele>
        <time>2016-07-04T18:40:37.000Z</time>
      </trkpt>
      <trkpt lat="48.8917" lon="2.38655">
        <ele>55.400001525879</ele>
        <time>2016-07-04T18:40:40.000Z</time>
      </trkpt>
      <trkpt lat="48.89175" lon="2.38672">
        <ele>55</ele>
        <time>2016-07-04T18:40:44.000Z</time>
      </trkpt>
      <trkpt lat="48.89178" lon="2.38676">
        <ele>54.799999237061</ele>
        <time>2016-07-04T18:40:46.000Z</time>
      </trkpt>
      <trkpt lat="48.8919" lon="2.38682">
        <ele>54</ele>
        <time>2016-07-04T18:40:50.000Z</time>
      </trkpt>
      <trkpt lat="48.892" lon="2.38692">
        <ele>54.200000762939</ele>
        <time>2016-07-04T18:40:54.000Z</time>
      </trkpt>
      <trkpt lat="48.8921" lon="2.38718">
        <ele>54.200000762939</ele>
        <time>2016-07-04T18:41:04.000Z</time>
      </trkpt>
      <trkpt lat="48.89212" lon="2.38722">
        <ele>54.200000762939</ele>
        <time>2016-07-04T18:41:05.000Z</time>
      </trkpt>
      <trkpt lat="48.89223" lon="2.38747">
        <ele>54.400001525879</ele>
        <time>2016-07-04T18:41:10.000Z</time>
      </trkpt>
      <trkpt lat="48.89235" lon="2.38767">
        <ele>54</ele>
        <time>2016-07-04T18:41:14.000Z</time>
      </trkpt>
      <trkpt lat="48.89247" lon="2.38799">
        <ele>53.400001525879</ele>
        <time>2016-07-04T18:41:18.000Z</time>
      </trkpt>
      <trkpt lat="48.89256" lon="2.38827">
        <ele>52.799999237061</ele>
        <time>2016-07-04T18:41:25.000Z</time>
      </trkpt>
      <trkpt lat="48.89269" lon="2.38848">
        <ele>52.799999237061</ele>
        <time>2016-07-04T18:41:30.000Z</time>
      </trkpt>
      <trkpt lat="48.89283" lon="2.38873">
        <ele>52.799999237061</ele>
        <time>2016-07-04T18:41:34.000Z</time>
      </trkpt>
      <trkpt lat="48.89296" lon="2.38899">
        <ele>52.799999237061</ele>
        <time>2016-07-04T18:41:37.000Z</time>
      </trkpt>
      <trkpt lat="48.89307" lon="2.38925">
        <ele>52.799999237061</ele>
        <time>2016-07-04T18:41:41.000Z</time>
      </trkpt>
      <trkpt lat="48.89319" lon="2.38949">
        <ele>53</ele>
        <time>2016-07-04T18:41:45.000Z</time>
      </trkpt>
      <trkpt lat="48.89331" lon="2.38971">
        <ele>53.400001525879</ele>
        <time>2016-07-04T18:41:49.000Z</time>
      </trkpt>
      <trkpt lat="48.89343" lon="2.38995">
        <ele>53.599998474121</ele>
        <time>2016-07-04T18:41:51.000Z</time>
      </trkpt>
      <trkpt lat="48.89355" lon="2.39019">
        <ele>53.599998474121</ele>
        <time>2016-07-04T18:41:54.000Z</time>
      </trkpt>
      <trkpt lat="48.89367" lon="2.39041">
        <ele>53.599998474121</ele>
        <time>2016-07-04T18:41:57.000Z</time>
      </trkpt>
      <trkpt lat="48.89379" lon="2.39063">
        <ele>53.400001525879</ele>
        <time>2016-07-04T18:42:00.000Z</time>
      </trkpt>
      <trkpt lat="48.89382" lon="2.39071">
        <ele>53.400001525879</ele>
        <time>2016-07-04T18:42:01.000Z</time>
      </trkpt>
      <trkpt lat="48.89393" lon="2.39094">
        <ele>53.599998474121</ele>
        <time>2016-07-04T18:42:04.000Z</time>
      </trkpt>
      <trkpt lat="48.89407" lon="2.39116">
        <ele>54</ele>
        <time>2016-07-04T18:42:07.000Z</time>
      </trkpt>
      <trkpt lat="48.89419" lon="2.39139">
        <ele>54.400001525879</ele>
        <time>2016-07-04T18:42:10.000Z</time>
      </trkpt>
      <trkpt lat="48.89431" lon="2.39162">
        <ele>54.799999237061</ele>
        <time>2016-07-04T18:42:13.000Z</time>
      </trkpt>
      <trkpt lat="48.89443" lon="2.39191">
        <ele>54</ele>
        <time>2016-07-04T18:42:17.000Z</time>
      </trkpt>
      <trkpt lat="48.89456" lon="2.3922">
        <ele>53</ele>
        <time>2016-07-04T18:42:21.000Z</time>
      </trkpt>
      <trkpt lat="48.8947" lon="2.39248">
        <ele>52</ele>
        <time>2016-07-04T18:42:25.000Z</time>
      </trkpt>
      <trkpt lat="48.89484" lon="2.39273">
        <ele>51.799999237061</ele>
        <time>2016-07-04T18:42:30.000Z</time>
      </trkpt>
      <trkpt lat="48.89487" lon="2.39277">
        <ele>51.599998474121</ele>
        <time>2016-07-04T18:42:33.000Z</time>
      </trkpt>
      <trkpt lat="48.89484" lon="2.39271">
        <ele>51.799999237061</ele>
        <time>2016-07-04T18:42:44.000Z</time>
      </trkpt>
      <trkpt lat="48.89472" lon="2.39245">
        <ele>52.200000762939</ele>
        <time>2016-07-04T18:42:59.000Z</time>
      </trkpt>
      <trkpt lat="48.89461" lon="2.39223">
        <ele>52.799999237061</ele>
        <time>2016-07-04T18:43:03.000Z</time>
      </trkpt>
      <trkpt lat="48.89448" lon="2.39198">
        <ele>53.799999237061</ele>
        <time>2016-07-04T18:43:08.000Z</time>
      </trkpt>
      <trkpt lat="48.89437" lon="2.39174">
        <ele>54.599998474121</ele>
        <time>2016-07-04T18:43:14.000Z</time>
      </trkpt>
      <trkpt lat="48.89433" lon="2.3917">
        <ele>54.599998474121</ele>
        <time>2016-07-04T18:43:19.000Z</time>
      </trkpt>
      <trkpt lat="48.89438" lon="2.39186">
        <ele>54.200000762939</ele>
        <time>2016-07-04T18:44:14.000Z</time>
      </trkpt>
      <trkpt lat="48.89453" lon="2.39168">
        <ele>54.599998474121</ele>
        <time>2016-07-04T18:44:22.000Z</time>
      </trkpt>
      <trkpt lat="48.89471" lon="2.39154">
        <ele>54.200000762939</ele>
        <time>2016-07-04T18:44:29.000Z</time>
      </trkpt>
      <trkpt lat="48.89473" lon="2.39153">
        <ele>54</ele>
        <time>2016-07-04T18:44:31.000Z</time>
      </trkpt>
      <trkpt lat="48.89475" lon="2.39166">
        <ele>54.200000762939</ele>
        <time>2016-07-04T18:45:51.000Z</time>
      </trkpt>
      <trkpt lat="48.89486" lon="2.39191">
        <ele>53.599998474121</ele>
        <time>2016-07-04T18:46:07.000Z</time>
      </trkpt>
      <trkpt lat="48.89495" lon="2.39204">
        <ele>53.200000762939</ele>
        <time>2016-07-04T18:46:11.000Z</time>
      </trkpt>
      <trkpt lat="48.89513" lon="2.39212">
        <ele>52.599998474121</ele>
        <time>2016-07-04T18:46:18.000Z</time>
      </trkpt>
      <trkpt lat="48.89518" lon="2.39227">
        <ele>52.400001525879</ele>
        <time>2016-07-04T18:46:21.000Z</time>
      </trkpt>
      <trkpt lat="48.89529" lon="2.39253">
        <ele>51.799999237061</ele>
        <time>2016-07-04T18:46:27.000Z</time>
      </trkpt>
      <trkpt lat="48.89542" lon="2.39282">
        <ele>51.400001525879</ele>
        <time>2016-07-04T18:46:32.000Z</time>
      </trkpt>
      <trkpt lat="48.89553" lon="2.39306">
        <ele>51</ele>
        <time>2016-07-04T18:46:36.000Z</time>
      </trkpt>
      <trkpt lat="48.89564" lon="2.39331">
        <ele>50.599998474121</ele>
        <time>2016-07-04T18:46:40.000Z</time>
      </trkpt>
      <trkpt lat="48.89573" lon="2.39356">
        <ele>50.599998474121</ele>
        <time>2016-07-04T18:46:45.000Z</time>
      </trkpt>
      <trkpt lat="48.89567" lon="2.39363">
        <ele>50.799999237061</ele>
        <time>2016-07-04T18:46:48.000Z</time>
      </trkpt>
      <trkpt lat="48.89549" lon="2.39366">
        <ele>51</ele>
        <time>2016-07-04T18:46:54.000Z</time>
      </trkpt>
      <trkpt lat="48.89554" lon="2.39384">
        <ele>51</ele>
        <time>2016-07-04T18:46:58.000Z</time>
      </trkpt>
      <trkpt lat="48.89563" lon="2.39409">
        <ele>51</ele>
        <time>2016-07-04T18:47:02.000Z</time>
      </trkpt>
      <trkpt lat="48.89576" lon="2.39428">
        <ele>51.400001525879</ele>
        <time>2016-07-04T18:47:07.000Z</time>
      </trkpt>
      <trkpt lat="48.89588" lon="2.39452">
        <ele>51.799999237061</ele>
        <time>2016-07-04T18:47:12.000Z</time>
      </trkpt>
      <trkpt lat="48.896" lon="2.3948">
        <ele>52.599998474121</ele>
        <time>2016-07-04T18:47:16.000Z</time>
      </trkpt>
      <trkpt lat="48.89607" lon="2.39509">
        <ele>52.799999237061</ele>
        <time>2016-07-04T18:47:20.000Z</time>
      </trkpt>
      <trkpt lat="48.89612" lon="2.39537">
        <ele>52.599998474121</ele>
        <time>2016-07-04T18:47:24.000Z</time>
      </trkpt>
      <trkpt lat="48.89615" lon="2.39566">
        <ele>52.400001525879</ele>
        <time>2016-07-04T18:47:28.000Z</time>
      </trkpt>
      <trkpt lat="48.89618" lon="2.39587">
        <ele>52.200000762939</ele>
        <time>2016-07-04T18:47:31.000Z</time>
      </trkpt>
      <trkpt lat="48.89623" lon="2.39618">
        <ele>51.799999237061</ele>
        <time>2016-07-04T18:47:35.000Z</time>
      </trkpt>
      <trkpt lat="48.89627" lon="2.39638">
        <ele>51.599998474121</ele>
        <time>2016-07-04T18:47:38.000Z</time>
      </trkpt>
      <trkpt lat="48.89627" lon="2.39669">
        <ele>51.400001525879</ele>
        <time>2016-07-04T18:47:43.000Z</time>
      </trkpt>
      <trkpt lat="48.89629" lon="2.39697">
        <ele>52.799999237061</ele>
        <time>2016-07-04T18:47:47.000Z</time>
      </trkpt>
      <trkpt lat="48.89629" lon="2.39711">
        <ele>53</ele>
        <time>2016-07-04T18:47:49.000Z</time>
      </trkpt>
      <trkpt lat="48.89635" lon="2.39744">
        <ele>53.599998474121</ele>
        <time>2016-07-04T18:47:54.000Z</time>
      </trkpt>
      <trkpt lat="48.89637" lon="2.39765">
        <ele>53.400001525879</ele>
        <time>2016-07-04T18:47:57.000Z</time>
      </trkpt>
      <trkpt lat="48.89638" lon="2.39791">
        <ele>53.200000762939</ele>
        <time>2016-07-04T18:48:01.000Z</time>
      </trkpt>
      <trkpt lat="48.89638" lon="2.39814">
        <ele>53.599998474121</ele>
        <time>2016-07-04T18:48:04.000Z</time>
      </trkpt>
      <trkpt lat="48.89637" lon="2.39845">
        <ele>53.799999237061</ele>
        <time>2016-07-04T18:48:08.000Z</time>
      </trkpt>
      <trkpt lat="48.89638" lon="2.39876">
        <ele>54</ele>
        <time>2016-07-04T18:48:12.000Z</time>
      </trkpt>
      <trkpt lat="48.89638" lon="2.39902">
        <ele>54.200000762939</ele>
        <time>2016-07-04T18:48:15.000Z</time>
      </trkpt>
      <trkpt lat="48.89632" lon="2.39935">
        <ele>54.599998474121</ele>
        <time>2016-07-04T18:48:19.000Z</time>
      </trkpt>
      <trkpt lat="48.8963" lon="2.39942">
        <ele>54.799999237061</ele>
        <time>2016-07-04T18:48:20.000Z</time>
      </trkpt>
      <trkpt lat="48.89626" lon="2.39971">
        <ele>55.799999237061</ele>
        <time>2016-07-04T18:48:24.000Z</time>
      </trkpt>
      <trkpt lat="48.8962" lon="2.39994">
        <ele>56.599998474121</ele>
        <time>2016-07-04T18:48:28.000Z</time>
      </trkpt>
      <trkpt lat="48.89617" lon="2.40007">
        <ele>57</ele>
        <time>2016-07-04T18:48:30.000Z</time>
      </trkpt>
      <trkpt lat="48.89612" lon="2.4004">
        <ele>56.200000762939</ele>
        <time>2016-07-04T18:48:35.000Z</time>
      </trkpt>
      <trkpt lat="48.89607" lon="2.40067">
        <ele>55.400001525879</ele>
        <time>2016-07-04T18:48:39.000Z</time>
      </trkpt>
      <trkpt lat="48.89606" lon="2.40079">
        <ele>55</ele>
        <time>2016-07-04T18:48:41.000Z</time>
      </trkpt>
      <trkpt lat="48.89603" lon="2.40094">
        <ele>55.200000762939</ele>
        <time>2016-07-04T18:48:44.000Z</time>
      </trkpt>
      <trkpt lat="48.89596" lon="2.40129">
        <ele>56</ele>
        <time>2016-07-04T18:48:51.000Z</time>
      </trkpt>
      <trkpt lat="48.89594" lon="2.40157">
        <ele>56.400001525879</ele>
        <time>2016-07-04T18:48:55.000Z</time>
      </trkpt>
      <trkpt lat="48.89592" lon="2.40187">
        <ele>57.400001525879</ele>
        <time>2016-07-04T18:48:59.000Z</time>
      </trkpt>
      <trkpt lat="48.89593" lon="2.402">
        <ele>58</ele>
        <time>2016-07-04T18:49:01.000Z</time>
      </trkpt>
      <trkpt lat="48.89594" lon="2.40231">
        <ele>59</ele>
        <time>2016-07-04T18:49:06.000Z</time>
      </trkpt>
      <trkpt lat="48.89596" lon="2.40263">
        <ele>58.799999237061</ele>
        <time>2016-07-04T18:49:10.000Z</time>
      </trkpt>
      <trkpt lat="48.89595" lon="2.40291">
        <ele>58.400001525879</ele>
        <time>2016-07-04T18:49:14.000Z</time>
      </trkpt>
      <trkpt lat="48.89592" lon="2.40324">
        <ele>58.200000762939</ele>
        <time>2016-07-04T18:49:19.000Z</time>
      </trkpt>
      <trkpt lat="48.89588" lon="2.4035">
        <ele>58.599998474121</ele>
        <time>2016-07-04T18:49:23.000Z</time>
      </trkpt>
      <trkpt lat="48.89584" lon="2.4038">
        <ele>59.400001525879</ele>
        <time>2016-07-04T18:49:27.000Z</time>
      </trkpt>
      <trkpt lat="48.89581" lon="2.40411">
        <ele>58.599998474121</ele>
        <time>2016-07-04T18:49:31.000Z</time>
      </trkpt>
      <trkpt lat="48.89576" lon="2.40443">
        <ele>58.599998474121</ele>
        <time>2016-07-04T18:49:35.000Z</time>
      </trkpt>
      <trkpt lat="48.89572" lon="2.40478">
        <ele>58.400001525879</ele>
        <time>2016-07-04T18:49:39.000Z</time>
      </trkpt>
      <trkpt lat="48.89569" lon="2.40513">
        <ele>57.400001525879</ele>
        <time>2016-07-04T18:49:43.000Z</time>
      </trkpt>
      <trkpt lat="48.89568" lon="2.4053">
        <ele>56.400001525879</ele>
        <time>2016-07-04T18:49:45.000Z</time>
      </trkpt>
      <trkpt lat="48.89565" lon="2.40555">
        <ele>55.599998474121</ele>
        <time>2016-07-04T18:49:48.000Z</time>
      </trkpt>
      <trkpt lat="48.89561" lon="2.40588">
        <ele>56.200000762939</ele>
        <time>2016-07-04T18:49:52.000Z</time>
      </trkpt>
      <trkpt lat="48.89558" lon="2.40618">
        <ele>56.799999237061</ele>
        <time>2016-07-04T18:49:56.000Z</time>
      </trkpt>
      <trkpt lat="48.89556" lon="2.40645">
        <ele>56.799999237061</ele>
        <time>2016-07-04T18:50:01.000Z</time>
      </trkpt>
      <trkpt lat="48.89554" lon="2.40653">
        <ele>56.799999237061</ele>
        <time>2016-07-04T18:50:03.000Z</time>
      </trkpt>
      <trkpt lat="48.89551" lon="2.40683">
        <ele>56.799999237061</ele>
        <time>2016-07-04T18:50:10.000Z</time>
      </trkpt>
      <trkpt lat="48.89551" lon="2.40686">
        <ele>57</ele>
        <time>2016-07-04T18:50:11.000Z</time>
      </trkpt>
      <trkpt lat="48.89551" lon="2.40689">
        <ele>57</ele>
        <time>2016-07-04T18:50:12.000Z</time>
      </trkpt>
      <trkpt lat="48.89551" lon="2.40698">
        <ele>57</ele>
        <time>2016-07-04T18:50:17.000Z</time>
      </trkpt>
      <trkpt lat="48.89551" lon="2.40699">
        <ele>57</ele>
        <time>2016-07-04T18:50:18.000Z</time>
      </trkpt>
      <trkpt lat="48.89552" lon="2.40713">
        <ele>57</ele>
        <time>2016-07-04T18:51:44.000Z</time>
      </trkpt>
      <trkpt lat="48.89547" lon="2.40742">
        <ele>56.799999237061</ele>
        <time>2016-07-04T18:51:53.000Z</time>
      </trkpt>
      <trkpt lat="48.89544" lon="2.40774">
        <ele>56.599998474121</ele>
        <time>2016-07-04T18:51:59.000Z</time>
      </trkpt>
      <trkpt lat="48.8954" lon="2.40804">
        <ele>55.799999237061</ele>
        <time>2016-07-04T18:52:04.000Z</time>
      </trkpt>
      <trkpt lat="48.89538" lon="2.40832">
        <ele>55</ele>
        <time>2016-07-04T18:52:08.000Z</time>
      </trkpt>
      <trkpt lat="48.89535" lon="2.40862">
        <ele>54.799999237061</ele>
        <time>2016-07-04T18:52:12.000Z</time>
      </trkpt>
      <trkpt lat="48.89532" lon="2.40892">
        <ele>55.400001525879</ele>
        <time>2016-07-04T18:52:16.000Z</time>
      </trkpt>
      <trkpt lat="48.89529" lon="2.40921">
        <ele>55.799999237061</ele>
        <time>2016-07-04T18:52:20.000Z</time>
      </trkpt>
      <trkpt lat="48.89527" lon="2.40948">
        <ele>56</ele>
        <time>2016-07-04T18:52:24.000Z</time>
      </trkpt>
      <trkpt lat="48.89527" lon="2.40954">
        <ele>56</ele>
        <time>2016-07-04T18:52:25.000Z</time>
      </trkpt>
      <trkpt lat="48.89525" lon="2.40979">
        <ele>56</ele>
        <time>2016-07-04T18:52:29.000Z</time>
      </trkpt>
      <trkpt lat="48.89526" lon="2.4101">
        <ele>55.799999237061</ele>
        <time>2016-07-04T18:52:33.000Z</time>
      </trkpt>
      <trkpt lat="48.89524" lon="2.41044">
        <ele>55.400001525879</ele>
        <time>2016-07-04T18:52:37.000Z</time>
      </trkpt>
      <trkpt lat="48.89521" lon="2.4108">
        <ele>55.200000762939</ele>
        <time>2016-07-04T18:52:41.000Z</time>
      </trkpt>
      <trkpt lat="48.89516" lon="2.41112">
        <ele>55.400001525879</ele>
        <time>2016-07-04T18:52:45.000Z</time>
      </trkpt>
      <trkpt lat="48.89512" lon="2.41146">
        <ele>55.599998474121</ele>
        <time>2016-07-04T18:52:49.000Z</time>
      </trkpt>
      <trkpt lat="48.8951" lon="2.41164">
        <ele>55.799999237061</ele>
        <time>2016-07-04T18:52:51.000Z</time>
      </trkpt>
      <trkpt lat="48.89508" lon="2.41201">
        <ele>55.400001525879</ele>
        <time>2016-07-04T18:52:55.000Z</time>
      </trkpt>
      <trkpt lat="48.8951" lon="2.41219">
        <ele>55.200000762939</ele>
        <time>2016-07-04T18:52:57.000Z</time>
      </trkpt>
      <trkpt lat="48.89511" lon="2.41248">
        <ele>54.599998474121</ele>
        <time>2016-07-04T18:53:00.000Z</time>
      </trkpt>
      <trkpt lat="48.89513" lon="2.41277">
        <ele>54.400001525879</ele>
        <time>2016-07-04T18:53:03.000Z</time>
      </trkpt>
      <trkpt lat="48.89516" lon="2.41305">
        <ele>54.400001525879</ele>
        <time>2016-07-04T18:53:06.000Z</time>
      </trkpt>
      <trkpt lat="48.89518" lon="2.41341">
        <ele>53.799999237061</ele>
        <time>2016-07-04T18:53:10.000Z</time>
      </trkpt>
      <trkpt lat="48.8952" lon="2.41368">
        <ele>52.799999237061</ele>
        <time>2016-07-04T18:53:13.000Z</time>
      </trkpt>
      <trkpt lat="48.89524" lon="2.41396">
        <ele>51.599998474121</ele>
        <time>2016-07-04T18:53:16.000Z</time>
      </trkpt>
      <trkpt lat="48.89529" lon="2.41427">
        <ele>51.400001525879</ele>
        <time>2016-07-04T18:53:19.000Z</time>
      </trkpt>
      <trkpt lat="48.89533" lon="2.41455">
        <ele>52.400001525879</ele>
        <time>2016-07-04T18:53:22.000Z</time>
      </trkpt>
      <trkpt lat="48.89534" lon="2.41463">
        <ele>52.599998474121</ele>
        <time>2016-07-04T18:53:23.000Z</time>
      </trkpt>
      <trkpt lat="48.89537" lon="2.4148">
        <ele>53.200000762939</ele>
        <time>2016-07-04T18:53:25.000Z</time>
      </trkpt>
      <trkpt lat="48.89541" lon="2.41494">
        <ele>53.599998474121</ele>
        <time>2016-07-04T18:53:27.000Z</time>
      </trkpt>
      <trkpt lat="48.89558" lon="2.41502">
        <ele>53.599998474121</ele>
        <time>2016-07-04T18:53:31.000Z</time>
      </trkpt>
      <trkpt lat="48.89563" lon="2.41503">
        <ele>53.599998474121</ele>
        <time>2016-07-04T18:53:32.000Z</time>
      </trkpt>
      <trkpt lat="48.89584" lon="2.41505">
        <ele>53.400001525879</ele>
        <time>2016-07-04T18:53:36.000Z</time>
      </trkpt>
      <trkpt lat="48.89606" lon="2.41508">
        <ele>53.200000762939</ele>
        <time>2016-07-04T18:53:40.000Z</time>
      </trkpt>
      <trkpt lat="48.89627" lon="2.41512">
        <ele>51.799999237061</ele>
        <time>2016-07-04T18:53:44.000Z</time>
      </trkpt>
      <trkpt lat="48.89639" lon="2.41514">
        <ele>51.200000762939</ele>
        <time>2016-07-04T18:53:47.000Z</time>
      </trkpt>
      <trkpt lat="48.89646" lon="2.4154">
        <ele>50.799999237061</ele>
        <time>2016-07-04T18:53:54.000Z</time>
      </trkpt>
      <trkpt lat="48.89648" lon="2.41572">
        <ele>51.400001525879</ele>
        <time>2016-07-04T18:54:00.000Z</time>
      </trkpt>
      <trkpt lat="48.89652" lon="2.41607">
        <ele>51.400001525879</ele>
        <time>2016-07-04T18:54:05.000Z</time>
      </trkpt>
      <trkpt lat="48.89654" lon="2.41635">
        <ele>51.599998474121</ele>
        <time>2016-07-04T18:54:09.000Z</time>
      </trkpt>
      <trkpt lat="48.89657" lon="2.41664">
        <ele>51.799999237061</ele>
        <time>2016-07-04T18:54:13.000Z</time>
      </trkpt>
      <trkpt lat="48.89657" lon="2.41697">
        <ele>51.799999237061</ele>
        <time>2016-07-04T18:54:17.000Z</time>
      </trkpt>
      <trkpt lat="48.89659" lon="2.41729">
        <ele>51.599998474121</ele>
        <time>2016-07-04T18:54:21.000Z</time>
      </trkpt>
      <trkpt lat="48.89661" lon="2.4176">
        <ele>51.400001525879</ele>
        <time>2016-07-04T18:54:25.000Z</time>
      </trkpt>
      <trkpt lat="48.89663" lon="2.4179">
        <ele>50.799999237061</ele>
        <time>2016-07-04T18:54:29.000Z</time>
      </trkpt>
      <trkpt lat="48.89666" lon="2.4181">
        <ele>50.200000762939</ele>
        <time>2016-07-04T18:54:32.000Z</time>
      </trkpt>
      <trkpt lat="48.89668" lon="2.4184">
        <ele>49.599998474121</ele>
        <time>2016-07-04T18:54:36.000Z</time>
      </trkpt>
      <trkpt lat="48.89667" lon="2.41875">
        <ele>49.599998474121</ele>
        <time>2016-07-04T18:54:40.000Z</time>
      </trkpt>
      <trkpt lat="48.89667" lon="2.41912">
        <ele>49.200000762939</ele>
        <time>2016-07-04T18:54:44.000Z</time>
      </trkpt>
      <trkpt lat="48.89667" lon="2.41941">
        <ele>49</ele>
        <time>2016-07-04T18:54:47.000Z</time>
      </trkpt>
      <trkpt lat="48.89668" lon="2.41971">
        <ele>49</ele>
        <time>2016-07-04T18:54:50.000Z</time>
      </trkpt>
      <trkpt lat="48.89669" lon="2.42003">
        <ele>49</ele>
        <time>2016-07-04T18:54:53.000Z</time>
      </trkpt>
      <trkpt lat="48.89669" lon="2.42038">
        <ele>49</ele>
        <time>2016-07-04T18:54:56.000Z</time>
      </trkpt>
      <trkpt lat="48.89668" lon="2.42073">
        <ele>49</ele>
        <time>2016-07-04T18:54:59.000Z</time>
      </trkpt>
      <trkpt lat="48.89669" lon="2.42107">
        <ele>49</ele>
        <time>2016-07-04T18:55:02.000Z</time>
      </trkpt>
      <trkpt lat="48.89669" lon="2.42142">
        <ele>49</ele>
        <time>2016-07-04T18:55:05.000Z</time>
      </trkpt>
      <trkpt lat="48.89672" lon="2.42175">
        <ele>48.799999237061</ele>
        <time>2016-07-04T18:55:08.000Z</time>
      </trkpt>
      <trkpt lat="48.89673" lon="2.4221">
        <ele>48.799999237061</ele>
        <time>2016-07-04T18:55:11.000Z</time>
      </trkpt>
      <trkpt lat="48.89674" lon="2.42242">
        <ele>48.799999237061</ele>
        <time>2016-07-04T18:55:14.000Z</time>
      </trkpt>
      <trkpt lat="48.89673" lon="2.42253">
        <ele>48.799999237061</ele>
        <time>2016-07-04T18:55:15.000Z</time>
      </trkpt>
      <trkpt lat="48.89673" lon="2.42286">
        <ele>49.799999237061</ele>
        <time>2016-07-04T18:55:18.000Z</time>
      </trkpt>
      <trkpt lat="48.89673" lon="2.42321">
        <ele>50.400001525879</ele>
        <time>2016-07-04T18:55:21.000Z</time>
      </trkpt>
      <trkpt lat="48.89673" lon="2.42356">
        <ele>50.200000762939</ele>
        <time>2016-07-04T18:55:24.000Z</time>
      </trkpt>
      <trkpt lat="48.89674" lon="2.42391">
        <ele>49.599998474121</ele>
        <time>2016-07-04T18:55:27.000Z</time>
      </trkpt>
      <trkpt lat="48.89677" lon="2.42425">
        <ele>49.799999237061</ele>
        <time>2016-07-04T18:55:30.000Z</time>
      </trkpt>
      <trkpt lat="48.89676" lon="2.42458">
        <ele>50.599998474121</ele>
        <time>2016-07-04T18:55:33.000Z</time>
      </trkpt>
      <trkpt lat="48.89675" lon="2.4249">
        <ele>51.200000762939</ele>
        <time>2016-07-04T18:55:36.000Z</time>
      </trkpt>
      <trkpt lat="48.89676" lon="2.42508">
        <ele>51.200000762939</ele>
        <time>2016-07-04T18:55:38.000Z</time>
      </trkpt>
      <trkpt lat="48.89672" lon="2.42537">
        <ele>51.599998474121</ele>
        <time>2016-07-04T18:55:43.000Z</time>
      </trkpt>
      <trkpt lat="48.89661" lon="2.42548">
        <ele>52</ele>
        <time>2016-07-04T18:55:49.000Z</time>
      </trkpt>
      <trkpt lat="48.8966" lon="2.42549">
        <ele>52</ele>
        <time>2016-07-04T18:55:50.000Z</time>
      </trkpt>
      <trkpt lat="48.89659" lon="2.42549">
        <ele>52</ele>
        <time>2016-07-04T18:55:52.000Z</time>
      </trkpt>
      <trkpt lat="48.89658" lon="2.42547">
        <ele>52</ele>
        <time>2016-07-04T18:55:54.000Z</time>
      </trkpt>
      <trkpt lat="48.89655" lon="2.42543">
        <ele>52</ele>
        <time>2016-07-04T18:57:59.000Z</time>
      </trkpt>
      <trkpt lat="48.89663" lon="2.42523">
        <ele>51.599998474121</ele>
        <time>2016-07-04T18:58:30.000Z</time>
      </trkpt>
      <trkpt lat="48.89662" lon="2.42521">
        <ele>51.599998474121</ele>
        <time>2016-07-04T18:58:31.000Z</time>
      </trkpt>
      <trkpt lat="48.89663" lon="2.42503">
        <ele>51.400001525879</ele>
        <time>2016-07-04T18:58:38.000Z</time>
      </trkpt>
      <trkpt lat="48.89665" lon="2.42476">
        <ele>51.400001525879</ele>
        <time>2016-07-04T18:58:47.000Z</time>
      </trkpt>
      <trkpt lat="48.89665" lon="2.4246">
        <ele>51</ele>
        <time>2016-07-04T18:58:56.000Z</time>
      </trkpt>
      <trkpt lat="48.89664" lon="2.4249">
        <ele>51.400001525879</ele>
        <time>2016-07-04T18:59:07.000Z</time>
      </trkpt>
      <trkpt lat="48.89662" lon="2.42519">
        <ele>51.599998474121</ele>
        <time>2016-07-04T18:59:14.000Z</time>
      </trkpt>
      <trkpt lat="48.89657" lon="2.42546">
        <ele>52</ele>
        <time>2016-07-04T18:59:22.000Z</time>
      </trkpt>
      <trkpt lat="48.8966" lon="2.42573">
        <ele>52.200000762939</ele>
        <time>2016-07-04T18:59:30.000Z</time>
      </trkpt>
      <trkpt lat="48.89662" lon="2.42602">
        <ele>52.599998474121</ele>
        <time>2016-07-04T18:59:37.000Z</time>
      </trkpt>
      <trkpt lat="48.89664" lon="2.4263">
        <ele>52.799999237061</ele>
        <time>2016-07-04T18:59:44.000Z</time>
      </trkpt>
      <trkpt lat="48.89668" lon="2.42661">
        <ele>53.400001525879</ele>
        <time>2016-07-04T18:59:52.000Z</time>
      </trkpt>
      <trkpt lat="48.89671" lon="2.42692">
        <ele>53.400001525879</ele>
        <time>2016-07-04T18:59:58.000Z</time>
      </trkpt>
      <trkpt lat="48.89676" lon="2.42722">
        <ele>53.400001525879</ele>
        <time>2016-07-04T19:00:03.000Z</time>
      </trkpt>
      <trkpt lat="48.89682" lon="2.42748">
        <ele>53.200000762939</ele>
        <time>2016-07-04T19:00:07.000Z</time>
      </trkpt>
      <trkpt lat="48.89684" lon="2.42779">
        <ele>52.799999237061</ele>
        <time>2016-07-04T19:00:11.000Z</time>
      </trkpt>
      <trkpt lat="48.89687" lon="2.4281">
        <ele>52.400001525879</ele>
        <time>2016-07-04T19:00:15.000Z</time>
      </trkpt>
      <trkpt lat="48.89693" lon="2.42841">
        <ele>51.799999237061</ele>
        <time>2016-07-04T19:00:19.000Z</time>
      </trkpt>
      <trkpt lat="48.89698" lon="2.42873">
        <ele>51.599998474121</ele>
        <time>2016-07-04T19:00:23.000Z</time>
      </trkpt>
      <trkpt lat="48.89705" lon="2.42907">
        <ele>51.200000762939</ele>
        <time>2016-07-04T19:00:27.000Z</time>
      </trkpt>
      <trkpt lat="48.89711" lon="2.42935">
        <ele>51.400001525879</ele>
        <time>2016-07-04T19:00:30.000Z</time>
      </trkpt>
      <trkpt lat="48.89717" lon="2.42966">
        <ele>52.799999237061</ele>
        <time>2016-07-04T19:00:33.000Z</time>
      </trkpt>
      <trkpt lat="48.89723" lon="2.42998">
        <ele>54.200000762939</ele>
        <time>2016-07-04T19:00:36.000Z</time>
      </trkpt>
      <trkpt lat="48.8973" lon="2.4303">
        <ele>54.400001525879</ele>
        <time>2016-07-04T19:00:39.000Z</time>
      </trkpt>
      <trkpt lat="48.89738" lon="2.43065">
        <ele>54.799999237061</ele>
        <time>2016-07-04T19:00:42.000Z</time>
      </trkpt>
      <trkpt lat="48.89744" lon="2.4309">
        <ele>55.200000762939</ele>
        <time>2016-07-04T19:00:44.000Z</time>
      </trkpt>
      <trkpt lat="48.89751" lon="2.43125">
        <ele>55.400001525879</ele>
        <time>2016-07-04T19:00:47.000Z</time>
      </trkpt>
      <trkpt lat="48.89758" lon="2.43162">
        <ele>55.400001525879</ele>
        <time>2016-07-04T19:00:50.000Z</time>
      </trkpt>
      <trkpt lat="48.89765" lon="2.43197">
        <ele>54.799999237061</ele>
        <time>2016-07-04T19:00:53.000Z</time>
      </trkpt>
      <trkpt lat="48.89773" lon="2.43232">
        <ele>54.200000762939</ele>
        <time>2016-07-04T19:00:56.000Z</time>
      </trkpt>
      <trkpt lat="48.89779" lon="2.43267">
        <ele>54.400001525879</ele>
        <time>2016-07-04T19:00:59.000Z</time>
      </trkpt>
      <trkpt lat="48.89787" lon="2.43303">
        <ele>55.200000762939</ele>
        <time>2016-07-04T19:01:02.000Z</time>
      </trkpt>
      <trkpt lat="48.89794" lon="2.43338">
        <ele>55.799999237061</ele>
        <time>2016-07-04T19:01:05.000Z</time>
      </trkpt>
      <trkpt lat="48.89801" lon="2.43373">
        <ele>55.599998474121</ele>
        <time>2016-07-04T19:01:08.000Z</time>
      </trkpt>
      <trkpt lat="48.89808" lon="2.43407">
        <ele>55.599998474121</ele>
        <time>2016-07-04T19:01:11.000Z</time>
      </trkpt>
      <trkpt lat="48.89811" lon="2.4343">
        <ele>55.400001525879</ele>
        <time>2016-07-04T19:01:13.000Z</time>
      </trkpt>
      <trkpt lat="48.89813" lon="2.43462">
        <ele>55.200000762939</ele>
        <time>2016-07-04T19:01:16.000Z</time>
      </trkpt>
      <trkpt lat="48.89814" lon="2.43471">
        <ele>55.200000762939</ele>
        <time>2016-07-04T19:01:17.000Z</time>
      </trkpt>
      <trkpt lat="48.89821" lon="2.43505">
        <ele>55.400001525879</ele>
        <time>2016-07-04T19:01:21.000Z</time>
      </trkpt>
      <trkpt lat="48.89827" lon="2.43531">
        <ele>55.400001525879</ele>
        <time>2016-07-04T19:01:24.000Z</time>
      </trkpt>
      <trkpt lat="48.89836" lon="2.43562">
        <ele>55.400001525879</ele>
        <time>2016-07-04T19:01:28.000Z</time>
      </trkpt>
      <trkpt lat="48.89836" lon="2.43579">
        <ele>55.200000762939</ele>
        <time>2016-07-04T19:01:30.000Z</time>
      </trkpt>
      <trkpt lat="48.89846" lon="2.43608">
        <ele>55.200000762939</ele>
        <time>2016-07-04T19:01:34.000Z</time>
      </trkpt>
      <trkpt lat="48.89848" lon="2.43618">
        <ele>55.200000762939</ele>
        <time>2016-07-04T19:01:35.000Z</time>
      </trkpt>
      <trkpt lat="48.89853" lon="2.43652">
        <ele>55</ele>
        <time>2016-07-04T19:01:39.000Z</time>
      </trkpt>
      <trkpt lat="48.89857" lon="2.4368">
        <ele>55.200000762939</ele>
        <time>2016-07-04T19:01:42.000Z</time>
      </trkpt>
      <trkpt lat="48.89866" lon="2.43712">
        <ele>55.400001525879</ele>
        <time>2016-07-04T19:01:46.000Z</time>
      </trkpt>
      <trkpt lat="48.89868" lon="2.43721">
        <ele>55.599998474121</ele>
        <time>2016-07-04T19:01:47.000Z</time>
      </trkpt>
      <trkpt lat="48.89873" lon="2.43749">
        <ele>55.799999237061</ele>
        <time>2016-07-04T19:01:50.000Z</time>
      </trkpt>
      <trkpt lat="48.89878" lon="2.43779">
        <ele>55.400001525879</ele>
        <time>2016-07-04T19:01:53.000Z</time>
      </trkpt>
      <trkpt lat="48.89885" lon="2.4381">
        <ele>55</ele>
        <time>2016-07-04T19:01:56.000Z</time>
      </trkpt>
      <trkpt lat="48.89891" lon="2.43843">
        <ele>54.599998474121</ele>
        <time>2016-07-04T19:01:59.000Z</time>
      </trkpt>
      <trkpt lat="48.89897" lon="2.43877">
        <ele>54.599998474121</ele>
        <time>2016-07-04T19:02:02.000Z</time>
      </trkpt>
      <trkpt lat="48.89903" lon="2.43912">
        <ele>55.200000762939</ele>
        <time>2016-07-04T19:02:05.000Z</time>
      </trkpt>
      <trkpt lat="48.8991" lon="2.43944">
        <ele>55.799999237061</ele>
        <time>2016-07-04T19:02:08.000Z</time>
      </trkpt>
      <trkpt lat="48.89916" lon="2.43978">
        <ele>56.400001525879</ele>
        <time>2016-07-04T19:02:11.000Z</time>
      </trkpt>
      <trkpt lat="48.89924" lon="2.44012">
        <ele>56.599998474121</ele>
        <time>2016-07-04T19:02:14.000Z</time>
      </trkpt>
      <trkpt lat="48.89931" lon="2.44047">
        <ele>56.400001525879</ele>
        <time>2016-07-04T19:02:17.000Z</time>
      </trkpt>
      <trkpt lat="48.89938" lon="2.44082">
        <ele>56</ele>
        <time>2016-07-04T19:02:20.000Z</time>
      </trkpt>
      <trkpt lat="48.89944" lon="2.44117">
        <ele>56</ele>
        <time>2016-07-04T19:02:23.000Z</time>
      </trkpt>
      <trkpt lat="48.89951" lon="2.4415">
        <ele>55.799999237061</ele>
        <time>2016-07-04T19:02:26.000Z</time>
      </trkpt>
      <trkpt lat="48.89955" lon="2.44183">
        <ele>55.400001525879</ele>
        <time>2016-07-04T19:02:29.000Z</time>
      </trkpt>
      <trkpt lat="48.89958" lon="2.44194">
        <ele>55.200000762939</ele>
        <time>2016-07-04T19:02:30.000Z</time>
      </trkpt>
      <trkpt lat="48.89965" lon="2.44226">
        <ele>54.200000762939</ele>
        <time>2016-07-04T19:02:33.000Z</time>
      </trkpt>
      <trkpt lat="48.89973" lon="2.44256">
        <ele>53.599998474121</ele>
        <time>2016-07-04T19:02:36.000Z</time>
      </trkpt>
      <trkpt lat="48.89976" lon="2.44265">
        <ele>53.599998474121</ele>
        <time>2016-07-04T19:02:37.000Z</time>
      </trkpt>
      <trkpt lat="48.89983" lon="2.44295">
        <ele>53.400001525879</ele>
        <time>2016-07-04T19:02:40.000Z</time>
      </trkpt>
      <trkpt lat="48.89987" lon="2.44316">
        <ele>53.400001525879</ele>
        <time>2016-07-04T19:02:42.000Z</time>
      </trkpt>
      <trkpt lat="48.89993" lon="2.44345">
        <ele>53.400001525879</ele>
        <time>2016-07-04T19:02:45.000Z</time>
      </trkpt>
      <trkpt lat="48.89999" lon="2.44379">
        <ele>53.200000762939</ele>
        <time>2016-07-04T19:02:49.000Z</time>
      </trkpt>
      <trkpt lat="48.90007" lon="2.44413">
        <ele>53</ele>
        <time>2016-07-04T19:02:53.000Z</time>
      </trkpt>
      <trkpt lat="48.90012" lon="2.4444">
        <ele>53</ele>
        <time>2016-07-04T19:02:56.000Z</time>
      </trkpt>
      <trkpt lat="48.90018" lon="2.4447">
        <ele>53</ele>
        <time>2016-07-04T19:02:59.000Z</time>
      </trkpt>
      <trkpt lat="48.90023" lon="2.44498">
        <ele>53</ele>
        <time>2016-07-04T19:03:02.000Z</time>
      </trkpt>
      <trkpt lat="48.9003" lon="2.44528">
        <ele>52.200000762939</ele>
        <time>2016-07-04T19:03:05.000Z</time>
      </trkpt>
      <trkpt lat="48.90038" lon="2.44558">
        <ele>51.400001525879</ele>
        <time>2016-07-04T19:03:08.000Z</time>
      </trkpt>
      <trkpt lat="48.90046" lon="2.44588">
        <ele>50.799999237061</ele>
        <time>2016-07-04T19:03:11.000Z</time>
      </trkpt>
      <trkpt lat="48.90052" lon="2.44607">
        <ele>51</ele>
        <time>2016-07-04T19:03:13.000Z</time>
      </trkpt>
      <trkpt lat="48.90062" lon="2.44635">
        <ele>50.799999237061</ele>
        <time>2016-07-04T19:03:16.000Z</time>
      </trkpt>
      <trkpt lat="48.90068" lon="2.44665">
        <ele>50.599998474121</ele>
        <time>2016-07-04T19:03:19.000Z</time>
      </trkpt>
      <trkpt lat="48.90074" lon="2.44696">
        <ele>50.200000762939</ele>
        <time>2016-07-04T19:03:22.000Z</time>
      </trkpt>
      <trkpt lat="48.9008" lon="2.44728">
        <ele>50</ele>
        <time>2016-07-04T19:03:25.000Z</time>
      </trkpt>
      <trkpt lat="48.90088" lon="2.4476">
        <ele>50.200000762939</ele>
        <time>2016-07-04T19:03:28.000Z</time>
      </trkpt>
      <trkpt lat="48.90094" lon="2.44793">
        <ele>49.599998474121</ele>
        <time>2016-07-04T19:03:31.000Z</time>
      </trkpt>
      <trkpt lat="48.90101" lon="2.44825">
        <ele>49.200000762939</ele>
        <time>2016-07-04T19:03:34.000Z</time>
      </trkpt>
      <trkpt lat="48.90109" lon="2.44858">
        <ele>49.599998474121</ele>
        <time>2016-07-04T19:03:37.000Z</time>
      </trkpt>
      <trkpt lat="48.90116" lon="2.44892">
        <ele>50.599998474121</ele>
        <time>2016-07-04T19:03:40.000Z</time>
      </trkpt>
      <trkpt lat="48.90122" lon="2.44925">
        <ele>51.599998474121</ele>
        <time>2016-07-04T19:03:43.000Z</time>
      </trkpt>
      <trkpt lat="48.90128" lon="2.44957">
        <ele>52</ele>
        <time>2016-07-04T19:03:46.000Z</time>
      </trkpt>
      <trkpt lat="48.90134" lon="2.4499">
        <ele>52.400001525879</ele>
        <time>2016-07-04T19:03:49.000Z</time>
      </trkpt>
      <trkpt lat="48.9014" lon="2.45022">
        <ele>51.799999237061</ele>
        <time>2016-07-04T19:03:52.000Z</time>
      </trkpt>
      <trkpt lat="48.90146" lon="2.45053">
        <ele>51.400001525879</ele>
        <time>2016-07-04T19:03:55.000Z</time>
      </trkpt>
      <trkpt lat="48.90152" lon="2.45084">
        <ele>51.599998474121</ele>
        <time>2016-07-04T19:03:58.000Z</time>
      </trkpt>
      <trkpt lat="48.90158" lon="2.45115">
        <ele>51.200000762939</ele>
        <time>2016-07-04T19:04:01.000Z</time>
      </trkpt>
      <trkpt lat="48.90163" lon="2.45145">
        <ele>51</ele>
        <time>2016-07-04T19:04:04.000Z</time>
      </trkpt>
      <trkpt lat="48.90169" lon="2.45174">
        <ele>51.200000762939</ele>
        <time>2016-07-04T19:04:07.000Z</time>
      </trkpt>
      <trkpt lat="48.90175" lon="2.45202">
        <ele>51.200000762939</ele>
        <time>2016-07-04T19:04:10.000Z</time>
      </trkpt>
      <trkpt lat="48.90181" lon="2.4523">
        <ele>51.200000762939</ele>
        <time>2016-07-04T19:04:13.000Z</time>
      </trkpt>
      <trkpt lat="48.90187" lon="2.45258">
        <ele>51</ele>
        <time>2016-07-04T19:04:16.000Z</time>
      </trkpt>
      <trkpt lat="48.90192" lon="2.45287">
        <ele>51</ele>
        <time>2016-07-04T19:04:19.000Z</time>
      </trkpt>
      <trkpt lat="48.90196" lon="2.45306">
        <ele>51.200000762939</ele>
        <time>2016-07-04T19:04:21.000Z</time>
      </trkpt>
      <trkpt lat="48.90202" lon="2.45335">
        <ele>51.200000762939</ele>
        <time>2016-07-04T19:04:24.000Z</time>
      </trkpt>
      <trkpt lat="48.90207" lon="2.45363">
        <ele>51.400001525879</ele>
        <time>2016-07-04T19:04:27.000Z</time>
      </trkpt>
      <trkpt lat="48.90212" lon="2.45391">
        <ele>51.599998474121</ele>
        <time>2016-07-04T19:04:30.000Z</time>
      </trkpt>
      <trkpt lat="48.90217" lon="2.45421">
        <ele>51.599998474121</ele>
        <time>2016-07-04T19:04:33.000Z</time>
      </trkpt>
      <trkpt lat="48.90222" lon="2.45453">
        <ele>51.799999237061</ele>
        <time>2016-07-04T19:04:36.000Z</time>
      </trkpt>
      <trkpt lat="48.90226" lon="2.45479">
        <ele>52.200000762939</ele>
        <time>2016-07-04T19:04:39.000Z</time>
      </trkpt>
      <trkpt lat="48.90232" lon="2.45511">
        <ele>52.200000762939</ele>
        <time>2016-07-04T19:04:43.000Z</time>
      </trkpt>
      <trkpt lat="48.90239" lon="2.45544">
        <ele>51.599998474121</ele>
        <time>2016-07-04T19:04:47.000Z</time>
      </trkpt>
      <trkpt lat="48.90243" lon="2.45561">
        <ele>51.400001525879</ele>
        <time>2016-07-04T19:04:49.000Z</time>
      </trkpt>
      <trkpt lat="48.90251" lon="2.45593">
        <ele>51.599998474121</ele>
        <time>2016-07-04T19:04:53.000Z</time>
      </trkpt>
      <trkpt lat="48.90258" lon="2.45627">
        <ele>52.200000762939</ele>
        <time>2016-07-04T19:04:57.000Z</time>
      </trkpt>
      <trkpt lat="48.90264" lon="2.4566">
        <ele>53</ele>
        <time>2016-07-04T19:05:01.000Z</time>
      </trkpt>
      <trkpt lat="48.90271" lon="2.45691">
        <ele>53.400001525879</ele>
        <time>2016-07-04T19:05:05.000Z</time>
      </trkpt>
      <trkpt lat="48.90277" lon="2.45721">
        <ele>53.799999237061</ele>
        <time>2016-07-04T19:05:09.000Z</time>
      </trkpt>
      <trkpt lat="48.90284" lon="2.45747">
        <ele>54</ele>
        <time>2016-07-04T19:05:13.000Z</time>
      </trkpt>
      <trkpt lat="48.90291" lon="2.45777">
        <ele>54</ele>
        <time>2016-07-04T19:05:18.000Z</time>
      </trkpt>
      <trkpt lat="48.90295" lon="2.45791">
        <ele>53.799999237061</ele>
        <time>2016-07-04T19:05:21.000Z</time>
      </trkpt>
      <trkpt lat="48.90307" lon="2.45814">
        <ele>53.599998474121</ele>
        <time>2016-07-04T19:05:28.000Z</time>
      </trkpt>
      <trkpt lat="48.90308" lon="2.45817">
        <ele>53.599998474121</ele>
        <time>2016-07-04T19:05:30.000Z</time>
      </trkpt>
      <trkpt lat="48.90311" lon="2.45825">
        <ele>53.599998474121</ele>
        <time>2016-07-04T19:06:55.000Z</time>
      </trkpt>
      <trkpt lat="48.90306" lon="2.45815">
        <ele>53.599998474121</ele>
        <time>2016-07-04T19:07:59.000Z</time>
      </trkpt>
      <trkpt lat="48.90301" lon="2.45803">
        <ele>53.599998474121</ele>
        <time>2016-07-04T19:08:05.000Z</time>
      </trkpt>
      <trkpt lat="48.90299" lon="2.45801">
        <ele>53.599998474121</ele>
        <time>2016-07-04T19:08:07.000Z</time>
      </trkpt>
      <trkpt lat="48.903" lon="2.45812">
        <ele>53.400001525879</ele>
        <time>2016-07-04T19:08:20.000Z</time>
      </trkpt>
      <trkpt lat="48.903" lon="2.45813">
        <ele>53.400001525879</ele>
        <time>2016-07-04T19:08:22.000Z</time>
      </trkpt>
      <trkpt lat="48.90298" lon="2.45814">
        <ele>53.400001525879</ele>
        <time>2016-07-04T19:09:18.000Z</time>
      </trkpt>
      <trkpt lat="48.90296" lon="2.45817">
        <ele>53.200000762939</ele>
        <time>2016-07-04T19:09:23.000Z</time>
      </trkpt>
      <trkpt lat="48.90304" lon="2.45799">
        <ele>53.799999237061</ele>
        <time>2016-07-04T19:10:04.000Z</time>
      </trkpt>
      <trkpt lat="48.90306" lon="2.45796">
        <ele>54</ele>
        <time>2016-07-04T19:10:07.000Z</time>
      </trkpt>
      <trkpt lat="48.90301" lon="2.45815">
        <ele>53.400001525879</ele>
        <time>2016-07-04T19:10:35.000Z</time>
      </trkpt>
      <trkpt lat="48.90302" lon="2.45828">
        <ele>53.200000762939</ele>
        <time>2016-07-04T19:11:50.000Z</time>
      </trkpt>
      <trkpt lat="48.90305" lon="2.4586">
        <ele>52.799999237061</ele>
        <time>2016-07-04T19:11:58.000Z</time>
      </trkpt>
      <trkpt lat="48.9031" lon="2.4589">
        <ele>53.200000762939</ele>
        <time>2016-07-04T19:12:03.000Z</time>
      </trkpt>
      <trkpt lat="48.90316" lon="2.45918">
        <ele>53.599998474121</ele>
        <time>2016-07-04T19:12:07.000Z</time>
      </trkpt>
      <trkpt lat="48.90322" lon="2.45948">
        <ele>53.599998474121</ele>
        <time>2016-07-04T19:12:11.000Z</time>
      </trkpt>
      <trkpt lat="48.90328" lon="2.45978">
        <ele>53.799999237061</ele>
        <time>2016-07-04T19:12:15.000Z</time>
      </trkpt>
      <trkpt lat="48.90335" lon="2.4601">
        <ele>53.799999237061</ele>
        <time>2016-07-04T19:12:19.000Z</time>
      </trkpt>
      <trkpt lat="48.90341" lon="2.46043">
        <ele>53.400001525879</ele>
        <time>2016-07-04T19:12:23.000Z</time>
      </trkpt>
      <trkpt lat="48.90344" lon="2.46059">
        <ele>53.200000762939</ele>
        <time>2016-07-04T19:12:25.000Z</time>
      </trkpt>
      <trkpt lat="48.90349" lon="2.46086">
        <ele>53.200000762939</ele>
        <time>2016-07-04T19:12:28.000Z</time>
      </trkpt>
      <trkpt lat="48.90354" lon="2.46113">
        <ele>53</ele>
        <time>2016-07-04T19:12:31.000Z</time>
      </trkpt>
      <trkpt lat="48.90359" lon="2.4614">
        <ele>53</ele>
        <time>2016-07-04T19:12:34.000Z</time>
      </trkpt>
      <trkpt lat="48.90365" lon="2.46167">
        <ele>53</ele>
        <time>2016-07-04T19:12:37.000Z</time>
      </trkpt>
      <trkpt lat="48.90366" lon="2.46176">
        <ele>53.200000762939</ele>
        <time>2016-07-04T19:12:38.000Z</time>
      </trkpt>
      <trkpt lat="48.9037" lon="2.46203">
        <ele>53.400001525879</ele>
        <time>2016-07-04T19:12:41.000Z</time>
      </trkpt>
      <trkpt lat="48.90376" lon="2.4623">
        <ele>53.799999237061</ele>
        <time>2016-07-04T19:12:44.000Z</time>
      </trkpt>
      <trkpt lat="48.90382" lon="2.46258">
        <ele>53.799999237061</ele>
        <time>2016-07-04T19:12:47.000Z</time>
      </trkpt>
      <trkpt lat="48.90387" lon="2.46287">
        <ele>53.599998474121</ele>
        <time>2016-07-04T19:12:50.000Z</time>
      </trkpt>
      <trkpt lat="48.90394" lon="2.46314">
        <ele>53.599998474121</ele>
        <time>2016-07-04T19:12:53.000Z</time>
      </trkpt>
      <trkpt lat="48.90401" lon="2.46341">
        <ele>53.599998474121</ele>
        <time>2016-07-04T19:12:56.000Z</time>
      </trkpt>
      <trkpt lat="48.90403" lon="2.46351">
        <ele>53.599998474121</ele>
        <time>2016-07-04T19:12:57.000Z</time>
      </trkpt>
      <trkpt lat="48.90407" lon="2.46379">
        <ele>54</ele>
        <time>2016-07-04T19:13:00.000Z</time>
      </trkpt>
      <trkpt lat="48.90413" lon="2.46407">
        <ele>54</ele>
        <time>2016-07-04T19:13:03.000Z</time>
      </trkpt>
      <trkpt lat="48.9042" lon="2.46434">
        <ele>54</ele>
        <time>2016-07-04T19:13:06.000Z</time>
      </trkpt>
      <trkpt lat="48.90425" lon="2.46463">
        <ele>54</ele>
        <time>2016-07-04T19:13:09.000Z</time>
      </trkpt>
      <trkpt lat="48.90427" lon="2.46481">
        <ele>54</ele>
        <time>2016-07-04T19:13:11.000Z</time>
      </trkpt>
      <trkpt lat="48.90427" lon="2.46508">
        <ele>54.200000762939</ele>
        <time>2016-07-04T19:13:14.000Z</time>
      </trkpt>
      <trkpt lat="48.9043" lon="2.46533">
        <ele>54.400001525879</ele>
        <time>2016-07-04T19:13:17.000Z</time>
      </trkpt>
      <trkpt lat="48.9044" lon="2.46564">
        <ele>54.799999237061</ele>
        <time>2016-07-04T19:13:22.000Z</time>
      </trkpt>
      <trkpt lat="48.90447" lon="2.46594">
        <ele>54.799999237061</ele>
        <time>2016-07-04T19:13:26.000Z</time>
      </trkpt>
      <trkpt lat="48.90454" lon="2.46623">
        <ele>54.400001525879</ele>
        <time>2016-07-04T19:13:30.000Z</time>
      </trkpt>
      <trkpt lat="48.90459" lon="2.46639">
        <ele>54.400001525879</ele>
        <time>2016-07-04T19:13:32.000Z</time>
      </trkpt>
      <trkpt lat="48.90466" lon="2.46666">
        <ele>54</ele>
        <time>2016-07-04T19:13:35.000Z</time>
      </trkpt>
      <trkpt lat="48.90472" lon="2.46696">
        <ele>53.799999237061</ele>
        <time>2016-07-04T19:13:38.000Z</time>
      </trkpt>
      <trkpt lat="48.90479" lon="2.4673">
        <ele>53.400001525879</ele>
        <time>2016-07-04T19:13:42.000Z</time>
      </trkpt>
      <trkpt lat="48.90483" lon="2.46756">
        <ele>53</ele>
        <time>2016-07-04T19:13:45.000Z</time>
      </trkpt>
      <trkpt lat="48.90487" lon="2.46784">
        <ele>52.400001525879</ele>
        <time>2016-07-04T19:13:48.000Z</time>
      </trkpt>
      <trkpt lat="48.90492" lon="2.46813">
        <ele>51.799999237061</ele>
        <time>2016-07-04T19:13:51.000Z</time>
      </trkpt>
      <trkpt lat="48.90497" lon="2.46843">
        <ele>51.200000762939</ele>
        <time>2016-07-04T19:13:54.000Z</time>
      </trkpt>
      <trkpt lat="48.90502" lon="2.46873">
        <ele>51.400001525879</ele>
        <time>2016-07-04T19:13:57.000Z</time>
      </trkpt>
      <trkpt lat="48.9051" lon="2.46906">
        <ele>51.799999237061</ele>
        <time>2016-07-04T19:14:00.000Z</time>
      </trkpt>
      <trkpt lat="48.90516" lon="2.46938">
        <ele>52.200000762939</ele>
        <time>2016-07-04T19:14:03.000Z</time>
      </trkpt>
      <trkpt lat="48.90522" lon="2.46965">
        <ele>52.599998474121</ele>
        <time>2016-07-04T19:14:06.000Z</time>
      </trkpt>
      <trkpt lat="48.90527" lon="2.46994">
        <ele>52.799999237061</ele>
        <time>2016-07-04T19:14:09.000Z</time>
      </trkpt>
      <trkpt lat="48.90535" lon="2.47022">
        <ele>53.200000762939</ele>
        <time>2016-07-04T19:14:12.000Z</time>
      </trkpt>
      <trkpt lat="48.90537" lon="2.47057">
        <ele>54</ele>
        <time>2016-07-04T19:14:16.000Z</time>
      </trkpt>
      <trkpt lat="48.90539" lon="2.47065">
        <ele>54.200000762939</ele>
        <time>2016-07-04T19:14:17.000Z</time>
      </trkpt>
      <trkpt lat="48.90546" lon="2.47093">
        <ele>54.400001525879</ele>
        <time>2016-07-04T19:14:20.000Z</time>
      </trkpt>
      <trkpt lat="48.90553" lon="2.4712">
        <ele>54</ele>
        <time>2016-07-04T19:14:23.000Z</time>
      </trkpt>
      <trkpt lat="48.9056" lon="2.47149">
        <ele>53.599998474121</ele>
        <time>2016-07-04T19:14:26.000Z</time>
      </trkpt>
      <trkpt lat="48.90565" lon="2.47179">
        <ele>53</ele>
        <time>2016-07-04T19:14:29.000Z</time>
      </trkpt>
      <trkpt lat="48.90571" lon="2.47213">
        <ele>51.599998474121</ele>
        <time>2016-07-04T19:14:33.000Z</time>
      </trkpt>
      <trkpt lat="48.90579" lon="2.47239">
        <ele>51.400001525879</ele>
        <time>2016-07-04T19:14:36.000Z</time>
      </trkpt>
      <trkpt lat="48.90586" lon="2.47266">
        <ele>51.200000762939</ele>
        <time>2016-07-04T19:14:40.000Z</time>
      </trkpt>
      <trkpt lat="48.90593" lon="2.4729">
        <ele>50.799999237061</ele>
        <time>2016-07-04T19:14:46.000Z</time>
      </trkpt>
      <trkpt lat="48.90594" lon="2.47295">
        <ele>50.799999237061</ele>
        <time>2016-07-04T19:14:48.000Z</time>
      </trkpt>
      <trkpt lat="48.90599" lon="2.47308">
        <ele>50.400001525879</ele>
        <time>2016-07-04T19:15:44.000Z</time>
      </trkpt>
      <trkpt lat="48.90604" lon="2.47335">
        <ele>50.200000762939</ele>
        <time>2016-07-04T19:15:54.000Z</time>
      </trkpt>
      <trkpt lat="48.90608" lon="2.47362">
        <ele>51.400001525879</ele>
        <time>2016-07-04T19:16:03.000Z</time>
      </trkpt>
      <trkpt lat="48.90605" lon="2.4737">
        <ele>51.799999237061</ele>
        <time>2016-07-04T19:16:07.000Z</time>
      </trkpt>
      <trkpt lat="48.90602" lon="2.47375">
        <ele>52.200000762939</ele>
        <time>2016-07-04T19:16:13.000Z</time>
      </trkpt>
      <trkpt lat="48.90589" lon="2.47395">
        <ele>53.799999237061</ele>
        <time>2016-07-04T19:16:28.000Z</time>
      </trkpt>
      <trkpt lat="48.90588" lon="2.47398">
        <ele>54</ele>
        <time>2016-07-04T19:16:30.000Z</time>
      </trkpt>
      <trkpt lat="48.90594" lon="2.47384">
        <ele>53</ele>
        <time>2016-07-04T19:17:13.000Z</time>
      </trkpt>
      <trkpt lat="48.90589" lon="2.47394">
        <ele>53.799999237061</ele>
        <time>2016-07-04T19:18:19.000Z</time>
      </trkpt>
      <trkpt lat="48.90584" lon="2.47418">
        <ele>53.400001525879</ele>
        <time>2016-07-04T19:18:26.000Z</time>
      </trkpt>
      <trkpt lat="48.9059" lon="2.47445">
        <ele>53.599998474121</ele>
        <time>2016-07-04T19:18:31.000Z</time>
      </trkpt>
      <trkpt lat="48.90598" lon="2.47476">
        <ele>53.799999237061</ele>
        <time>2016-07-04T19:18:35.000Z</time>
      </trkpt>
      <trkpt lat="48.90606" lon="2.4751">
        <ele>53.799999237061</ele>
        <time>2016-07-04T19:18:39.000Z</time>
      </trkpt>
      <trkpt lat="48.90613" lon="2.47537">
        <ele>53.200000762939</ele>
        <time>2016-07-04T19:18:42.000Z</time>
      </trkpt>
      <trkpt lat="48.90617" lon="2.47569">
        <ele>52.400001525879</ele>
        <time>2016-07-04T19:18:46.000Z</time>
      </trkpt>
      <trkpt lat="48.90623" lon="2.47604">
        <ele>52</ele>
        <time>2016-07-04T19:18:50.000Z</time>
      </trkpt>
      <trkpt lat="48.90626" lon="2.47621">
        <ele>52</ele>
        <time>2016-07-04T19:18:52.000Z</time>
      </trkpt>
      <trkpt lat="48.90634" lon="2.47654">
        <ele>52</ele>
        <time>2016-07-04T19:18:56.000Z</time>
      </trkpt>
      <trkpt lat="48.9064" lon="2.47685">
        <ele>52</ele>
        <time>2016-07-04T19:19:00.000Z</time>
      </trkpt>
      <trkpt lat="48.90646" lon="2.47719">
        <ele>51.799999237061</ele>
        <time>2016-07-04T19:19:04.000Z</time>
      </trkpt>
      <trkpt lat="48.90653" lon="2.47754">
        <ele>51.599998474121</ele>
        <time>2016-07-04T19:19:08.000Z</time>
      </trkpt>
      <trkpt lat="48.90659" lon="2.47781">
        <ele>52</ele>
        <time>2016-07-04T19:19:11.000Z</time>
      </trkpt>
      <trkpt lat="48.90665" lon="2.4781">
        <ele>52.400001525879</ele>
        <time>2016-07-04T19:19:14.000Z</time>
      </trkpt>
      <trkpt lat="48.9067" lon="2.47838">
        <ele>52.799999237061</ele>
        <time>2016-07-04T19:19:17.000Z</time>
      </trkpt>
      <trkpt lat="48.90674" lon="2.47866">
        <ele>52.799999237061</ele>
        <time>2016-07-04T19:19:20.000Z</time>
      </trkpt>
      <trkpt lat="48.90678" lon="2.47893">
        <ele>52.799999237061</ele>
        <time>2016-07-04T19:19:23.000Z</time>
      </trkpt>
      <trkpt lat="48.90683" lon="2.4792">
        <ele>53</ele>
        <time>2016-07-04T19:19:26.000Z</time>
      </trkpt>
      <trkpt lat="48.90688" lon="2.47948">
        <ele>53</ele>
        <time>2016-07-04T19:19:29.000Z</time>
      </trkpt>
      <trkpt lat="48.90694" lon="2.47976">
        <ele>53</ele>
        <time>2016-07-04T19:19:32.000Z</time>
      </trkpt>
      <trkpt lat="48.90699" lon="2.48003">
        <ele>52.799999237061</ele>
        <time>2016-07-04T19:19:35.000Z</time>
      </trkpt>
      <trkpt lat="48.90705" lon="2.48031">
        <ele>52.599998474121</ele>
        <time>2016-07-04T19:19:38.000Z</time>
      </trkpt>
      <trkpt lat="48.9071" lon="2.48065">
        <ele>52.599998474121</ele>
        <time>2016-07-04T19:19:42.000Z</time>
      </trkpt>
      <trkpt lat="48.90715" lon="2.48095">
        <ele>52.200000762939</ele>
        <time>2016-07-04T19:19:45.000Z</time>
      </trkpt>
      <trkpt lat="48.90721" lon="2.48124">
        <ele>51.599998474121</ele>
        <time>2016-07-04T19:19:48.000Z</time>
      </trkpt>
      <trkpt lat="48.9073" lon="2.48152">
        <ele>51.200000762939</ele>
        <time>2016-07-04T19:19:51.000Z</time>
      </trkpt>
      <trkpt lat="48.90737" lon="2.48181">
        <ele>50.799999237061</ele>
        <time>2016-07-04T19:19:54.000Z</time>
      </trkpt>
      <trkpt lat="48.90745" lon="2.48207">
        <ele>50.799999237061</ele>
        <time>2016-07-04T19:19:57.000Z</time>
      </trkpt>
      <trkpt lat="48.90751" lon="2.48235">
        <ele>50.599998474121</ele>
        <time>2016-07-04T19:20:00.000Z</time>
      </trkpt>
      <trkpt lat="48.90756" lon="2.48263">
        <ele>50.599998474121</ele>
        <time>2016-07-04T19:20:03.000Z</time>
      </trkpt>
      <trkpt lat="48.90761" lon="2.48291">
        <ele>51.200000762939</ele>
        <time>2016-07-04T19:20:06.000Z</time>
      </trkpt>
      <trkpt lat="48.90766" lon="2.48319">
        <ele>51.799999237061</ele>
        <time>2016-07-04T19:20:09.000Z</time>
      </trkpt>
      <trkpt lat="48.90772" lon="2.48348">
        <ele>51.799999237061</ele>
        <time>2016-07-04T19:20:12.000Z</time>
      </trkpt>
      <trkpt lat="48.90779" lon="2.48378">
        <ele>51.400001525879</ele>
        <time>2016-07-04T19:20:15.000Z</time>
      </trkpt>
      <trkpt lat="48.90787" lon="2.48408">
        <ele>51.200000762939</ele>
        <time>2016-07-04T19:20:18.000Z</time>
      </trkpt>
      <trkpt lat="48.90793" lon="2.48438">
        <ele>51</ele>
        <time>2016-07-04T19:20:21.000Z</time>
      </trkpt>
      <trkpt lat="48.90798" lon="2.4847">
        <ele>50.599998474121</ele>
        <time>2016-07-04T19:20:24.000Z</time>
      </trkpt>
      <trkpt lat="48.90806" lon="2.48499">
        <ele>50.400001525879</ele>
        <time>2016-07-04T19:20:27.000Z</time>
      </trkpt>
      <trkpt lat="48.90813" lon="2.48529">
        <ele>50.200000762939</ele>
        <time>2016-07-04T19:20:30.000Z</time>
      </trkpt>
      <trkpt lat="48.90819" lon="2.48559">
        <ele>50</ele>
        <time>2016-07-04T19:20:33.000Z</time>
      </trkpt>
      <trkpt lat="48.90826" lon="2.4859">
        <ele>50</ele>
        <time>2016-07-04T19:20:36.000Z</time>
      </trkpt>
      <trkpt lat="48.90832" lon="2.4862">
        <ele>49.599998474121</ele>
        <time>2016-07-04T19:20:39.000Z</time>
      </trkpt>
      <trkpt lat="48.90839" lon="2.48653">
        <ele>49.200000762939</ele>
        <time>2016-07-04T19:20:42.000Z</time>
      </trkpt>
      <trkpt lat="48.90846" lon="2.48684">
        <ele>49</ele>
        <time>2016-07-04T19:20:45.000Z</time>
      </trkpt>
      <trkpt lat="48.90848" lon="2.48693">
        <ele>49.200000762939</ele>
        <time>2016-07-04T19:20:46.000Z</time>
      </trkpt>
      <trkpt lat="48.90853" lon="2.48722">
        <ele>49.599998474121</ele>
        <time>2016-07-04T19:20:49.000Z</time>
      </trkpt>
      <trkpt lat="48.90859" lon="2.48752">
        <ele>50</ele>
        <time>2016-07-04T19:20:52.000Z</time>
      </trkpt>
      <trkpt lat="48.90865" lon="2.4878">
        <ele>50.200000762939</ele>
        <time>2016-07-04T19:20:55.000Z</time>
      </trkpt>
      <trkpt lat="48.9087" lon="2.48808">
        <ele>50.400001525879</ele>
        <time>2016-07-04T19:20:58.000Z</time>
      </trkpt>
      <trkpt lat="48.90875" lon="2.48837">
        <ele>50.599998474121</ele>
        <time>2016-07-04T19:21:01.000Z</time>
      </trkpt>
      <trkpt lat="48.90877" lon="2.48846">
        <ele>50.599998474121</ele>
        <time>2016-07-04T19:21:02.000Z</time>
      </trkpt>
      <trkpt lat="48.90883" lon="2.48873">
        <ele>50.400001525879</ele>
        <time>2016-07-04T19:21:05.000Z</time>
      </trkpt>
      <trkpt lat="48.90888" lon="2.48901">
        <ele>50.200000762939</ele>
        <time>2016-07-04T19:21:08.000Z</time>
      </trkpt>
      <trkpt lat="48.90893" lon="2.48928">
        <ele>50.400001525879</ele>
        <time>2016-07-04T19:21:11.000Z</time>
      </trkpt>
      <trkpt lat="48.90898" lon="2.48954">
        <ele>51</ele>
        <time>2016-07-04T19:21:14.000Z</time>
      </trkpt>
      <trkpt lat="48.90905" lon="2.48987">
        <ele>51.599998474121</ele>
        <time>2016-07-04T19:21:18.000Z</time>
      </trkpt>
      <trkpt lat="48.90913" lon="2.4902">
        <ele>52.200000762939</ele>
        <time>2016-07-04T19:21:22.000Z</time>
      </trkpt>
      <trkpt lat="48.90921" lon="2.49053">
        <ele>53</ele>
        <time>2016-07-04T19:21:26.000Z</time>
      </trkpt>
      <trkpt lat="48.90928" lon="2.49079">
        <ele>53.799999237061</ele>
        <time>2016-07-04T19:21:29.000Z</time>
      </trkpt>
      <trkpt lat="48.90933" lon="2.49104">
        <ele>53.599998474121</ele>
        <time>2016-07-04T19:21:32.000Z</time>
      </trkpt>
      <trkpt lat="48.90926" lon="2.49137">
        <ele>53.200000762939</ele>
        <time>2016-07-04T19:21:36.000Z</time>
      </trkpt>
      <trkpt lat="48.90932" lon="2.49171">
        <ele>52.799999237061</ele>
        <time>2016-07-04T19:21:40.000Z</time>
      </trkpt>
      <trkpt lat="48.90941" lon="2.49202">
        <ele>52.599998474121</ele>
        <time>2016-07-04T19:21:44.000Z</time>
      </trkpt>
      <trkpt lat="48.90948" lon="2.49232">
        <ele>52.400001525879</ele>
        <time>2016-07-04T19:21:48.000Z</time>
      </trkpt>
      <trkpt lat="48.90953" lon="2.49256">
        <ele>52.200000762939</ele>
        <time>2016-07-04T19:21:51.000Z</time>
      </trkpt>
      <trkpt lat="48.9096" lon="2.49287">
        <ele>51.799999237061</ele>
        <time>2016-07-04T19:21:55.000Z</time>
      </trkpt>
      <trkpt lat="48.90967" lon="2.4932">
        <ele>51.200000762939</ele>
        <time>2016-07-04T19:21:59.000Z</time>
      </trkpt>
      <trkpt lat="48.90974" lon="2.49353">
        <ele>51</ele>
        <time>2016-07-04T19:22:03.000Z</time>
      </trkpt>
      <trkpt lat="48.90982" lon="2.49387">
        <ele>51.200000762939</ele>
        <time>2016-07-04T19:22:07.000Z</time>
      </trkpt>
      <trkpt lat="48.90988" lon="2.49421">
        <ele>52</ele>
        <time>2016-07-04T19:22:11.000Z</time>
      </trkpt>
      <trkpt lat="48.90993" lon="2.49435">
        <ele>51.799999237061</ele>
        <time>2016-07-04T19:22:13.000Z</time>
      </trkpt>
      <trkpt lat="48.91003" lon="2.49455">
        <ele>51.599998474121</ele>
        <time>2016-07-04T19:22:16.000Z</time>
      </trkpt>
      <trkpt lat="48.91011" lon="2.49486">
        <ele>51.200000762939</ele>
        <time>2016-07-04T19:22:20.000Z</time>
      </trkpt>
      <trkpt lat="48.91019" lon="2.49518">
        <ele>51.799999237061</ele>
        <time>2016-07-04T19:22:24.000Z</time>
      </trkpt>
      <trkpt lat="48.91021" lon="2.49525">
        <ele>52</ele>
        <time>2016-07-04T19:22:25.000Z</time>
      </trkpt>
      <trkpt lat="48.91018" lon="2.49556">
        <ele>53.200000762939</ele>
        <time>2016-07-04T19:22:30.000Z</time>
      </trkpt>
      <trkpt lat="48.91022" lon="2.49573">
        <ele>53.599998474121</ele>
        <time>2016-07-04T19:22:33.000Z</time>
      </trkpt>
      <trkpt lat="48.9103" lon="2.49603">
        <ele>54</ele>
        <time>2016-07-04T19:22:38.000Z</time>
      </trkpt>
      <trkpt lat="48.91038" lon="2.49634">
        <ele>54.200000762939</ele>
        <time>2016-07-04T19:22:43.000Z</time>
      </trkpt>
      <trkpt lat="48.91046" lon="2.4966">
        <ele>54.400001525879</ele>
        <time>2016-07-04T19:22:47.000Z</time>
      </trkpt>
      <trkpt lat="48.9105" lon="2.49673">
        <ele>54.200000762939</ele>
        <time>2016-07-04T19:22:49.000Z</time>
      </trkpt>
      <trkpt lat="48.9106" lon="2.49702">
        <ele>53.599998474121</ele>
        <time>2016-07-04T19:22:53.000Z</time>
      </trkpt>
      <trkpt lat="48.9107" lon="2.49725">
        <ele>53.400001525879</ele>
        <time>2016-07-04T19:22:56.000Z</time>
      </trkpt>
      <trkpt lat="48.91083" lon="2.49755">
        <ele>53.200000762939</ele>
        <time>2016-07-04T19:23:00.000Z</time>
      </trkpt>
      <trkpt lat="48.91094" lon="2.49783">
        <ele>53.400001525879</ele>
        <time>2016-07-04T19:23:04.000Z</time>
      </trkpt>
      <trkpt lat="48.91106" lon="2.49806">
        <ele>53.400001525879</ele>
        <time>2016-07-04T19:23:08.000Z</time>
      </trkpt>
      <trkpt lat="48.9112" lon="2.4983">
        <ele>53.799999237061</ele>
        <time>2016-07-04T19:23:12.000Z</time>
      </trkpt>
      <trkpt lat="48.91135" lon="2.49852">
        <ele>53.599998474121</ele>
        <time>2016-07-04T19:23:16.000Z</time>
      </trkpt>
      <trkpt lat="48.91142" lon="2.49863">
        <ele>53.599998474121</ele>
        <time>2016-07-04T19:23:18.000Z</time>
      </trkpt>
      <trkpt lat="48.91157" lon="2.49885">
        <ele>53.400001525879</ele>
        <time>2016-07-04T19:23:22.000Z</time>
      </trkpt>
      <trkpt lat="48.91171" lon="2.49904">
        <ele>53.200000762939</ele>
        <time>2016-07-04T19:23:26.000Z</time>
      </trkpt>
      <trkpt lat="48.91177" lon="2.49912">
        <ele>53</ele>
        <time>2016-07-04T19:23:28.000Z</time>
      </trkpt>
      <trkpt lat="48.91186" lon="2.49936">
        <ele>52.799999237061</ele>
        <time>2016-07-04T19:23:36.000Z</time>
      </trkpt>
      <trkpt lat="48.91192" lon="2.49944">
        <ele>52.599998474121</ele>
        <time>2016-07-04T19:23:40.000Z</time>
      </trkpt>
      <trkpt lat="48.91193" lon="2.49945">
        <ele>52.599998474121</ele>
        <time>2016-07-04T19:23:41.000Z</time>
      </trkpt>
      <trkpt lat="48.912" lon="2.49952">
        <ele>52.599998474121</ele>
        <time>2016-07-04T19:23:46.000Z</time>
      </trkpt>
      <trkpt lat="48.91202" lon="2.49953">
        <ele>52.599998474121</ele>
        <time>2016-07-04T19:23:47.000Z</time>
      </trkpt>
      <trkpt lat="48.91206" lon="2.4996">
        <ele>52.400001525879</ele>
        <time>2016-07-04T19:23:51.000Z</time>
      </trkpt>
      <trkpt lat="48.91216" lon="2.49967">
        <ele>52.400001525879</ele>
        <time>2016-07-04T19:24:00.000Z</time>
      </trkpt>
      <trkpt lat="48.91206" lon="2.49947">
        <ele>52.599998474121</ele>
        <time>2016-07-04T19:24:49.000Z</time>
      </trkpt>
      <trkpt lat="48.9119" lon="2.49927">
        <ele>52.799999237061</ele>
        <time>2016-07-04T19:24:55.000Z</time>
      </trkpt>
      <trkpt lat="48.91177" lon="2.49908">
        <ele>53.200000762939</ele>
        <time>2016-07-04T19:24:59.000Z</time>
      </trkpt>
      <trkpt lat="48.91163" lon="2.49888">
        <ele>53.400001525879</ele>
        <time>2016-07-04T19:25:03.000Z</time>
      </trkpt>
      <trkpt lat="48.91148" lon="2.49866">
        <ele>53.599998474121</ele>
        <time>2016-07-04T19:25:07.000Z</time>
      </trkpt>
      <trkpt lat="48.91135" lon="2.49842">
        <ele>53.599998474121</ele>
        <time>2016-07-04T19:25:11.000Z</time>
      </trkpt>
      <trkpt lat="48.91121" lon="2.49821">
        <ele>53.599998474121</ele>
        <time>2016-07-04T19:25:15.000Z</time>
      </trkpt>
      <trkpt lat="48.91105" lon="2.49799">
        <ele>53.200000762939</ele>
        <time>2016-07-04T19:25:19.000Z</time>
      </trkpt>
      <trkpt lat="48.91092" lon="2.49775">
        <ele>53.400001525879</ele>
        <time>2016-07-04T19:25:23.000Z</time>
      </trkpt>
      <trkpt lat="48.91082" lon="2.4975">
        <ele>53.200000762939</ele>
        <time>2016-07-04T19:25:27.000Z</time>
      </trkpt>
      <trkpt lat="48.91072" lon="2.49726">
        <ele>53.400001525879</ele>
        <time>2016-07-04T19:25:31.000Z</time>
      </trkpt>
      <trkpt lat="48.91061" lon="2.49701">
        <ele>53.599998474121</ele>
        <time>2016-07-04T19:25:35.000Z</time>
      </trkpt>
      <trkpt lat="48.91051" lon="2.49674">
        <ele>54.200000762939</ele>
        <time>2016-07-04T19:25:39.000Z</time>
      </trkpt>
      <trkpt lat="48.91041" lon="2.49645">
        <ele>54.400001525879</ele>
        <time>2016-07-04T19:25:43.000Z</time>
      </trkpt>
      <trkpt lat="48.91031" lon="2.49613">
        <ele>54.200000762939</ele>
        <time>2016-07-04T19:25:47.000Z</time>
      </trkpt>
      <trkpt lat="48.91022" lon="2.4958">
        <ele>54</ele>
        <time>2016-07-04T19:25:51.000Z</time>
      </trkpt>
      <trkpt lat="48.91013" lon="2.49548">
        <ele>53.200000762939</ele>
        <time>2016-07-04T19:25:55.000Z</time>
      </trkpt>
      <trkpt lat="48.91011" lon="2.4954">
        <ele>52.799999237061</ele>
        <time>2016-07-04T19:25:56.000Z</time>
      </trkpt>
      <trkpt lat="48.91012" lon="2.49513">
        <ele>52</ele>
        <time>2016-07-04T19:26:00.000Z</time>
      </trkpt>
      <trkpt lat="48.91008" lon="2.49498">
        <ele>51.599998474121</ele>
        <time>2016-07-04T19:26:02.000Z</time>
      </trkpt>
      <trkpt lat="48.91001" lon="2.49466">
        <ele>51.400001525879</ele>
        <time>2016-07-04T19:26:06.000Z</time>
      </trkpt>
      <trkpt lat="48.90995" lon="2.49435">
        <ele>51.799999237061</ele>
        <time>2016-07-04T19:26:10.000Z</time>
      </trkpt>
      <trkpt lat="48.90985" lon="2.49416">
        <ele>52</ele>
        <time>2016-07-04T19:26:13.000Z</time>
      </trkpt>
      <trkpt lat="48.90978" lon="2.49383">
        <ele>51.200000762939</ele>
        <time>2016-07-04T19:26:17.000Z</time>
      </trkpt>
      <trkpt lat="48.90971" lon="2.49349">
        <ele>51</ele>
        <time>2016-07-04T19:26:21.000Z</time>
      </trkpt>
      <trkpt lat="48.90963" lon="2.49315">
        <ele>51.200000762939</ele>
        <time>2016-07-04T19:26:25.000Z</time>
      </trkpt>
      <trkpt lat="48.90957" lon="2.49284">
        <ele>51.799999237061</ele>
        <time>2016-07-04T19:26:29.000Z</time>
      </trkpt>
      <trkpt lat="48.90953" lon="2.49257">
        <ele>52.200000762939</ele>
        <time>2016-07-04T19:26:33.000Z</time>
      </trkpt>
      <trkpt lat="48.90948" lon="2.49226">
        <ele>52.400001525879</ele>
        <time>2016-07-04T19:26:37.000Z</time>
      </trkpt>
      <trkpt lat="48.90941" lon="2.49196">
        <ele>52.599998474121</ele>
        <time>2016-07-04T19:26:41.000Z</time>
      </trkpt>
      <trkpt lat="48.90934" lon="2.49163">
        <ele>53</ele>
        <time>2016-07-04T19:26:45.000Z</time>
      </trkpt>
      <trkpt lat="48.90928" lon="2.49129">
        <ele>53.200000762939</ele>
        <time>2016-07-04T19:26:49.000Z</time>
      </trkpt>
      <trkpt lat="48.90927" lon="2.49121">
        <ele>53.400001525879</ele>
        <time>2016-07-04T19:26:50.000Z</time>
      </trkpt>
      <trkpt lat="48.90931" lon="2.49091">
        <ele>53.799999237061</ele>
        <time>2016-07-04T19:26:54.000Z</time>
      </trkpt>
      <trkpt lat="48.90925" lon="2.49062">
        <ele>53.200000762939</ele>
        <time>2016-07-04T19:26:58.000Z</time>
      </trkpt>
      <trkpt lat="48.90924" lon="2.49056">
        <ele>53</ele>
        <time>2016-07-04T19:26:59.000Z</time>
      </trkpt>
      <trkpt lat="48.90919" lon="2.49028">
        <ele>52.599998474121</ele>
        <time>2016-07-04T19:27:03.000Z</time>
      </trkpt>
      <trkpt lat="48.90915" lon="2.49017">
        <ele>52.200000762939</ele>
        <time>2016-07-04T19:27:05.000Z</time>
      </trkpt>
      <trkpt lat="48.90911" lon="2.49003">
        <ele>52</ele>
        <time>2016-07-04T19:27:08.000Z</time>
      </trkpt>
      <trkpt lat="48.90907" lon="2.48991">
        <ele>51.599998474121</ele>
        <time>2016-07-04T19:27:12.000Z</time>
      </trkpt>
      <trkpt lat="48.90902" lon="2.48992">
        <ele>51.599998474121</ele>
        <time>2016-07-04T19:28:15.000Z</time>
      </trkpt>
      <trkpt lat="48.90899" lon="2.48997">
        <ele>51.400001525879</ele>
        <time>2016-07-04T19:30:05.000Z</time>
      </trkpt>
      <trkpt lat="48.90906" lon="2.48988">
        <ele>51.599998474121</ele>
        <time>2016-07-04T19:31:45.000Z</time>
      </trkpt>
      <trkpt lat="48.909" lon="2.48961">
        <ele>51</ele>
        <time>2016-07-04T19:31:58.000Z</time>
      </trkpt>
      <trkpt lat="48.90893" lon="2.48935">
        <ele>50.599998474121</ele>
        <time>2016-07-04T19:32:03.000Z</time>
      </trkpt>
      <trkpt lat="48.90887" lon="2.48905">
        <ele>50.200000762939</ele>
        <time>2016-07-04T19:32:08.000Z</time>
      </trkpt>
      <trkpt lat="48.9088" lon="2.48878">
        <ele>50.400001525879</ele>
        <time>2016-07-04T19:32:12.000Z</time>
      </trkpt>
      <trkpt lat="48.90869" lon="2.4885">
        <ele>50.200000762939</ele>
        <time>2016-07-04T19:32:16.000Z</time>
      </trkpt>
      <trkpt lat="48.90864" lon="2.48822">
        <ele>50.200000762939</ele>
        <time>2016-07-04T19:32:20.000Z</time>
      </trkpt>
      <trkpt lat="48.90858" lon="2.48792">
        <ele>50</ele>
        <time>2016-07-04T19:32:24.000Z</time>
      </trkpt>
      <trkpt lat="48.90852" lon="2.48758">
        <ele>49.799999237061</ele>
        <time>2016-07-04T19:32:28.000Z</time>
      </trkpt>
      <trkpt lat="48.90847" lon="2.48725">
        <ele>49.599998474121</ele>
        <time>2016-07-04T19:32:32.000Z</time>
      </trkpt>
      <trkpt lat="48.90843" lon="2.48692">
        <ele>49.200000762939</ele>
        <time>2016-07-04T19:32:36.000Z</time>
      </trkpt>
      <trkpt lat="48.90837" lon="2.4866">
        <ele>49</ele>
        <time>2016-07-04T19:32:40.000Z</time>
      </trkpt>
      <trkpt lat="48.90832" lon="2.48628">
        <ele>49.400001525879</ele>
        <time>2016-07-04T19:32:44.000Z</time>
      </trkpt>
      <trkpt lat="48.90825" lon="2.48595">
        <ele>49.799999237061</ele>
        <time>2016-07-04T19:32:48.000Z</time>
      </trkpt>
      <trkpt lat="48.90818" lon="2.48563">
        <ele>50</ele>
        <time>2016-07-04T19:32:52.000Z</time>
      </trkpt>
      <trkpt lat="48.90815" lon="2.48548">
        <ele>50</ele>
        <time>2016-07-04T19:32:54.000Z</time>
      </trkpt>
      <trkpt lat="48.90809" lon="2.48516">
        <ele>50.200000762939</ele>
        <time>2016-07-04T19:32:58.000Z</time>
      </trkpt>
      <trkpt lat="48.90801" lon="2.48483">
        <ele>50.599998474121</ele>
        <time>2016-07-04T19:33:02.000Z</time>
      </trkpt>
      <trkpt lat="48.90794" lon="2.4845">
        <ele>50.799999237061</ele>
        <time>2016-07-04T19:33:06.000Z</time>
      </trkpt>
      <trkpt lat="48.90787" lon="2.48416">
        <ele>51</ele>
        <time>2016-07-04T19:33:10.000Z</time>
      </trkpt>
      <trkpt lat="48.90782" lon="2.4839">
        <ele>51.400001525879</ele>
        <time>2016-07-04T19:33:13.000Z</time>
      </trkpt>
      <trkpt lat="48.90778" lon="2.48363">
        <ele>51.599998474121</ele>
        <time>2016-07-04T19:33:16.000Z</time>
      </trkpt>
      <trkpt lat="48.90773" lon="2.48335">
        <ele>52</ele>
        <time>2016-07-04T19:33:19.000Z</time>
      </trkpt>
      <trkpt lat="48.90766" lon="2.48301">
        <ele>51.400001525879</ele>
        <time>2016-07-04T19:33:23.000Z</time>
      </trkpt>
      <trkpt lat="48.9076" lon="2.48275">
        <ele>50.799999237061</ele>
        <time>2016-07-04T19:33:26.000Z</time>
      </trkpt>
      <trkpt lat="48.90755" lon="2.48248">
        <ele>50.200000762939</ele>
        <time>2016-07-04T19:33:29.000Z</time>
      </trkpt>
      <trkpt lat="48.90749" lon="2.48213">
        <ele>50.799999237061</ele>
        <time>2016-07-04T19:33:33.000Z</time>
      </trkpt>
      <trkpt lat="48.90744" lon="2.48186">
        <ele>50.599998474121</ele>
        <time>2016-07-04T19:33:36.000Z</time>
      </trkpt>
      <trkpt lat="48.90737" lon="2.48151">
        <ele>50.799999237061</ele>
        <time>2016-07-04T19:33:40.000Z</time>
      </trkpt>
      <trkpt lat="48.9073" lon="2.48117">
        <ele>51.200000762939</ele>
        <time>2016-07-04T19:33:44.000Z</time>
      </trkpt>
      <trkpt lat="48.90724" lon="2.4809">
        <ele>52</ele>
        <time>2016-07-04T19:33:47.000Z</time>
      </trkpt>
      <trkpt lat="48.90716" lon="2.48057">
        <ele>52.400001525879</ele>
        <time>2016-07-04T19:33:51.000Z</time>
      </trkpt>
      <trkpt lat="48.90711" lon="2.48026">
        <ele>52.400001525879</ele>
        <time>2016-07-04T19:33:55.000Z</time>
      </trkpt>
      <trkpt lat="48.90704" lon="2.48001">
        <ele>52.799999237061</ele>
        <time>2016-07-04T19:33:58.000Z</time>
      </trkpt>
      <trkpt lat="48.90698" lon="2.47975">
        <ele>52.799999237061</ele>
        <time>2016-07-04T19:34:01.000Z</time>
      </trkpt>
      <trkpt lat="48.90691" lon="2.4794">
        <ele>53</ele>
        <time>2016-07-04T19:34:05.000Z</time>
      </trkpt>
      <trkpt lat="48.90687" lon="2.47912">
        <ele>53</ele>
        <time>2016-07-04T19:34:08.000Z</time>
      </trkpt>
      <trkpt lat="48.90681" lon="2.47877">
        <ele>52.799999237061</ele>
        <time>2016-07-04T19:34:12.000Z</time>
      </trkpt>
      <trkpt lat="48.90673" lon="2.47842">
        <ele>52.799999237061</ele>
        <time>2016-07-04T19:34:16.000Z</time>
      </trkpt>
      <trkpt lat="48.90667" lon="2.47808">
        <ele>52.400001525879</ele>
        <time>2016-07-04T19:34:20.000Z</time>
      </trkpt>
      <trkpt lat="48.90659" lon="2.47774">
        <ele>52</ele>
        <time>2016-07-04T19:34:24.000Z</time>
      </trkpt>
      <trkpt lat="48.90653" lon="2.47746">
        <ele>51.599998474121</ele>
        <time>2016-07-04T19:34:27.000Z</time>
      </trkpt>
      <trkpt lat="48.90647" lon="2.47718">
        <ele>51.799999237061</ele>
        <time>2016-07-04T19:34:30.000Z</time>
      </trkpt>
      <trkpt lat="48.9064" lon="2.47689">
        <ele>52</ele>
        <time>2016-07-04T19:34:33.000Z</time>
      </trkpt>
      <trkpt lat="48.90633" lon="2.47662">
        <ele>52</ele>
        <time>2016-07-04T19:34:36.000Z</time>
      </trkpt>
      <trkpt lat="48.90626" lon="2.47631">
        <ele>52</ele>
        <time>2016-07-04T19:34:39.000Z</time>
      </trkpt>
      <trkpt lat="48.9062" lon="2.47601">
        <ele>52</ele>
        <time>2016-07-04T19:34:42.000Z</time>
      </trkpt>
      <trkpt lat="48.90612" lon="2.4757">
        <ele>52.400001525879</ele>
        <time>2016-07-04T19:34:45.000Z</time>
      </trkpt>
      <trkpt lat="48.90606" lon="2.47537">
        <ele>53</ele>
        <time>2016-07-04T19:34:48.000Z</time>
      </trkpt>
      <trkpt lat="48.906" lon="2.47505">
        <ele>53.799999237061</ele>
        <time>2016-07-04T19:34:51.000Z</time>
      </trkpt>
      <trkpt lat="48.90594" lon="2.47474">
        <ele>53.599998474121</ele>
        <time>2016-07-04T19:34:54.000Z</time>
      </trkpt>
      <trkpt lat="48.90589" lon="2.47447">
        <ele>53.599998474121</ele>
        <time>2016-07-04T19:34:57.000Z</time>
      </trkpt>
      <trkpt lat="48.90585" lon="2.47426">
        <ele>53.400001525879</ele>
        <time>2016-07-04T19:35:00.000Z</time>
      </trkpt>
      <trkpt lat="48.90582" lon="2.47398">
        <ele>53.799999237061</ele>
        <time>2016-07-04T19:35:05.000Z</time>
      </trkpt>
      <trkpt lat="48.90594" lon="2.4738">
        <ele>52.799999237061</ele>
        <time>2016-07-04T19:35:11.000Z</time>
      </trkpt>
      <trkpt lat="48.90608" lon="2.47359">
        <ele>51.200000762939</ele>
        <time>2016-07-04T19:35:18.000Z</time>
      </trkpt>
      <trkpt lat="48.90601" lon="2.47329">
        <ele>50.400001525879</ele>
        <time>2016-07-04T19:35:23.000Z</time>
      </trkpt>
      <trkpt lat="48.90595" lon="2.47303">
        <ele>50.799999237061</ele>
        <time>2016-07-04T19:35:26.000Z</time>
      </trkpt>
      <trkpt lat="48.90587" lon="2.47275">
        <ele>51.200000762939</ele>
        <time>2016-07-04T19:35:29.000Z</time>
      </trkpt>
      <trkpt lat="48.90579" lon="2.4725">
        <ele>51.599998474121</ele>
        <time>2016-07-04T19:35:32.000Z</time>
      </trkpt>
      <trkpt lat="48.90572" lon="2.47223">
        <ele>51.599998474121</ele>
        <time>2016-07-04T19:35:35.000Z</time>
      </trkpt>
      <trkpt lat="48.90565" lon="2.47196">
        <ele>52.400001525879</ele>
        <time>2016-07-04T19:35:38.000Z</time>
      </trkpt>
      <trkpt lat="48.9056" lon="2.47165">
        <ele>53.599998474121</ele>
        <time>2016-07-04T19:35:41.000Z</time>
      </trkpt>
      <trkpt lat="48.90554" lon="2.4713">
        <ele>53.799999237061</ele>
        <time>2016-07-04T19:35:45.000Z</time>
      </trkpt>
      <trkpt lat="48.9055" lon="2.47102">
        <ele>54.200000762939</ele>
        <time>2016-07-04T19:35:48.000Z</time>
      </trkpt>
      <trkpt lat="48.90544" lon="2.47074">
        <ele>54.400001525879</ele>
        <time>2016-07-04T19:35:51.000Z</time>
      </trkpt>
      <trkpt lat="48.90538" lon="2.47047">
        <ele>53.799999237061</ele>
        <time>2016-07-04T19:35:54.000Z</time>
      </trkpt>
      <trkpt lat="48.90532" lon="2.4702">
        <ele>53.200000762939</ele>
        <time>2016-07-04T19:35:57.000Z</time>
      </trkpt>
      <trkpt lat="48.90526" lon="2.46989">
        <ele>52.799999237061</ele>
        <time>2016-07-04T19:36:01.000Z</time>
      </trkpt>
      <trkpt lat="48.90518" lon="2.46953">
        <ele>52.400001525879</ele>
        <time>2016-07-04T19:36:05.000Z</time>
      </trkpt>
      <trkpt lat="48.90511" lon="2.46924">
        <ele>52</ele>
        <time>2016-07-04T19:36:08.000Z</time>
      </trkpt>
      <trkpt lat="48.90505" lon="2.46897">
        <ele>51.799999237061</ele>
        <time>2016-07-04T19:36:11.000Z</time>
      </trkpt>
      <trkpt lat="48.90499" lon="2.46867">
        <ele>51.400001525879</ele>
        <time>2016-07-04T19:36:14.000Z</time>
      </trkpt>
      <trkpt lat="48.90494" lon="2.46837">
        <ele>51</ele>
        <time>2016-07-04T19:36:17.000Z</time>
      </trkpt>
      <trkpt lat="48.90487" lon="2.46806">
        <ele>52</ele>
        <time>2016-07-04T19:36:20.000Z</time>
      </trkpt>
      <trkpt lat="48.90483" lon="2.46772">
        <ele>52.599998474121</ele>
        <time>2016-07-04T19:36:23.000Z</time>
      </trkpt>
      <trkpt lat="48.90479" lon="2.46738">
        <ele>53.200000762939</ele>
        <time>2016-07-04T19:36:26.000Z</time>
      </trkpt>
      <trkpt lat="48.90475" lon="2.46704">
        <ele>53.799999237061</ele>
        <time>2016-07-04T19:36:29.000Z</time>
      </trkpt>
      <trkpt lat="48.90469" lon="2.46673">
        <ele>54</ele>
        <time>2016-07-04T19:36:32.000Z</time>
      </trkpt>
      <trkpt lat="48.90462" lon="2.46641">
        <ele>54.200000762939</ele>
        <time>2016-07-04T19:36:35.000Z</time>
      </trkpt>
      <trkpt lat="48.90455" lon="2.46609">
        <ele>54.400001525879</ele>
        <time>2016-07-04T19:36:38.000Z</time>
      </trkpt>
      <trkpt lat="48.90448" lon="2.46578">
        <ele>54.599998474121</ele>
        <time>2016-07-04T19:36:41.000Z</time>
      </trkpt>
      <trkpt lat="48.90442" lon="2.46548">
        <ele>54.599998474121</ele>
        <time>2016-07-04T19:36:44.000Z</time>
      </trkpt>
      <trkpt lat="48.90433" lon="2.46523">
        <ele>54.200000762939</ele>
        <time>2016-07-04T19:36:47.000Z</time>
      </trkpt>
      <trkpt lat="48.90429" lon="2.46507">
        <ele>54</ele>
        <time>2016-07-04T19:36:49.000Z</time>
      </trkpt>
      <trkpt lat="48.90426" lon="2.46478">
        <ele>54</ele>
        <time>2016-07-04T19:36:52.000Z</time>
      </trkpt>
      <trkpt lat="48.90422" lon="2.4645">
        <ele>54</ele>
        <time>2016-07-04T19:36:55.000Z</time>
      </trkpt>
      <trkpt lat="48.90416" lon="2.46422">
        <ele>54</ele>
        <time>2016-07-04T19:36:58.000Z</time>
      </trkpt>
      <trkpt lat="48.90411" lon="2.46391">
        <ele>54</ele>
        <time>2016-07-04T19:37:01.000Z</time>
      </trkpt>
      <trkpt lat="48.90405" lon="2.46358">
        <ele>53.799999237061</ele>
        <time>2016-07-04T19:37:04.000Z</time>
      </trkpt>
      <trkpt lat="48.90398" lon="2.46323">
        <ele>53.599998474121</ele>
        <time>2016-07-04T19:37:07.000Z</time>
      </trkpt>
      <trkpt lat="48.90392" lon="2.46288">
        <ele>53.599998474121</ele>
        <time>2016-07-04T19:37:10.000Z</time>
      </trkpt>
      <trkpt lat="48.90385" lon="2.46252">
        <ele>54</ele>
        <time>2016-07-04T19:37:13.000Z</time>
      </trkpt>
      <trkpt lat="48.90377" lon="2.46216">
        <ele>53.599998474121</ele>
        <time>2016-07-04T19:37:16.000Z</time>
      </trkpt>
      <trkpt lat="48.90371" lon="2.46178">
        <ele>53.200000762939</ele>
        <time>2016-07-04T19:37:19.000Z</time>
      </trkpt>
      <trkpt lat="48.90363" lon="2.46142">
        <ele>53</ele>
        <time>2016-07-04T19:37:22.000Z</time>
      </trkpt>
      <trkpt lat="48.90356" lon="2.46109">
        <ele>53</ele>
        <time>2016-07-04T19:37:25.000Z</time>
      </trkpt>
      <trkpt lat="48.90348" lon="2.46071">
        <ele>53.200000762939</ele>
        <time>2016-07-04T19:37:28.000Z</time>
      </trkpt>
      <trkpt lat="48.90342" lon="2.46033">
        <ele>53.599998474121</ele>
        <time>2016-07-04T19:37:31.000Z</time>
      </trkpt>
      <trkpt lat="48.90335" lon="2.45996">
        <ele>54</ele>
        <time>2016-07-04T19:37:34.000Z</time>
      </trkpt>
      <trkpt lat="48.90328" lon="2.4596">
        <ele>53.599998474121</ele>
        <time>2016-07-04T19:37:37.000Z</time>
      </trkpt>
      <trkpt lat="48.90321" lon="2.45925">
        <ele>53.599998474121</ele>
        <time>2016-07-04T19:37:40.000Z</time>
      </trkpt>
      <trkpt lat="48.90313" lon="2.45891">
        <ele>53.200000762939</ele>
        <time>2016-07-04T19:37:43.000Z</time>
      </trkpt>
      <trkpt lat="48.90308" lon="2.45863">
        <ele>52.799999237061</ele>
        <time>2016-07-04T19:37:46.000Z</time>
      </trkpt>
      <trkpt lat="48.90304" lon="2.45835">
        <ele>53</ele>
        <time>2016-07-04T19:37:49.000Z</time>
      </trkpt>
      <trkpt lat="48.903" lon="2.45805">
        <ele>53.599998474121</ele>
        <time>2016-07-04T19:37:53.000Z</time>
      </trkpt>
      <trkpt lat="48.90299" lon="2.45795">
        <ele>53.799999237061</ele>
        <time>2016-07-04T19:37:55.000Z</time>
      </trkpt>
      <trkpt lat="48.90296" lon="2.45779">
        <ele>54.200000762939</ele>
        <time>2016-07-04T19:38:01.000Z</time>
      </trkpt>
      <trkpt lat="48.90297" lon="2.4578">
        <ele>54.200000762939</ele>
        <time>2016-07-04T19:38:02.000Z</time>
      </trkpt>
      <trkpt lat="48.90298" lon="2.45791">
        <ele>53.799999237061</ele>
        <time>2016-07-04T19:40:08.000Z</time>
      </trkpt>
      <trkpt lat="48.90292" lon="2.45773">
        <ele>54.200000762939</ele>
        <time>2016-07-04T19:41:00.000Z</time>
      </trkpt>
      <trkpt lat="48.90286" lon="2.45743">
        <ele>54</ele>
        <time>2016-07-04T19:41:10.000Z</time>
      </trkpt>
      <trkpt lat="48.9028" lon="2.45714">
        <ele>53.599998474121</ele>
        <time>2016-07-04T19:41:16.000Z</time>
      </trkpt>
      <trkpt lat="48.90273" lon="2.45681">
        <ele>53.200000762939</ele>
        <time>2016-07-04T19:41:21.000Z</time>
      </trkpt>
      <trkpt lat="48.9027" lon="2.45667">
        <ele>53</ele>
        <time>2016-07-04T19:41:23.000Z</time>
      </trkpt>
      <trkpt lat="48.90262" lon="2.45636">
        <ele>52.400001525879</ele>
        <time>2016-07-04T19:41:27.000Z</time>
      </trkpt>
      <trkpt lat="48.90255" lon="2.45605">
        <ele>51.799999237061</ele>
        <time>2016-07-04T19:41:31.000Z</time>
      </trkpt>
      <trkpt lat="48.90249" lon="2.45575">
        <ele>51.200000762939</ele>
        <time>2016-07-04T19:41:35.000Z</time>
      </trkpt>
      <trkpt lat="48.90244" lon="2.45547">
        <ele>51.400001525879</ele>
        <time>2016-07-04T19:41:39.000Z</time>
      </trkpt>
      <trkpt lat="48.90238" lon="2.4552">
        <ele>52</ele>
        <time>2016-07-04T19:41:43.000Z</time>
      </trkpt>
      <trkpt lat="48.90232" lon="2.45492">
        <ele>52.400001525879</ele>
        <time>2016-07-04T19:41:47.000Z</time>
      </trkpt>
      <trkpt lat="48.90229" lon="2.45478">
        <ele>52.200000762939</ele>
        <time>2016-07-04T19:41:49.000Z</time>
      </trkpt>
      <trkpt lat="48.90222" lon="2.45453">
        <ele>51.799999237061</ele>
        <time>2016-07-04T19:41:53.000Z</time>
      </trkpt>
      <trkpt lat="48.90216" lon="2.45426">
        <ele>51.599998474121</ele>
        <time>2016-07-04T19:41:57.000Z</time>
      </trkpt>
      <trkpt lat="48.90211" lon="2.45399">
        <ele>51.400001525879</ele>
        <time>2016-07-04T19:42:01.000Z</time>
      </trkpt>
      <trkpt lat="48.90207" lon="2.45371">
        <ele>51.400001525879</ele>
        <time>2016-07-04T19:42:05.000Z</time>
      </trkpt>
      <trkpt lat="48.90201" lon="2.45343">
        <ele>51.200000762939</ele>
        <time>2016-07-04T19:42:09.000Z</time>
      </trkpt>
      <trkpt lat="48.90196" lon="2.45315">
        <ele>51.200000762939</ele>
        <time>2016-07-04T19:42:13.000Z</time>
      </trkpt>
      <trkpt lat="48.90189" lon="2.45286">
        <ele>51</ele>
        <time>2016-07-04T19:42:17.000Z</time>
      </trkpt>
      <trkpt lat="48.90182" lon="2.45257">
        <ele>51</ele>
        <time>2016-07-04T19:42:21.000Z</time>
      </trkpt>
      <trkpt lat="48.90176" lon="2.45227">
        <ele>51.200000762939</ele>
        <time>2016-07-04T19:42:25.000Z</time>
      </trkpt>
      <trkpt lat="48.90167" lon="2.45196">
        <ele>51.200000762939</ele>
        <time>2016-07-04T19:42:29.000Z</time>
      </trkpt>
      <trkpt lat="48.9016" lon="2.45166">
        <ele>51.400001525879</ele>
        <time>2016-07-04T19:42:33.000Z</time>
      </trkpt>
      <trkpt lat="48.90154" lon="2.45134">
        <ele>51</ele>
        <time>2016-07-04T19:42:37.000Z</time>
      </trkpt>
      <trkpt lat="48.9015" lon="2.45103">
        <ele>51.200000762939</ele>
        <time>2016-07-04T19:42:41.000Z</time>
      </trkpt>
      <trkpt lat="48.90145" lon="2.45072">
        <ele>51.400001525879</ele>
        <time>2016-07-04T19:42:45.000Z</time>
      </trkpt>
      <trkpt lat="48.90137" lon="2.45042">
        <ele>51.400001525879</ele>
        <time>2016-07-04T19:42:49.000Z</time>
      </trkpt>
      <trkpt lat="48.90132" lon="2.45008">
        <ele>51.799999237061</ele>
        <time>2016-07-04T19:42:53.000Z</time>
      </trkpt>
      <trkpt lat="48.90125" lon="2.44978">
        <ele>51.799999237061</ele>
        <time>2016-07-04T19:42:56.000Z</time>
      </trkpt>
      <trkpt lat="48.90119" lon="2.44947">
        <ele>51.599998474121</ele>
        <time>2016-07-04T19:42:59.000Z</time>
      </trkpt>
      <trkpt lat="48.90115" lon="2.44914">
        <ele>51.200000762939</ele>
        <time>2016-07-04T19:43:02.000Z</time>
      </trkpt>
      <trkpt lat="48.9011" lon="2.44881">
        <ele>50.200000762939</ele>
        <time>2016-07-04T19:43:05.000Z</time>
      </trkpt>
      <trkpt lat="48.90104" lon="2.44847">
        <ele>49.400001525879</ele>
        <time>2016-07-04T19:43:08.000Z</time>
      </trkpt>
      <trkpt lat="48.90097" lon="2.44815">
        <ele>49.400001525879</ele>
        <time>2016-07-04T19:43:11.000Z</time>
      </trkpt>
      <trkpt lat="48.9009" lon="2.44783">
        <ele>49.799999237061</ele>
        <time>2016-07-04T19:43:14.000Z</time>
      </trkpt>
      <trkpt lat="48.90084" lon="2.4475">
        <ele>50.200000762939</ele>
        <time>2016-07-04T19:43:17.000Z</time>
      </trkpt>
      <trkpt lat="48.90078" lon="2.44717">
        <ele>50</ele>
        <time>2016-07-04T19:43:20.000Z</time>
      </trkpt>
      <trkpt lat="48.90072" lon="2.44683">
        <ele>50.400001525879</ele>
        <time>2016-07-04T19:43:23.000Z</time>
      </trkpt>
      <trkpt lat="48.90065" lon="2.44652">
        <ele>50.599998474121</ele>
        <time>2016-07-04T19:43:26.000Z</time>
      </trkpt>
      <trkpt lat="48.90058" lon="2.44621">
        <ele>51</ele>
        <time>2016-07-04T19:43:29.000Z</time>
      </trkpt>
      <trkpt lat="48.90052" lon="2.44603">
        <ele>51</ele>
        <time>2016-07-04T19:43:31.000Z</time>
      </trkpt>
      <trkpt lat="48.90043" lon="2.44577">
        <ele>50.799999237061</ele>
        <time>2016-07-04T19:43:34.000Z</time>
      </trkpt>
      <trkpt lat="48.90035" lon="2.44549">
        <ele>51.599998474121</ele>
        <time>2016-07-04T19:43:37.000Z</time>
      </trkpt>
      <trkpt lat="48.90028" lon="2.44521">
        <ele>52.400001525879</ele>
        <time>2016-07-04T19:43:40.000Z</time>
      </trkpt>
      <trkpt lat="48.90021" lon="2.44491">
        <ele>53</ele>
        <time>2016-07-04T19:43:43.000Z</time>
      </trkpt>
      <trkpt lat="48.90014" lon="2.4446">
        <ele>53</ele>
        <time>2016-07-04T19:43:46.000Z</time>
      </trkpt>
      <trkpt lat="48.90007" lon="2.44428">
        <ele>53</ele>
        <time>2016-07-04T19:43:49.000Z</time>
      </trkpt>
      <trkpt lat="48.90002" lon="2.44398">
        <ele>53.200000762939</ele>
        <time>2016-07-04T19:43:52.000Z</time>
      </trkpt>
      <trkpt lat="48.89996" lon="2.44367">
        <ele>53.400001525879</ele>
        <time>2016-07-04T19:43:55.000Z</time>
      </trkpt>
      <trkpt lat="48.8999" lon="2.44336">
        <ele>53.400001525879</ele>
        <time>2016-07-04T19:43:58.000Z</time>
      </trkpt>
      <trkpt lat="48.89984" lon="2.44306">
        <ele>53.400001525879</ele>
        <time>2016-07-04T19:44:01.000Z</time>
      </trkpt>
      <trkpt lat="48.89978" lon="2.44274">
        <ele>53.599998474121</ele>
        <time>2016-07-04T19:44:04.000Z</time>
      </trkpt>
      <trkpt lat="48.89972" lon="2.44243">
        <ele>53.799999237061</ele>
        <time>2016-07-04T19:44:07.000Z</time>
      </trkpt>
      <trkpt lat="48.89967" lon="2.44215">
        <ele>54.599998474121</ele>
        <time>2016-07-04T19:44:10.000Z</time>
      </trkpt>
      <trkpt lat="48.89961" lon="2.44188">
        <ele>55.200000762939</ele>
        <time>2016-07-04T19:44:13.000Z</time>
      </trkpt>
      <trkpt lat="48.89956" lon="2.44161">
        <ele>55.799999237061</ele>
        <time>2016-07-04T19:44:16.000Z</time>
      </trkpt>
      <trkpt lat="48.89951" lon="2.44135">
        <ele>55.799999237061</ele>
        <time>2016-07-04T19:44:19.000Z</time>
      </trkpt>
      <trkpt lat="48.89946" lon="2.44107">
        <ele>56</ele>
        <time>2016-07-04T19:44:22.000Z</time>
      </trkpt>
      <trkpt lat="48.89943" lon="2.44098">
        <ele>56</ele>
        <time>2016-07-04T19:44:23.000Z</time>
      </trkpt>
      <trkpt lat="48.89938" lon="2.44078">
        <ele>56</ele>
        <time>2016-07-04T19:44:25.000Z</time>
      </trkpt>
      <trkpt lat="48.89932" lon="2.44045">
        <ele>56.200000762939</ele>
        <time>2016-07-04T19:44:28.000Z</time>
      </trkpt>
      <trkpt lat="48.8993" lon="2.44034">
        <ele>56.400001525879</ele>
        <time>2016-07-04T19:44:29.000Z</time>
      </trkpt>
      <trkpt lat="48.89923" lon="2.44001">
        <ele>56.599998474121</ele>
        <time>2016-07-04T19:44:32.000Z</time>
      </trkpt>
      <trkpt lat="48.89917" lon="2.43967">
        <ele>56</ele>
        <time>2016-07-04T19:44:35.000Z</time>
      </trkpt>
      <trkpt lat="48.8991" lon="2.43935">
        <ele>55.599998474121</ele>
        <time>2016-07-04T19:44:38.000Z</time>
      </trkpt>
      <trkpt lat="48.89905" lon="2.43903">
        <ele>55</ele>
        <time>2016-07-04T19:44:41.000Z</time>
      </trkpt>
      <trkpt lat="48.89899" lon="2.43872">
        <ele>54.400001525879</ele>
        <time>2016-07-04T19:44:44.000Z</time>
      </trkpt>
      <trkpt lat="48.89894" lon="2.43839">
        <ele>54.599998474121</ele>
        <time>2016-07-04T19:44:47.000Z</time>
      </trkpt>
      <trkpt lat="48.89887" lon="2.43806">
        <ele>55</ele>
        <time>2016-07-04T19:44:50.000Z</time>
      </trkpt>
      <trkpt lat="48.8988" lon="2.43772">
        <ele>55.400001525879</ele>
        <time>2016-07-04T19:44:53.000Z</time>
      </trkpt>
      <trkpt lat="48.89872" lon="2.43739">
        <ele>55.599998474121</ele>
        <time>2016-07-04T19:44:56.000Z</time>
      </trkpt>
      <trkpt lat="48.89865" lon="2.43708">
        <ele>55.400001525879</ele>
        <time>2016-07-04T19:44:59.000Z</time>
      </trkpt>
      <trkpt lat="48.89858" lon="2.4368">
        <ele>55.200000762939</ele>
        <time>2016-07-04T19:45:02.000Z</time>
      </trkpt>
      <trkpt lat="48.8985" lon="2.43654">
        <ele>55</ele>
        <time>2016-07-04T19:45:05.000Z</time>
      </trkpt>
      <trkpt lat="48.89849" lon="2.43646">
        <ele>55</ele>
        <time>2016-07-04T19:45:06.000Z</time>
      </trkpt>
      <trkpt lat="48.89846" lon="2.4362">
        <ele>55.200000762939</ele>
        <time>2016-07-04T19:45:09.000Z</time>
      </trkpt>
      <trkpt lat="48.8984" lon="2.43587">
        <ele>55.200000762939</ele>
        <time>2016-07-04T19:45:13.000Z</time>
      </trkpt>
      <trkpt lat="48.89838" lon="2.4358">
        <ele>55.200000762939</ele>
        <time>2016-07-04T19:45:14.000Z</time>
      </trkpt>
      <trkpt lat="48.89827" lon="2.43553">
        <ele>55.799999237061</ele>
        <time>2016-07-04T19:45:19.000Z</time>
      </trkpt>
      <trkpt lat="48.89824" lon="2.43543">
        <ele>55.599998474121</ele>
        <time>2016-07-04T19:45:21.000Z</time>
      </trkpt>
      <trkpt lat="48.89813" lon="2.43497">
        <ele>55.599998474121</ele>
        <time>2016-07-04T19:45:28.000Z</time>
      </trkpt>
      <trkpt lat="48.8981" lon="2.43466">
        <ele>55.200000762939</ele>
        <time>2016-07-04T19:45:31.000Z</time>
      </trkpt>
      <trkpt lat="48.89808" lon="2.43432">
        <ele>55.400001525879</ele>
        <time>2016-07-04T19:45:34.000Z</time>
      </trkpt>
      <trkpt lat="48.8981" lon="2.43421">
        <ele>55.400001525879</ele>
        <time>2016-07-04T19:45:35.000Z</time>
      </trkpt>
      <trkpt lat="48.8981" lon="2.43391">
        <ele>55.599998474121</ele>
        <time>2016-07-04T19:45:38.000Z</time>
      </trkpt>
      <trkpt lat="48.89805" lon="2.43361">
        <ele>55.599998474121</ele>
        <time>2016-07-04T19:45:41.000Z</time>
      </trkpt>
      <trkpt lat="48.898" lon="2.43332">
        <ele>55.599998474121</ele>
        <time>2016-07-04T19:45:44.000Z</time>
      </trkpt>
      <trkpt lat="48.89793" lon="2.43299">
        <ele>55</ele>
        <time>2016-07-04T19:45:47.000Z</time>
      </trkpt>
      <trkpt lat="48.89784" lon="2.43267">
        <ele>54.200000762939</ele>
        <time>2016-07-04T19:45:50.000Z</time>
      </trkpt>
      <trkpt lat="48.89776" lon="2.43235">
        <ele>54</ele>
        <time>2016-07-04T19:45:53.000Z</time>
      </trkpt>
      <trkpt lat="48.89769" lon="2.43203">
        <ele>54.599998474121</ele>
        <time>2016-07-04T19:45:56.000Z</time>
      </trkpt>
      <trkpt lat="48.89762" lon="2.4317">
        <ele>55.200000762939</ele>
        <time>2016-07-04T19:45:59.000Z</time>
      </trkpt>
      <trkpt lat="48.89755" lon="2.43138">
        <ele>55.400001525879</ele>
        <time>2016-07-04T19:46:02.000Z</time>
      </trkpt>
      <trkpt lat="48.89748" lon="2.43106">
        <ele>55.200000762939</ele>
        <time>2016-07-04T19:46:05.000Z</time>
      </trkpt>
      <trkpt lat="48.89743" lon="2.43075">
        <ele>55</ele>
        <time>2016-07-04T19:46:08.000Z</time>
      </trkpt>
      <trkpt lat="48.89736" lon="2.43042">
        <ele>54.400001525879</ele>
        <time>2016-07-04T19:46:11.000Z</time>
      </trkpt>
      <trkpt lat="48.8973" lon="2.43011">
        <ele>54.200000762939</ele>
        <time>2016-07-04T19:46:14.000Z</time>
      </trkpt>
      <trkpt lat="48.89723" lon="2.42977">
        <ele>53.200000762939</ele>
        <time>2016-07-04T19:46:17.000Z</time>
      </trkpt>
      <trkpt lat="48.89717" lon="2.42941">
        <ele>51.599998474121</ele>
        <time>2016-07-04T19:46:20.000Z</time>
      </trkpt>
      <trkpt lat="48.89712" lon="2.42907">
        <ele>51</ele>
        <time>2016-07-04T19:46:23.000Z</time>
      </trkpt>
      <trkpt lat="48.89706" lon="2.42874">
        <ele>51.400001525879</ele>
        <time>2016-07-04T19:46:26.000Z</time>
      </trkpt>
      <trkpt lat="48.89701" lon="2.42844">
        <ele>51.799999237061</ele>
        <time>2016-07-04T19:46:29.000Z</time>
      </trkpt>
      <trkpt lat="48.89695" lon="2.42814">
        <ele>52</ele>
        <time>2016-07-04T19:46:32.000Z</time>
      </trkpt>
      <trkpt lat="48.8969" lon="2.42784">
        <ele>52.599998474121</ele>
        <time>2016-07-04T19:46:35.000Z</time>
      </trkpt>
      <trkpt lat="48.89685" lon="2.42755">
        <ele>53</ele>
        <time>2016-07-04T19:46:38.000Z</time>
      </trkpt>
      <trkpt lat="48.89681" lon="2.42728">
        <ele>53.200000762939</ele>
        <time>2016-07-04T19:46:41.000Z</time>
      </trkpt>
      <trkpt lat="48.89675" lon="2.42701">
        <ele>53.400001525879</ele>
        <time>2016-07-04T19:46:44.000Z</time>
      </trkpt>
      <trkpt lat="48.89669" lon="2.42667">
        <ele>53.400001525879</ele>
        <time>2016-07-04T19:46:48.000Z</time>
      </trkpt>
      <trkpt lat="48.89666" lon="2.42635">
        <ele>53</ele>
        <time>2016-07-04T19:46:52.000Z</time>
      </trkpt>
      <trkpt lat="48.89665" lon="2.4262">
        <ele>52.799999237061</ele>
        <time>2016-07-04T19:46:54.000Z</time>
      </trkpt>
      <trkpt lat="48.89662" lon="2.42592">
        <ele>52.400001525879</ele>
        <time>2016-07-04T19:46:58.000Z</time>
      </trkpt>
      <trkpt lat="48.89659" lon="2.42567">
        <ele>52.200000762939</ele>
        <time>2016-07-04T19:47:02.000Z</time>
      </trkpt>
      <trkpt lat="48.89658" lon="2.4255">
        <ele>52</ele>
        <time>2016-07-04T19:47:05.000Z</time>
      </trkpt>
      <trkpt lat="48.89658" lon="2.42543">
        <ele>52</ele>
        <time>2016-07-04T19:47:07.000Z</time>
      </trkpt>
      <trkpt lat="48.89659" lon="2.42539">
        <ele>51.799999237061</ele>
        <time>2016-07-04T19:47:10.000Z</time>
      </trkpt>
      <trkpt lat="48.89659" lon="2.42542">
        <ele>51.799999237061</ele>
        <time>2016-07-04T19:48:57.000Z</time>
      </trkpt>
      <trkpt lat="48.89663" lon="2.42538">
        <ele>51.799999237061</ele>
        <time>2016-07-04T19:49:15.000Z</time>
      </trkpt>
      <trkpt lat="48.89656" lon="2.42553">
        <ele>52</ele>
        <time>2016-07-04T19:49:24.000Z</time>
      </trkpt>
      <trkpt lat="48.89664" lon="2.42538">
        <ele>51.799999237061</ele>
        <time>2016-07-04T19:49:57.000Z</time>
      </trkpt>
      <trkpt lat="48.89671" lon="2.42523">
        <ele>51.599998474121</ele>
        <time>2016-07-04T19:50:03.000Z</time>
      </trkpt>
      <trkpt lat="48.89672" lon="2.42494">
        <ele>51.200000762939</ele>
        <time>2016-07-04T19:50:09.000Z</time>
      </trkpt>
      <trkpt lat="48.89672" lon="2.42465">
        <ele>50.799999237061</ele>
        <time>2016-07-04T19:50:13.000Z</time>
      </trkpt>
      <trkpt lat="48.89671" lon="2.42435">
        <ele>50.200000762939</ele>
        <time>2016-07-04T19:50:17.000Z</time>
      </trkpt>
      <trkpt lat="48.89673" lon="2.42419">
        <ele>49.599998474121</ele>
        <time>2016-07-04T19:50:19.000Z</time>
      </trkpt>
      <trkpt lat="48.89671" lon="2.42388">
        <ele>49.799999237061</ele>
        <time>2016-07-04T19:50:23.000Z</time>
      </trkpt>
      <trkpt lat="48.8967" lon="2.42381">
        <ele>49.799999237061</ele>
        <time>2016-07-04T19:50:24.000Z</time>
      </trkpt>
      <trkpt lat="48.8967" lon="2.42349">
        <ele>50.200000762939</ele>
        <time>2016-07-04T19:50:28.000Z</time>
      </trkpt>
      <trkpt lat="48.89667" lon="2.42316">
        <ele>50.599998474121</ele>
        <time>2016-07-04T19:50:32.000Z</time>
      </trkpt>
      <trkpt lat="48.89667" lon="2.42307">
        <ele>50.599998474121</ele>
        <time>2016-07-04T19:50:33.000Z</time>
      </trkpt>
      <trkpt lat="48.89668" lon="2.42289">
        <ele>50</ele>
        <time>2016-07-04T19:50:35.000Z</time>
      </trkpt>
      <trkpt lat="48.89668" lon="2.42255">
        <ele>49.200000762939</ele>
        <time>2016-07-04T19:50:39.000Z</time>
      </trkpt>
      <trkpt lat="48.89667" lon="2.4223">
        <ele>49.200000762939</ele>
        <time>2016-07-04T19:50:42.000Z</time>
      </trkpt>
      <trkpt lat="48.89665" lon="2.42202">
        <ele>49.200000762939</ele>
        <time>2016-07-04T19:50:46.000Z</time>
      </trkpt>
      <trkpt lat="48.89665" lon="2.42173">
        <ele>49.200000762939</ele>
        <time>2016-07-04T19:50:50.000Z</time>
      </trkpt>
      <trkpt lat="48.89664" lon="2.42146">
        <ele>49.200000762939</ele>
        <time>2016-07-04T19:50:54.000Z</time>
      </trkpt>
      <trkpt lat="48.89663" lon="2.42117">
        <ele>49.200000762939</ele>
        <time>2016-07-04T19:50:58.000Z</time>
      </trkpt>
      <trkpt lat="48.89662" lon="2.42089">
        <ele>49.400001525879</ele>
        <time>2016-07-04T19:51:02.000Z</time>
      </trkpt>
      <trkpt lat="48.89662" lon="2.42065">
        <ele>49.400001525879</ele>
        <time>2016-07-04T19:51:06.000Z</time>
      </trkpt>
      <trkpt lat="48.89661" lon="2.42032">
        <ele>49.400001525879</ele>
        <time>2016-07-04T19:51:11.000Z</time>
      </trkpt>
      <trkpt lat="48.8966" lon="2.42">
        <ele>49.400001525879</ele>
        <time>2016-07-04T19:51:16.000Z</time>
      </trkpt>
      <trkpt lat="48.8966" lon="2.41969">
        <ele>49.400001525879</ele>
        <time>2016-07-04T19:51:21.000Z</time>
      </trkpt>
      <trkpt lat="48.89659" lon="2.41956">
        <ele>49.400001525879</ele>
        <time>2016-07-04T19:51:23.000Z</time>
      </trkpt>
      <trkpt lat="48.89659" lon="2.41927">
        <ele>49.400001525879</ele>
        <time>2016-07-04T19:51:27.000Z</time>
      </trkpt>
      <trkpt lat="48.89659" lon="2.4192">
        <ele>49.599998474121</ele>
        <time>2016-07-04T19:51:28.000Z</time>
      </trkpt>
      <trkpt lat="48.89658" lon="2.4189">
        <ele>50.200000762939</ele>
        <time>2016-07-04T19:51:32.000Z</time>
      </trkpt>
      <trkpt lat="48.89657" lon="2.4186">
        <ele>50.400001525879</ele>
        <time>2016-07-04T19:51:36.000Z</time>
      </trkpt>
      <trkpt lat="48.89657" lon="2.41829">
        <ele>50.400001525879</ele>
        <time>2016-07-04T19:51:40.000Z</time>
      </trkpt>
      <trkpt lat="48.89656" lon="2.418">
        <ele>51.200000762939</ele>
        <time>2016-07-04T19:51:44.000Z</time>
      </trkpt>
      <trkpt lat="48.89653" lon="2.41766">
        <ele>52</ele>
        <time>2016-07-04T19:51:49.000Z</time>
      </trkpt>
      <trkpt lat="48.89651" lon="2.41747">
        <ele>52.200000762939</ele>
        <time>2016-07-04T19:51:52.000Z</time>
      </trkpt>
      <trkpt lat="48.8965" lon="2.41727">
        <ele>52.400001525879</ele>
        <time>2016-07-04T19:51:55.000Z</time>
      </trkpt>
      <trkpt lat="48.89648" lon="2.41697">
        <ele>52.599998474121</ele>
        <time>2016-07-04T19:51:59.000Z</time>
      </trkpt>
      <trkpt lat="48.89647" lon="2.4169">
        <ele>52.599998474121</ele>
        <time>2016-07-04T19:52:00.000Z</time>
      </trkpt>
      <trkpt lat="48.89644" lon="2.41659">
        <ele>52.799999237061</ele>
        <time>2016-07-04T19:52:04.000Z</time>
      </trkpt>
      <trkpt lat="48.89644" lon="2.41626">
        <ele>52.400001525879</ele>
        <time>2016-07-04T19:52:08.000Z</time>
      </trkpt>
      <trkpt lat="48.89643" lon="2.41595">
        <ele>52.200000762939</ele>
        <time>2016-07-04T19:52:12.000Z</time>
      </trkpt>
      <trkpt lat="48.89643" lon="2.41564">
        <ele>51.400001525879</ele>
        <time>2016-07-04T19:52:16.000Z</time>
      </trkpt>
      <trkpt lat="48.89645" lon="2.41532">
        <ele>50.799999237061</ele>
        <time>2016-07-04T19:52:21.000Z</time>
      </trkpt>
      <trkpt lat="48.89646" lon="2.41522">
        <ele>50.799999237061</ele>
        <time>2016-07-04T19:52:23.000Z</time>
      </trkpt>
      <trkpt lat="48.89648" lon="2.41512">
        <ele>50.799999237061</ele>
        <time>2016-07-04T19:52:27.000Z</time>
      </trkpt>
      <trkpt lat="48.89638" lon="2.41511">
        <ele>51.400001525879</ele>
        <time>2016-07-04T19:53:06.000Z</time>
      </trkpt>
      <trkpt lat="48.8962" lon="2.41509">
        <ele>52.200000762939</ele>
        <time>2016-07-04T19:53:10.000Z</time>
      </trkpt>
      <trkpt lat="48.89606" lon="2.41509">
        <ele>53.200000762939</ele>
        <time>2016-07-04T19:53:13.000Z</time>
      </trkpt>
      <trkpt lat="48.89585" lon="2.41506">
        <ele>53.400001525879</ele>
        <time>2016-07-04T19:53:18.000Z</time>
      </trkpt>
      <trkpt lat="48.89577" lon="2.41505">
        <ele>53.599998474121</ele>
        <time>2016-07-04T19:53:20.000Z</time>
      </trkpt>
      <trkpt lat="48.8957" lon="2.41503">
        <ele>53.599998474121</ele>
        <time>2016-07-04T19:53:22.000Z</time>
      </trkpt>
      <trkpt lat="48.8956" lon="2.41497">
        <ele>53.599998474121</ele>
        <time>2016-07-04T19:53:26.000Z</time>
      </trkpt>
      <trkpt lat="48.89554" lon="2.41498">
        <ele>53.599998474121</ele>
        <time>2016-07-04T19:53:29.000Z</time>
      </trkpt>
      <trkpt lat="48.89542" lon="2.41482">
        <ele>53.200000762939</ele>
        <time>2016-07-04T19:53:37.000Z</time>
      </trkpt>
      <trkpt lat="48.89541" lon="2.41473">
        <ele>52.799999237061</ele>
        <time>2016-07-04T19:53:39.000Z</time>
      </trkpt>
      <trkpt lat="48.89536" lon="2.41441">
        <ele>51.799999237061</ele>
        <time>2016-07-04T19:53:45.000Z</time>
      </trkpt>
      <trkpt lat="48.89532" lon="2.41411">
        <ele>51.200000762939</ele>
        <time>2016-07-04T19:53:50.000Z</time>
      </trkpt>
      <trkpt lat="48.89528" lon="2.41383">
        <ele>52.200000762939</ele>
        <time>2016-07-04T19:53:54.000Z</time>
      </trkpt>
      <trkpt lat="48.89524" lon="2.41355">
        <ele>53.200000762939</ele>
        <time>2016-07-04T19:53:58.000Z</time>
      </trkpt>
      <trkpt lat="48.89523" lon="2.41324">
        <ele>54</ele>
        <time>2016-07-04T19:54:02.000Z</time>
      </trkpt>
      <trkpt lat="48.89521" lon="2.41289">
        <ele>54</ele>
        <time>2016-07-04T19:54:06.000Z</time>
      </trkpt>
      <trkpt lat="48.89518" lon="2.41259">
        <ele>54.200000762939</ele>
        <time>2016-07-04T19:54:09.000Z</time>
      </trkpt>
      <trkpt lat="48.89517" lon="2.41223">
        <ele>54.599998474121</ele>
        <time>2016-07-04T19:54:13.000Z</time>
      </trkpt>
      <trkpt lat="48.89516" lon="2.41196">
        <ele>55</ele>
        <time>2016-07-04T19:54:16.000Z</time>
      </trkpt>
      <trkpt lat="48.89517" lon="2.41187">
        <ele>55.200000762939</ele>
        <time>2016-07-04T19:54:17.000Z</time>
      </trkpt>
      <trkpt lat="48.89519" lon="2.41153">
        <ele>55.200000762939</ele>
        <time>2016-07-04T19:54:21.000Z</time>
      </trkpt>
      <trkpt lat="48.89521" lon="2.4113">
        <ele>55.200000762939</ele>
        <time>2016-07-04T19:54:24.000Z</time>
      </trkpt>
      <trkpt lat="48.89524" lon="2.41099">
        <ele>55</ele>
        <time>2016-07-04T19:54:28.000Z</time>
      </trkpt>
      <trkpt lat="48.89527" lon="2.41065">
        <ele>55.200000762939</ele>
        <time>2016-07-04T19:54:32.000Z</time>
      </trkpt>
      <trkpt lat="48.89529" lon="2.41031">
        <ele>55.599998474121</ele>
        <time>2016-07-04T19:54:36.000Z</time>
      </trkpt>
      <trkpt lat="48.8953" lon="2.40997">
        <ele>55.799999237061</ele>
        <time>2016-07-04T19:54:40.000Z</time>
      </trkpt>
      <trkpt lat="48.8953" lon="2.40967">
        <ele>55.799999237061</ele>
        <time>2016-07-04T19:54:44.000Z</time>
      </trkpt>
      <trkpt lat="48.89531" lon="2.40939">
        <ele>55.799999237061</ele>
        <time>2016-07-04T19:54:48.000Z</time>
      </trkpt>
      <trkpt lat="48.89533" lon="2.40905">
        <ele>55.799999237061</ele>
        <time>2016-07-04T19:54:52.000Z</time>
      </trkpt>
      <trkpt lat="48.89535" lon="2.40887">
        <ele>55.400001525879</ele>
        <time>2016-07-04T19:54:54.000Z</time>
      </trkpt>
      <trkpt lat="48.89537" lon="2.40853">
        <ele>54.599998474121</ele>
        <time>2016-07-04T19:54:58.000Z</time>
      </trkpt>
      <trkpt lat="48.89541" lon="2.40822">
        <ele>55.200000762939</ele>
        <time>2016-07-04T19:55:02.000Z</time>
      </trkpt>
      <trkpt lat="48.89542" lon="2.40816">
        <ele>55.599998474121</ele>
        <time>2016-07-04T19:55:03.000Z</time>
      </trkpt>
      <trkpt lat="48.89548" lon="2.40784">
        <ele>56.599998474121</ele>
        <time>2016-07-04T19:55:07.000Z</time>
      </trkpt>
      <trkpt lat="48.8955" lon="2.40755">
        <ele>57</ele>
        <time>2016-07-04T19:55:11.000Z</time>
      </trkpt>
      <trkpt lat="48.89552" lon="2.40745">
        <ele>57</ele>
        <time>2016-07-04T19:55:13.000Z</time>
      </trkpt>
      <trkpt lat="48.89557" lon="2.40717">
        <ele>57.200000762939</ele>
        <time>2016-07-04T19:55:19.000Z</time>
      </trkpt>
      <trkpt lat="48.89559" lon="2.40708">
        <ele>57.200000762939</ele>
        <time>2016-07-04T19:55:21.000Z</time>
      </trkpt>
      <trkpt lat="48.8956" lon="2.40685">
        <ele>57.200000762939</ele>
        <time>2016-07-04T19:55:27.000Z</time>
      </trkpt>
      <trkpt lat="48.8956" lon="2.40677">
        <ele>57</ele>
        <time>2016-07-04T19:55:29.000Z</time>
      </trkpt>
      <trkpt lat="48.89561" lon="2.40648">
        <ele>57</ele>
        <time>2016-07-04T19:55:37.000Z</time>
      </trkpt>
      <trkpt lat="48.89561" lon="2.40633">
        <ele>56.799999237061</ele>
        <time>2016-07-04T19:55:41.000Z</time>
      </trkpt>
      <trkpt lat="48.89545" lon="2.40617">
        <ele>56.599998474121</ele>
        <time>2016-07-04T19:55:49.000Z</time>
      </trkpt>
      <trkpt lat="48.89541" lon="2.40612">
        <ele>56.400001525879</ele>
        <time>2016-07-04T19:55:51.000Z</time>
      </trkpt>
      <trkpt lat="48.89539" lon="2.40595">
        <ele>56.400001525879</ele>
        <time>2016-07-04T19:55:55.000Z</time>
      </trkpt>
      <trkpt lat="48.89543" lon="2.40561">
        <ele>55.799999237061</ele>
        <time>2016-07-04T19:56:00.000Z</time>
      </trkpt>
      <trkpt lat="48.89545" lon="2.40543">
        <ele>55.599998474121</ele>
        <time>2016-07-04T19:56:02.000Z</time>
      </trkpt>
      <trkpt lat="48.89551" lon="2.40515">
        <ele>56</ele>
        <time>2016-07-04T19:56:05.000Z</time>
      </trkpt>
      <trkpt lat="48.89552" lon="2.40506">
        <ele>56.599998474121</ele>
        <time>2016-07-04T19:56:06.000Z</time>
      </trkpt>
      <trkpt lat="48.89554" lon="2.40474">
        <ele>57.200000762939</ele>
        <time>2016-07-04T19:56:10.000Z</time>
      </trkpt>
      <trkpt lat="48.89558" lon="2.40442">
        <ele>57.400001525879</ele>
        <time>2016-07-04T19:56:14.000Z</time>
      </trkpt>
      <trkpt lat="48.8956" lon="2.40426">
        <ele>57.400001525879</ele>
        <time>2016-07-04T19:56:16.000Z</time>
      </trkpt>
      <trkpt lat="48.89563" lon="2.40399">
        <ele>58.200000762939</ele>
        <time>2016-07-04T19:56:20.000Z</time>
      </trkpt>
      <trkpt lat="48.89564" lon="2.40385">
        <ele>58.799999237061</ele>
        <time>2016-07-04T19:56:22.000Z</time>
      </trkpt>
      <trkpt lat="48.89565" lon="2.4037">
        <ele>59.400001525879</ele>
        <time>2016-07-04T19:56:24.000Z</time>
      </trkpt>
      <trkpt lat="48.89566" lon="2.40355">
        <ele>59</ele>
        <time>2016-07-04T19:56:26.000Z</time>
      </trkpt>
      <trkpt lat="48.89568" lon="2.40328">
        <ele>58.400001525879</ele>
        <time>2016-07-04T19:56:30.000Z</time>
      </trkpt>
      <trkpt lat="48.89571" lon="2.40295">
        <ele>58.400001525879</ele>
        <time>2016-07-04T19:56:35.000Z</time>
      </trkpt>
      <trkpt lat="48.89573" lon="2.40268">
        <ele>58.799999237061</ele>
        <time>2016-07-04T19:56:39.000Z</time>
      </trkpt>
      <trkpt lat="48.89575" lon="2.40239">
        <ele>59.200000762939</ele>
        <time>2016-07-04T19:56:43.000Z</time>
      </trkpt>
      <trkpt lat="48.89578" lon="2.4021">
        <ele>59</ele>
        <time>2016-07-04T19:56:47.000Z</time>
      </trkpt>
      <trkpt lat="48.89582" lon="2.40188">
        <ele>58</ele>
        <time>2016-07-04T19:56:50.000Z</time>
      </trkpt>
      <trkpt lat="48.89584" lon="2.40157">
        <ele>56.799999237061</ele>
        <time>2016-07-04T19:56:54.000Z</time>
      </trkpt>
      <trkpt lat="48.89585" lon="2.40148">
        <ele>56.599998474121</ele>
        <time>2016-07-04T19:56:55.000Z</time>
      </trkpt>
      <trkpt lat="48.89587" lon="2.4012">
        <ele>56.200000762939</ele>
        <time>2016-07-04T19:56:59.000Z</time>
      </trkpt>
      <trkpt lat="48.89588" lon="2.40114">
        <ele>56</ele>
        <time>2016-07-04T19:57:00.000Z</time>
      </trkpt>
      <trkpt lat="48.89595" lon="2.40083">
        <ele>55.400001525879</ele>
        <time>2016-07-04T19:57:06.000Z</time>
      </trkpt>
      <trkpt lat="48.89593" lon="2.4006">
        <ele>55.599998474121</ele>
        <time>2016-07-04T19:57:10.000Z</time>
      </trkpt>
      <trkpt lat="48.89595" lon="2.40032">
        <ele>56.200000762939</ele>
        <time>2016-07-04T19:57:14.000Z</time>
      </trkpt>
      <trkpt lat="48.89595" lon="2.40005">
        <ele>56.799999237061</ele>
        <time>2016-07-04T19:57:18.000Z</time>
      </trkpt>
      <trkpt lat="48.89593" lon="2.39984">
        <ele>56.599998474121</ele>
        <time>2016-07-04T19:57:21.000Z</time>
      </trkpt>
      <trkpt lat="48.89587" lon="2.39955">
        <ele>55.400001525879</ele>
        <time>2016-07-04T19:57:26.000Z</time>
      </trkpt>
      <trkpt lat="48.89589" lon="2.39927">
        <ele>54.400001525879</ele>
        <time>2016-07-04T19:57:30.000Z</time>
      </trkpt>
      <trkpt lat="48.8959" lon="2.39919">
        <ele>54.200000762939</ele>
        <time>2016-07-04T19:57:31.000Z</time>
      </trkpt>
      <trkpt lat="48.8959" lon="2.39888">
        <ele>53.599998474121</ele>
        <time>2016-07-04T19:57:35.000Z</time>
      </trkpt>
      <trkpt lat="48.89591" lon="2.39856">
        <ele>53.200000762939</ele>
        <time>2016-07-04T19:57:39.000Z</time>
      </trkpt>
      <trkpt lat="48.8959" lon="2.39849">
        <ele>53.200000762939</ele>
        <time>2016-07-04T19:57:40.000Z</time>
      </trkpt>
      <trkpt lat="48.89589" lon="2.39827">
        <ele>52.799999237061</ele>
        <time>2016-07-04T19:57:43.000Z</time>
      </trkpt>
      <trkpt lat="48.89589" lon="2.39794">
        <ele>52.400001525879</ele>
        <time>2016-07-04T19:57:47.000Z</time>
      </trkpt>
      <trkpt lat="48.89592" lon="2.39764">
        <ele>52</ele>
        <time>2016-07-04T19:57:51.000Z</time>
      </trkpt>
      <trkpt lat="48.89591" lon="2.39744">
        <ele>52</ele>
        <time>2016-07-04T19:57:54.000Z</time>
      </trkpt>
      <trkpt lat="48.89591" lon="2.39726">
        <ele>52.400001525879</ele>
        <time>2016-07-04T19:57:57.000Z</time>
      </trkpt>
      <trkpt lat="48.89587" lon="2.39699">
        <ele>52.200000762939</ele>
        <time>2016-07-04T19:58:02.000Z</time>
      </trkpt>
      <trkpt lat="48.89581" lon="2.39673">
        <ele>52</ele>
        <time>2016-07-04T19:58:08.000Z</time>
      </trkpt>
      <trkpt lat="48.89578" lon="2.3967">
        <ele>52</ele>
        <time>2016-07-04T19:58:09.000Z</time>
      </trkpt>
      <trkpt lat="48.89575" lon="2.39671">
        <ele>52.200000762939</ele>
        <time>2016-07-04T19:58:21.000Z</time>
      </trkpt>
      <trkpt lat="48.89579" lon="2.39673">
        <ele>52</ele>
        <time>2016-07-04T19:58:25.000Z</time>
      </trkpt>
      <trkpt lat="48.8958" lon="2.39667">
        <ele>52</ele>
        <time>2016-07-04T19:59:42.000Z</time>
      </trkpt>
      <trkpt lat="48.89578" lon="2.3966">
        <ele>52</ele>
        <time>2016-07-04T20:01:05.000Z</time>
      </trkpt>
      <trkpt lat="48.89573" lon="2.39634">
        <ele>52.599998474121</ele>
        <time>2016-07-04T20:01:11.000Z</time>
      </trkpt>
      <trkpt lat="48.89567" lon="2.39604">
        <ele>53.200000762939</ele>
        <time>2016-07-04T20:01:17.000Z</time>
      </trkpt>
      <trkpt lat="48.89562" lon="2.39573">
        <ele>53.599998474121</ele>
        <time>2016-07-04T20:01:23.000Z</time>
      </trkpt>
      <trkpt lat="48.89559" lon="2.39539">
        <ele>53.799999237061</ele>
        <time>2016-07-04T20:01:28.000Z</time>
      </trkpt>
      <trkpt lat="48.89557" lon="2.39509">
        <ele>54</ele>
        <time>2016-07-04T20:01:33.000Z</time>
      </trkpt>
      <trkpt lat="48.89558" lon="2.39479">
        <ele>53.200000762939</ele>
        <time>2016-07-04T20:01:40.000Z</time>
      </trkpt>
      <trkpt lat="48.8956" lon="2.39447">
        <ele>51.799999237061</ele>
        <time>2016-07-04T20:01:44.000Z</time>
      </trkpt>
      <trkpt lat="48.8955" lon="2.39419">
        <ele>51</ele>
        <time>2016-07-04T20:01:49.000Z</time>
      </trkpt>
      <trkpt lat="48.89544" lon="2.39392">
        <ele>51</ele>
        <time>2016-07-04T20:01:53.000Z</time>
      </trkpt>
      <trkpt lat="48.89529" lon="2.39372">
        <ele>51</ele>
        <time>2016-07-04T20:01:57.000Z</time>
      </trkpt>
      <trkpt lat="48.89527" lon="2.39365">
        <ele>51</ele>
        <time>2016-07-04T20:01:59.000Z</time>
      </trkpt>
      <trkpt lat="48.89515" lon="2.39343">
        <ele>51.200000762939</ele>
        <time>2016-07-04T20:02:05.000Z</time>
      </trkpt>
      <trkpt lat="48.89504" lon="2.39319">
        <ele>51.400001525879</ele>
        <time>2016-07-04T20:02:10.000Z</time>
      </trkpt>
      <trkpt lat="48.89493" lon="2.39291">
        <ele>51.400001525879</ele>
        <time>2016-07-04T20:02:15.000Z</time>
      </trkpt>
      <trkpt lat="48.89483" lon="2.39265">
        <ele>51.799999237061</ele>
        <time>2016-07-04T20:02:19.000Z</time>
      </trkpt>
      <trkpt lat="48.89472" lon="2.39242">
        <ele>52.200000762939</ele>
        <time>2016-07-04T20:02:23.000Z</time>
      </trkpt>
      <trkpt lat="48.89464" lon="2.39226">
        <ele>52.799999237061</ele>
        <time>2016-07-04T20:02:26.000Z</time>
      </trkpt>
      <trkpt lat="48.89453" lon="2.39201">
        <ele>53.799999237061</ele>
        <time>2016-07-04T20:02:31.000Z</time>
      </trkpt>
      <trkpt lat="48.8944" lon="2.39178">
        <ele>54.599998474121</ele>
        <time>2016-07-04T20:02:37.000Z</time>
      </trkpt>
      <trkpt lat="48.89436" lon="2.39172">
        <ele>54.599998474121</ele>
        <time>2016-07-04T20:02:39.000Z</time>
      </trkpt>
      <trkpt lat="48.89425" lon="2.39148">
        <ele>54.599998474121</ele>
        <time>2016-07-04T20:02:45.000Z</time>
      </trkpt>
      <trkpt lat="48.89414" lon="2.39125">
        <ele>54.200000762939</ele>
        <time>2016-07-04T20:02:50.000Z</time>
      </trkpt>
      <trkpt lat="48.89401" lon="2.39098">
        <ele>53.799999237061</ele>
        <time>2016-07-04T20:02:55.000Z</time>
      </trkpt>
      <trkpt lat="48.89388" lon="2.39071">
        <ele>53.400001525879</ele>
        <time>2016-07-04T20:03:00.000Z</time>
      </trkpt>
      <trkpt lat="48.89375" lon="2.39049">
        <ele>53.599998474121</ele>
        <time>2016-07-04T20:03:04.000Z</time>
      </trkpt>
      <trkpt lat="48.89363" lon="2.39025">
        <ele>53.799999237061</ele>
        <time>2016-07-04T20:03:08.000Z</time>
      </trkpt>
      <trkpt lat="48.8935" lon="2.38995">
        <ele>53.799999237061</ele>
        <time>2016-07-04T20:03:12.000Z</time>
      </trkpt>
      <trkpt lat="48.89339" lon="2.3897">
        <ele>53.599998474121</ele>
        <time>2016-07-04T20:03:15.000Z</time>
      </trkpt>
      <trkpt lat="48.89335" lon="2.38963">
        <ele>53.400001525879</ele>
        <time>2016-07-04T20:03:16.000Z</time>
      </trkpt>
      <trkpt lat="48.89322" lon="2.3894">
        <ele>53.200000762939</ele>
        <time>2016-07-04T20:03:19.000Z</time>
      </trkpt>
      <trkpt lat="48.89312" lon="2.38917">
        <ele>53</ele>
        <time>2016-07-04T20:03:22.000Z</time>
      </trkpt>
      <trkpt lat="48.89296" lon="2.38892">
        <ele>52.799999237061</ele>
        <time>2016-07-04T20:03:26.000Z</time>
      </trkpt>
      <trkpt lat="48.89282" lon="2.38866">
        <ele>52.799999237061</ele>
        <time>2016-07-04T20:03:30.000Z</time>
      </trkpt>
      <trkpt lat="48.89269" lon="2.38842">
        <ele>52.799999237061</ele>
        <time>2016-07-04T20:03:34.000Z</time>
      </trkpt>
      <trkpt lat="48.89263" lon="2.38832">
        <ele>52.799999237061</ele>
        <time>2016-07-04T20:03:36.000Z</time>
      </trkpt>
      <trkpt lat="48.8925" lon="2.38812">
        <ele>53.200000762939</ele>
        <time>2016-07-04T20:03:42.000Z</time>
      </trkpt>
      <trkpt lat="48.89248" lon="2.38808">
        <ele>53.200000762939</ele>
        <time>2016-07-04T20:03:43.000Z</time>
      </trkpt>
      <trkpt lat="48.89236" lon="2.38785">
        <ele>53.599998474121</ele>
        <time>2016-07-04T20:03:47.000Z</time>
      </trkpt>
      <trkpt lat="48.89227" lon="2.38767">
        <ele>54</ele>
        <time>2016-07-04T20:03:50.000Z</time>
      </trkpt>
      <trkpt lat="48.89216" lon="2.38741">
        <ele>54.400001525879</ele>
        <time>2016-07-04T20:03:54.000Z</time>
      </trkpt>
      <trkpt lat="48.89206" lon="2.38716">
        <ele>54.200000762939</ele>
        <time>2016-07-04T20:03:58.000Z</time>
      </trkpt>
      <trkpt lat="48.89197" lon="2.38694">
        <ele>54</ele>
        <time>2016-07-04T20:04:06.000Z</time>
      </trkpt>
      <trkpt lat="48.89197" lon="2.38694">
        <ele>54</ele>
        <time>2016-07-04T20:04:07.000Z</time>
      </trkpt>
      <trkpt lat="48.89183" lon="2.38674">
        <ele>54.599998474121</ele>
        <time>2016-07-04T20:04:22.000Z</time>
      </trkpt>
      <trkpt lat="48.89167" lon="2.38657">
        <ele>55.599998474121</ele>
        <time>2016-07-04T20:04:30.000Z</time>
      </trkpt>
      <trkpt lat="48.89157" lon="2.38631">
        <ele>56</ele>
        <time>2016-07-04T20:04:36.000Z</time>
      </trkpt>
      <trkpt lat="48.89144" lon="2.38607">
        <ele>57</ele>
        <time>2016-07-04T20:04:41.000Z</time>
      </trkpt>
      <trkpt lat="48.89133" lon="2.38584">
        <ele>58</ele>
        <time>2016-07-04T20:04:46.000Z</time>
      </trkpt>
      <trkpt lat="48.89123" lon="2.38561">
        <ele>57.599998474121</ele>
        <time>2016-07-04T20:04:51.000Z</time>
      </trkpt>
      <trkpt lat="48.8911" lon="2.38536">
        <ele>57.200000762939</ele>
        <time>2016-07-04T20:04:56.000Z</time>
      </trkpt>
      <trkpt lat="48.89099" lon="2.3851">
        <ele>56.599998474121</ele>
        <time>2016-07-04T20:05:01.000Z</time>
      </trkpt>
      <trkpt lat="48.89089" lon="2.38488">
        <ele>56.200000762939</ele>
        <time>2016-07-04T20:05:05.000Z</time>
      </trkpt>
      <trkpt lat="48.89073" lon="2.38462">
        <ele>56.400001525879</ele>
        <time>2016-07-04T20:05:10.000Z</time>
      </trkpt>
      <trkpt lat="48.89062" lon="2.38441">
        <ele>56.400001525879</ele>
        <time>2016-07-04T20:05:14.000Z</time>
      </trkpt>
      <trkpt lat="48.8905" lon="2.38416">
        <ele>56.400001525879</ele>
        <time>2016-07-04T20:05:18.000Z</time>
      </trkpt>
      <trkpt lat="48.89037" lon="2.38391">
        <ele>57</ele>
        <time>2016-07-04T20:05:22.000Z</time>
      </trkpt>
      <trkpt lat="48.89023" lon="2.38366">
        <ele>57.599998474121</ele>
        <time>2016-07-04T20:05:26.000Z</time>
      </trkpt>
      <trkpt lat="48.89009" lon="2.38338">
        <ele>58.799999237061</ele>
        <time>2016-07-04T20:05:30.000Z</time>
      </trkpt>
      <trkpt lat="48.88997" lon="2.38313">
        <ele>59.400001525879</ele>
        <time>2016-07-04T20:05:34.000Z</time>
      </trkpt>
      <trkpt lat="48.88984" lon="2.38287">
        <ele>59.799999237061</ele>
        <time>2016-07-04T20:05:38.000Z</time>
      </trkpt>
      <trkpt lat="48.88971" lon="2.38262">
        <ele>60.400001525879</ele>
        <time>2016-07-04T20:05:42.000Z</time>
      </trkpt>
      <trkpt lat="48.88957" lon="2.38237">
        <ele>61</ele>
        <time>2016-07-04T20:05:46.000Z</time>
      </trkpt>
      <trkpt lat="48.88946" lon="2.38211">
        <ele>60.799999237061</ele>
        <time>2016-07-04T20:05:50.000Z</time>
      </trkpt>
      <trkpt lat="48.88936" lon="2.38185">
        <ele>60.599998474121</ele>
        <time>2016-07-04T20:05:54.000Z</time>
      </trkpt>
      <trkpt lat="48.88928" lon="2.38166">
        <ele>60.200000762939</ele>
        <time>2016-07-04T20:05:57.000Z</time>
      </trkpt>
      <trkpt lat="48.88916" lon="2.3814">
        <ele>59.599998474121</ele>
        <time>2016-07-04T20:06:01.000Z</time>
      </trkpt>
      <trkpt lat="48.88902" lon="2.38118">
        <ele>59.200000762939</ele>
        <time>2016-07-04T20:06:05.000Z</time>
      </trkpt>
      <trkpt lat="48.88899" lon="2.38112">
        <ele>59</ele>
        <time>2016-07-04T20:06:06.000Z</time>
      </trkpt>
      <trkpt lat="48.88885" lon="2.38088">
        <ele>58.200000762939</ele>
        <time>2016-07-04T20:06:10.000Z</time>
      </trkpt>
      <trkpt lat="48.88873" lon="2.38064">
        <ele>57.400001525879</ele>
        <time>2016-07-04T20:06:14.000Z</time>
      </trkpt>
      <trkpt lat="48.88866" lon="2.38045">
        <ele>56.400001525879</ele>
        <time>2016-07-04T20:06:17.000Z</time>
      </trkpt>
      <trkpt lat="48.88854" lon="2.38018">
        <ele>55.400001525879</ele>
        <time>2016-07-04T20:06:22.000Z</time>
      </trkpt>
      <trkpt lat="48.88846" lon="2.37996">
        <ele>54.400001525879</ele>
        <time>2016-07-04T20:06:26.000Z</time>
      </trkpt>
      <trkpt lat="48.8884" lon="2.37983">
        <ele>54.400001525879</ele>
        <time>2016-07-04T20:06:29.000Z</time>
      </trkpt>
      <trkpt lat="48.88827" lon="2.37962">
        <ele>54.599998474121</ele>
        <time>2016-07-04T20:06:41.000Z</time>
      </trkpt>
      <trkpt lat="48.88837" lon="2.37954">
        <ele>54.200000762939</ele>
        <time>2016-07-04T20:07:51.000Z</time>
      </trkpt>
      <trkpt lat="48.8884" lon="2.37948">
        <ele>54</ele>
        <time>2016-07-04T20:08:49.000Z</time>
      </trkpt>
      <trkpt lat="48.8885" lon="2.37929">
        <ele>53.400001525879</ele>
        <time>2016-07-04T20:09:05.000Z</time>
      </trkpt>
      <trkpt lat="48.88864" lon="2.37909">
        <ele>53.400001525879</ele>
        <time>2016-07-04T20:09:17.000Z</time>
      </trkpt>
      <trkpt lat="48.88867" lon="2.37903">
        <ele>53.799999237061</ele>
        <time>2016-07-04T20:09:19.000Z</time>
      </trkpt>
      <trkpt lat="48.88863" lon="2.3787">
        <ele>54.400001525879</ele>
        <time>2016-07-04T20:09:26.000Z</time>
      </trkpt>
      <trkpt lat="48.88851" lon="2.37843">
        <ele>54.799999237061</ele>
        <time>2016-07-04T20:09:31.000Z</time>
      </trkpt>
      <trkpt lat="48.88846" lon="2.37831">
        <ele>55</ele>
        <time>2016-07-04T20:09:33.000Z</time>
      </trkpt>
      <trkpt lat="48.88835" lon="2.37806">
        <ele>55.200000762939</ele>
        <time>2016-07-04T20:09:38.000Z</time>
      </trkpt>
      <trkpt lat="48.88823" lon="2.37781">
        <ele>55.200000762939</ele>
        <time>2016-07-04T20:09:43.000Z</time>
      </trkpt>
      <trkpt lat="48.88811" lon="2.37759">
        <ele>55.200000762939</ele>
        <time>2016-07-04T20:09:47.000Z</time>
      </trkpt>
      <trkpt lat="48.88796" lon="2.37735">
        <ele>56</ele>
        <time>2016-07-04T20:09:52.000Z</time>
      </trkpt>
      <trkpt lat="48.88782" lon="2.3771">
        <ele>57.200000762939</ele>
        <time>2016-07-04T20:09:57.000Z</time>
      </trkpt>
      <trkpt lat="48.88767" lon="2.37685">
        <ele>58.200000762939</ele>
        <time>2016-07-04T20:10:02.000Z</time>
      </trkpt>
      <trkpt lat="48.88763" lon="2.37674">
        <ele>58.599998474121</ele>
        <time>2016-07-04T20:10:04.000Z</time>
      </trkpt>
      <trkpt lat="48.88751" lon="2.37646">
        <ele>58.799999237061</ele>
        <time>2016-07-04T20:10:09.000Z</time>
      </trkpt>
      <trkpt lat="48.8874" lon="2.37618">
        <ele>58.400001525879</ele>
        <time>2016-07-04T20:10:13.000Z</time>
      </trkpt>
      <trkpt lat="48.88727" lon="2.37592">
        <ele>58.200000762939</ele>
        <time>2016-07-04T20:10:17.000Z</time>
      </trkpt>
      <trkpt lat="48.88717" lon="2.37567">
        <ele>57.599998474121</ele>
        <time>2016-07-04T20:10:21.000Z</time>
      </trkpt>
      <trkpt lat="48.88706" lon="2.37545">
        <ele>57.200000762939</ele>
        <time>2016-07-04T20:10:25.000Z</time>
      </trkpt>
      <trkpt lat="48.88696" lon="2.37526">
        <ele>56.599998474121</ele>
        <time>2016-07-04T20:10:28.000Z</time>
      </trkpt>
      <trkpt lat="48.88685" lon="2.37502">
        <ele>55.799999237061</ele>
        <time>2016-07-04T20:10:32.000Z</time>
      </trkpt>
      <trkpt lat="48.88671" lon="2.37476">
        <ele>55.200000762939</ele>
        <time>2016-07-04T20:10:37.000Z</time>
      </trkpt>
      <trkpt lat="48.8866" lon="2.3745">
        <ele>54.799999237061</ele>
        <time>2016-07-04T20:10:42.000Z</time>
      </trkpt>
      <trkpt lat="48.88655" lon="2.37442">
        <ele>54.599998474121</ele>
        <time>2016-07-04T20:10:44.000Z</time>
      </trkpt>
      <trkpt lat="48.88642" lon="2.37415">
        <ele>53.799999237061</ele>
        <time>2016-07-04T20:10:49.000Z</time>
      </trkpt>
      <trkpt lat="48.8863" lon="2.3739">
        <ele>54.799999237061</ele>
        <time>2016-07-04T20:10:53.000Z</time>
      </trkpt>
      <trkpt lat="48.88616" lon="2.37368">
        <ele>55.400001525879</ele>
        <time>2016-07-04T20:10:57.000Z</time>
      </trkpt>
      <trkpt lat="48.88603" lon="2.37345">
        <ele>56.400001525879</ele>
        <time>2016-07-04T20:11:01.000Z</time>
      </trkpt>
      <trkpt lat="48.8859" lon="2.37321">
        <ele>57</ele>
        <time>2016-07-04T20:11:05.000Z</time>
      </trkpt>
      <trkpt lat="48.88576" lon="2.37297">
        <ele>57.200000762939</ele>
        <time>2016-07-04T20:11:09.000Z</time>
      </trkpt>
      <trkpt lat="48.88573" lon="2.37291">
        <ele>57.200000762939</ele>
        <time>2016-07-04T20:11:10.000Z</time>
      </trkpt>
      <trkpt lat="48.88558" lon="2.37266">
        <ele>57.400001525879</ele>
        <time>2016-07-04T20:11:14.000Z</time>
      </trkpt>
      <trkpt lat="48.88551" lon="2.37253">
        <ele>57.599998474121</ele>
        <time>2016-07-04T20:11:16.000Z</time>
      </trkpt>
      <trkpt lat="48.88538" lon="2.37228">
        <ele>58.400001525879</ele>
        <time>2016-07-04T20:11:20.000Z</time>
      </trkpt>
      <trkpt lat="48.88533" lon="2.37218">
        <ele>58.599998474121</ele>
        <time>2016-07-04T20:11:22.000Z</time>
      </trkpt>
      <trkpt lat="48.88523" lon="2.37195">
        <ele>59.400001525879</ele>
        <time>2016-07-04T20:11:26.000Z</time>
      </trkpt>
      <trkpt lat="48.8851" lon="2.37168">
        <ele>59.599998474121</ele>
        <time>2016-07-04T20:11:30.000Z</time>
      </trkpt>
      <trkpt lat="48.88498" lon="2.37142">
        <ele>58.799999237061</ele>
        <time>2016-07-04T20:11:34.000Z</time>
      </trkpt>
      <trkpt lat="48.88486" lon="2.37118">
        <ele>57.599998474121</ele>
        <time>2016-07-04T20:11:38.000Z</time>
      </trkpt>
      <trkpt lat="48.88475" lon="2.37092">
        <ele>56.400001525879</ele>
        <time>2016-07-04T20:11:42.000Z</time>
      </trkpt>
      <trkpt lat="48.88463" lon="2.37067">
        <ele>55.599998474121</ele>
        <time>2016-07-04T20:11:46.000Z</time>
      </trkpt>
      <trkpt lat="48.8845" lon="2.37043">
        <ele>55</ele>
        <time>2016-07-04T20:11:50.000Z</time>
      </trkpt>
      <trkpt lat="48.88438" lon="2.37021">
        <ele>54.599998474121</ele>
        <time>2016-07-04T20:11:54.000Z</time>
      </trkpt>
      <trkpt lat="48.88431" lon="2.36998">
        <ele>54.599998474121</ele>
        <time>2016-07-04T20:11:57.000Z</time>
      </trkpt>
      <trkpt lat="48.88432" lon="2.36967">
        <ele>54.799999237061</ele>
        <time>2016-07-04T20:12:00.000Z</time>
      </trkpt>
      <trkpt lat="48.88434" lon="2.36958">
        <ele>54.599998474121</ele>
        <time>2016-07-04T20:12:01.000Z</time>
      </trkpt>
      <trkpt lat="48.8843" lon="2.3693">
        <ele>54.200000762939</ele>
        <time>2016-07-04T20:12:07.000Z</time>
      </trkpt>
      <trkpt lat="48.88429" lon="2.36924">
        <ele>54.200000762939</ele>
        <time>2016-07-04T20:12:09.000Z</time>
      </trkpt>
      <trkpt lat="48.88426" lon="2.36909">
        <ele>54.400001525879</ele>
        <time>2016-07-04T20:13:04.000Z</time>
      </trkpt>
      <trkpt lat="48.88417" lon="2.36883">
        <ele>56.200000762939</ele>
        <time>2016-07-04T20:13:37.000Z</time>
      </trkpt>
      <trkpt lat="48.88408" lon="2.36859">
        <ele>58</ele>
        <time>2016-07-04T20:13:56.000Z</time>
      </trkpt>
      <trkpt lat="48.88403" lon="2.36851">
        <ele>58.599998474121</ele>
        <time>2016-07-04T20:14:01.000Z</time>
      </trkpt>
      <trkpt lat="48.88399" lon="2.36851">
        <ele>58.599998474121</ele>
        <time>2016-07-04T20:14:06.000Z</time>
      </trkpt>
      <trkpt lat="48.88389" lon="2.36852">
        <ele>58.400001525879</ele>
        <time>2016-07-04T20:14:15.000Z</time>
      </trkpt>
      <trkpt lat="48.88376" lon="2.36842">
        <ele>59.200000762939</ele>
        <time>2016-07-04T20:14:20.000Z</time>
      </trkpt>
      <trkpt lat="48.88359" lon="2.36822">
        <ele>59.799999237061</ele>
        <time>2016-07-04T20:14:26.000Z</time>
      </trkpt>
      <trkpt lat="48.88344" lon="2.36801">
        <ele>59.799999237061</ele>
        <time>2016-07-04T20:14:31.000Z</time>
      </trkpt>
      <trkpt lat="48.88326" lon="2.36779">
        <ele>59.799999237061</ele>
        <time>2016-07-04T20:14:36.000Z</time>
      </trkpt>
      <trkpt lat="48.8831" lon="2.36759">
        <ele>59.599998474121</ele>
        <time>2016-07-04T20:14:40.000Z</time>
      </trkpt>
      <trkpt lat="48.88294" lon="2.36741">
        <ele>59.400001525879</ele>
        <time>2016-07-04T20:14:44.000Z</time>
      </trkpt>
      <trkpt lat="48.88275" lon="2.36718">
        <ele>59</ele>
        <time>2016-07-04T20:14:48.000Z</time>
      </trkpt>
      <trkpt lat="48.8826" lon="2.367">
        <ele>58.599998474121</ele>
        <time>2016-07-04T20:14:51.000Z</time>
      </trkpt>
      <trkpt lat="48.88243" lon="2.36676">
        <ele>58.200000762939</ele>
        <time>2016-07-04T20:14:55.000Z</time>
      </trkpt>
      <trkpt lat="48.88226" lon="2.36653">
        <ele>58</ele>
        <time>2016-07-04T20:14:59.000Z</time>
      </trkpt>
      <trkpt lat="48.88211" lon="2.36629">
        <ele>58</ele>
        <time>2016-07-04T20:15:03.000Z</time>
      </trkpt>
      <trkpt lat="48.88195" lon="2.36608">
        <ele>58.200000762939</ele>
        <time>2016-07-04T20:15:07.000Z</time>
      </trkpt>
      <trkpt lat="48.88177" lon="2.36591">
        <ele>58.200000762939</ele>
        <time>2016-07-04T20:15:11.000Z</time>
      </trkpt>
      <trkpt lat="48.88168" lon="2.36582">
        <ele>58.200000762939</ele>
        <time>2016-07-04T20:15:13.000Z</time>
      </trkpt>
      <trkpt lat="48.8816" lon="2.3656">
        <ele>58.400001525879</ele>
        <time>2016-07-04T20:15:17.000Z</time>
      </trkpt>
      <trkpt lat="48.88158" lon="2.36554">
        <ele>58.400001525879</ele>
        <time>2016-07-04T20:15:19.000Z</time>
      </trkpt>
      <trkpt lat="48.88156" lon="2.36552">
        <ele>58.400001525879</ele>
        <time>2016-07-04T20:15:21.000Z</time>
      </trkpt>
      <trkpt lat="48.88148" lon="2.36543">
        <ele>58.400001525879</ele>
        <time>2016-07-04T20:15:30.000Z</time>
      </trkpt>
      <trkpt lat="48.88134" lon="2.36532">
        <ele>58.599998474121</ele>
        <time>2016-07-04T20:15:36.000Z</time>
      </trkpt>
      <trkpt lat="48.88119" lon="2.36516">
        <ele>58.799999237061</ele>
        <time>2016-07-04T20:15:42.000Z</time>
      </trkpt>
      <trkpt lat="48.88103" lon="2.36497">
        <ele>58.799999237061</ele>
        <time>2016-07-04T20:15:47.000Z</time>
      </trkpt>
      <trkpt lat="48.88088" lon="2.36477">
        <ele>58.200000762939</ele>
        <time>2016-07-04T20:15:51.000Z</time>
      </trkpt>
      <trkpt lat="48.88073" lon="2.36456">
        <ele>57.400001525879</ele>
        <time>2016-07-04T20:15:55.000Z</time>
      </trkpt>
      <trkpt lat="48.88058" lon="2.36435">
        <ele>56.599998474121</ele>
        <time>2016-07-04T20:15:59.000Z</time>
      </trkpt>
      <trkpt lat="48.88042" lon="2.36413">
        <ele>56</ele>
        <time>2016-07-04T20:16:03.000Z</time>
      </trkpt>
      <trkpt lat="48.88026" lon="2.36391">
        <ele>55.599998474121</ele>
        <time>2016-07-04T20:16:07.000Z</time>
      </trkpt>
      <trkpt lat="48.88008" lon="2.36368">
        <ele>56.200000762939</ele>
        <time>2016-07-04T20:16:11.000Z</time>
      </trkpt>
      <trkpt lat="48.87988" lon="2.36348">
        <ele>57</ele>
        <time>2016-07-04T20:16:15.000Z</time>
      </trkpt>
      <trkpt lat="48.87974" lon="2.3633">
        <ele>57.599998474121</ele>
        <time>2016-07-04T20:16:18.000Z</time>
      </trkpt>
      <trkpt lat="48.87956" lon="2.3631">
        <ele>57.799999237061</ele>
        <time>2016-07-04T20:16:22.000Z</time>
      </trkpt>
      <trkpt lat="48.87952" lon="2.36307">
        <ele>57.799999237061</ele>
        <time>2016-07-04T20:16:23.000Z</time>
      </trkpt>
      <trkpt lat="48.87936" lon="2.36292">
        <ele>57.799999237061</ele>
        <time>2016-07-04T20:16:27.000Z</time>
      </trkpt>
      <trkpt lat="48.87921" lon="2.36273">
        <ele>56.799999237061</ele>
        <time>2016-07-04T20:16:31.000Z</time>
      </trkpt>
      <trkpt lat="48.87905" lon="2.36256">
        <ele>56</ele>
        <time>2016-07-04T20:16:35.000Z</time>
      </trkpt>
      <trkpt lat="48.87887" lon="2.36236">
        <ele>54.200000762939</ele>
        <time>2016-07-04T20:16:39.000Z</time>
      </trkpt>
      <trkpt lat="48.87881" lon="2.36232">
        <ele>53.599998474121</ele>
        <time>2016-07-04T20:16:40.000Z</time>
      </trkpt>
      <trkpt lat="48.87859" lon="2.36217">
        <ele>51.200000762939</ele>
        <time>2016-07-04T20:16:44.000Z</time>
      </trkpt>
      <trkpt lat="48.87838" lon="2.36204">
        <ele>51.200000762939</ele>
        <time>2016-07-04T20:16:47.000Z</time>
      </trkpt>
      <trkpt lat="48.87818" lon="2.36191">
        <ele>51.400001525879</ele>
        <time>2016-07-04T20:16:50.000Z</time>
      </trkpt>
      <trkpt lat="48.87799" lon="2.36178">
        <ele>51.599998474121</ele>
        <time>2016-07-04T20:16:53.000Z</time>
      </trkpt>
      <trkpt lat="48.87781" lon="2.36164">
        <ele>51.599998474121</ele>
        <time>2016-07-04T20:16:56.000Z</time>
      </trkpt>
      <trkpt lat="48.87762" lon="2.36149">
        <ele>52.200000762939</ele>
        <time>2016-07-04T20:16:59.000Z</time>
      </trkpt>
      <trkpt lat="48.87741" lon="2.36135">
        <ele>53.200000762939</ele>
        <time>2016-07-04T20:17:02.000Z</time>
      </trkpt>
      <trkpt lat="48.87719" lon="2.36121">
        <ele>54.400001525879</ele>
        <time>2016-07-04T20:17:05.000Z</time>
      </trkpt>
      <trkpt lat="48.87699" lon="2.36107">
        <ele>55.400001525879</ele>
        <time>2016-07-04T20:17:08.000Z</time>
      </trkpt>
      <trkpt lat="48.87679" lon="2.36095">
        <ele>55.200000762939</ele>
        <time>2016-07-04T20:17:11.000Z</time>
      </trkpt>
      <trkpt lat="48.87656" lon="2.36084">
        <ele>54</ele>
        <time>2016-07-04T20:17:14.000Z</time>
      </trkpt>
      <trkpt lat="48.87638" lon="2.36072">
        <ele>53.200000762939</ele>
        <time>2016-07-04T20:17:17.000Z</time>
      </trkpt>
      <trkpt lat="48.87621" lon="2.36062">
        <ele>52.599998474121</ele>
        <time>2016-07-04T20:17:20.000Z</time>
      </trkpt>
      <trkpt lat="48.87606" lon="2.36044">
        <ele>52</ele>
        <time>2016-07-04T20:17:23.000Z</time>
      </trkpt>
      <trkpt lat="48.87595" lon="2.36029">
        <ele>51</ele>
        <time>2016-07-04T20:17:26.000Z</time>
      </trkpt>
      <trkpt lat="48.87585" lon="2.36011">
        <ele>50.200000762939</ele>
        <time>2016-07-04T20:17:30.000Z</time>
      </trkpt>
      <trkpt lat="48.87569" lon="2.35993">
        <ele>49</ele>
        <time>2016-07-04T20:17:49.000Z</time>
      </trkpt>
      <trkpt lat="48.87553" lon="2.35972">
        <ele>47.799999237061</ele>
        <time>2016-07-04T20:17:53.000Z</time>
      </trkpt>
      <trkpt lat="48.8755" lon="2.35965">
        <ele>47.599998474121</ele>
        <time>2016-07-04T20:17:54.000Z</time>
      </trkpt>
      <trkpt lat="48.87537" lon="2.3594">
        <ele>46.799999237061</ele>
        <time>2016-07-04T20:17:58.000Z</time>
      </trkpt>
      <trkpt lat="48.8753" lon="2.35928">
        <ele>46.400001525879</ele>
        <time>2016-07-04T20:18:00.000Z</time>
      </trkpt>
      <trkpt lat="48.87516" lon="2.35911">
        <ele>46.200000762939</ele>
        <time>2016-07-04T20:18:03.000Z</time>
      </trkpt>
      <trkpt lat="48.8751" lon="2.35906">
        <ele>46.400001525879</ele>
        <time>2016-07-04T20:18:04.000Z</time>
      </trkpt>
      <trkpt lat="48.87505" lon="2.35902">
        <ele>46.599998474121</ele>
        <time>2016-07-04T20:18:05.000Z</time>
      </trkpt>
      <trkpt lat="48.87488" lon="2.35889">
        <ele>47.400001525879</ele>
        <time>2016-07-04T20:18:08.000Z</time>
      </trkpt>
      <trkpt lat="48.87476" lon="2.3588">
        <ele>47.799999237061</ele>
        <time>2016-07-04T20:18:10.000Z</time>
      </trkpt>
      <trkpt lat="48.87457" lon="2.35866">
        <ele>48.599998474121</ele>
        <time>2016-07-04T20:18:13.000Z</time>
      </trkpt>
      <trkpt lat="48.87439" lon="2.35854">
        <ele>49.200000762939</ele>
        <time>2016-07-04T20:18:16.000Z</time>
      </trkpt>
      <trkpt lat="48.87421" lon="2.35845">
        <ele>49</ele>
        <time>2016-07-04T20:18:19.000Z</time>
      </trkpt>
      <trkpt lat="48.87402" lon="2.35831">
        <ele>49</ele>
        <time>2016-07-04T20:18:23.000Z</time>
      </trkpt>
      <trkpt lat="48.87397" lon="2.35831">
        <ele>49</ele>
        <time>2016-07-04T20:18:24.000Z</time>
      </trkpt>
      <trkpt lat="48.87379" lon="2.35838">
        <ele>48.400001525879</ele>
        <time>2016-07-04T20:18:30.000Z</time>
      </trkpt>
      <trkpt lat="48.87378" lon="2.35838">
        <ele>48.200000762939</ele>
        <time>2016-07-04T20:18:31.000Z</time>
      </trkpt>
      <trkpt lat="48.87373" lon="2.35837">
        <ele>48.200000762939</ele>
        <time>2016-07-04T20:18:33.000Z</time>
      </trkpt>
      <trkpt lat="48.87352" lon="2.35826">
        <ele>48</ele>
        <time>2016-07-04T20:18:37.000Z</time>
      </trkpt>
      <trkpt lat="48.87335" lon="2.35817">
        <ele>47.599998474121</ele>
        <time>2016-07-04T20:18:40.000Z</time>
      </trkpt>
      <trkpt lat="48.87313" lon="2.35809">
        <ele>46.799999237061</ele>
        <time>2016-07-04T20:18:44.000Z</time>
      </trkpt>
      <trkpt lat="48.87294" lon="2.35801">
        <ele>46</ele>
        <time>2016-07-04T20:18:48.000Z</time>
      </trkpt>
      <trkpt lat="48.87272" lon="2.35789">
        <ele>45.599998474121</ele>
        <time>2016-07-04T20:18:52.000Z</time>
      </trkpt>
      <trkpt lat="48.87254" lon="2.35776">
        <ele>46.799999237061</ele>
        <time>2016-07-04T20:18:55.000Z</time>
      </trkpt>
      <trkpt lat="48.87235" lon="2.35764">
        <ele>48</ele>
        <time>2016-07-04T20:18:58.000Z</time>
      </trkpt>
      <trkpt lat="48.87216" lon="2.35748">
        <ele>49.400001525879</ele>
        <time>2016-07-04T20:19:01.000Z</time>
      </trkpt>
      <trkpt lat="48.87195" lon="2.35732">
        <ele>49.599998474121</ele>
        <time>2016-07-04T20:19:05.000Z</time>
      </trkpt>
      <trkpt lat="48.87168" lon="2.35722">
        <ele>49.200000762939</ele>
        <time>2016-07-04T20:19:08.000Z</time>
      </trkpt>
      <trkpt lat="48.87149" lon="2.35709">
        <ele>48.599998474121</ele>
        <time>2016-07-04T20:19:10.000Z</time>
      </trkpt>
      <trkpt lat="48.87124" lon="2.35702">
        <ele>47.400001525879</ele>
        <time>2016-07-04T20:19:13.000Z</time>
      </trkpt>
      <trkpt lat="48.87105" lon="2.35688">
        <ele>46.799999237061</ele>
        <time>2016-07-04T20:19:15.000Z</time>
      </trkpt>
      <trkpt lat="48.87083" lon="2.35675">
        <ele>47.400001525879</ele>
        <time>2016-07-04T20:19:18.000Z</time>
      </trkpt>
      <trkpt lat="48.87064" lon="2.35659">
        <ele>48</ele>
        <time>2016-07-04T20:19:21.000Z</time>
      </trkpt>
      <trkpt lat="48.87048" lon="2.35646">
        <ele>48.400001525879</ele>
        <time>2016-07-04T20:19:24.000Z</time>
      </trkpt>
      <trkpt lat="48.87026" lon="2.35631">
        <ele>49</ele>
        <time>2016-07-04T20:19:28.000Z</time>
      </trkpt>
      <trkpt lat="48.87005" lon="2.35619">
        <ele>49</ele>
        <time>2016-07-04T20:19:32.000Z</time>
      </trkpt>
      <trkpt lat="48.86988" lon="2.35609">
        <ele>49</ele>
        <time>2016-07-04T20:19:36.000Z</time>
      </trkpt>
      <trkpt lat="48.86974" lon="2.35605">
        <ele>49</ele>
        <time>2016-07-04T20:19:39.000Z</time>
      </trkpt>
      <trkpt lat="48.86954" lon="2.35596">
        <ele>49</ele>
        <time>2016-07-04T20:19:43.000Z</time>
      </trkpt>
      <trkpt lat="48.86947" lon="2.3559">
        <ele>49</ele>
        <time>2016-07-04T20:19:44.000Z</time>
      </trkpt>
      <trkpt lat="48.86928" lon="2.35581">
        <ele>48.799999237061</ele>
        <time>2016-07-04T20:19:50.000Z</time>
      </trkpt>
      <trkpt lat="48.86921" lon="2.35562">
        <ele>48.799999237061</ele>
        <time>2016-07-04T20:19:57.000Z</time>
      </trkpt>
      <trkpt lat="48.86922" lon="2.35558">
        <ele>48.799999237061</ele>
        <time>2016-07-04T20:19:58.000Z</time>
      </trkpt>
      <trkpt lat="48.86908" lon="2.35545">
        <ele>48.599998474121</ele>
        <time>2016-07-04T20:20:16.000Z</time>
      </trkpt>
      <trkpt lat="48.86915" lon="2.35544">
        <ele>48.799999237061</ele>
        <time>2016-07-04T20:20:32.000Z</time>
      </trkpt>
      <trkpt lat="48.86919" lon="2.35546">
        <ele>49</ele>
        <time>2016-07-04T20:20:39.000Z</time>
      </trkpt>
      <trkpt lat="48.86933" lon="2.35551">
        <ele>49.200000762939</ele>
        <time>2016-07-04T20:21:36.000Z</time>
      </trkpt>
      <trkpt lat="48.86928" lon="2.35552">
        <ele>49</ele>
        <time>2016-07-04T20:21:38.000Z</time>
      </trkpt>
      <trkpt lat="48.86906" lon="2.35542">
        <ele>48.599998474121</ele>
        <time>2016-07-04T20:21:44.000Z</time>
      </trkpt>
      <trkpt lat="48.86899" lon="2.35536">
        <ele>48.599998474121</ele>
        <time>2016-07-04T20:21:45.000Z</time>
      </trkpt>
      <trkpt lat="48.86881" lon="2.35524">
        <ele>48.200000762939</ele>
        <time>2016-07-04T20:21:48.000Z</time>
      </trkpt>
      <trkpt lat="48.86859" lon="2.35513">
        <ele>47.799999237061</ele>
        <time>2016-07-04T20:21:51.000Z</time>
      </trkpt>
      <trkpt lat="48.86837" lon="2.35502">
        <ele>46</ele>
        <time>2016-07-04T20:21:54.000Z</time>
      </trkpt>
      <trkpt lat="48.86814" lon="2.35491">
        <ele>44.400001525879</ele>
        <time>2016-07-04T20:21:57.000Z</time>
      </trkpt>
      <trkpt lat="48.8679" lon="2.35478">
        <ele>42.799999237061</ele>
        <time>2016-07-04T20:22:00.000Z</time>
      </trkpt>
      <trkpt lat="48.86766" lon="2.35463">
        <ele>42.200000762939</ele>
        <time>2016-07-04T20:22:03.000Z</time>
      </trkpt>
      <trkpt lat="48.86743" lon="2.35448">
        <ele>43.400001525879</ele>
        <time>2016-07-04T20:22:06.000Z</time>
      </trkpt>
      <trkpt lat="48.8672" lon="2.35433">
        <ele>44.400001525879</ele>
        <time>2016-07-04T20:22:09.000Z</time>
      </trkpt>
      <trkpt lat="48.86697" lon="2.35419">
        <ele>45.599998474121</ele>
        <time>2016-07-04T20:22:12.000Z</time>
      </trkpt>
      <trkpt lat="48.86674" lon="2.35407">
        <ele>46.400001525879</ele>
        <time>2016-07-04T20:22:15.000Z</time>
      </trkpt>
      <trkpt lat="48.8665" lon="2.35397">
        <ele>47</ele>
        <time>2016-07-04T20:22:18.000Z</time>
      </trkpt>
      <trkpt lat="48.86631" lon="2.35383">
        <ele>47.400001525879</ele>
        <time>2016-07-04T20:22:21.000Z</time>
      </trkpt>
      <trkpt lat="48.86626" lon="2.35379">
        <ele>47.599998474121</ele>
        <time>2016-07-04T20:22:22.000Z</time>
      </trkpt>
      <trkpt lat="48.86618" lon="2.35373">
        <ele>47.799999237061</ele>
        <time>2016-07-04T20:22:25.000Z</time>
      </trkpt>
      <trkpt lat="48.8661" lon="2.35403">
        <ele>48</ele>
        <time>2016-07-04T20:22:50.000Z</time>
      </trkpt>
      <trkpt lat="48.866" lon="2.35389">
        <ele>47.799999237061</ele>
        <time>2016-07-04T20:23:11.000Z</time>
      </trkpt>
      <trkpt lat="48.86581" lon="2.35378">
        <ele>47.200000762939</ele>
        <time>2016-07-04T20:23:18.000Z</time>
      </trkpt>
      <trkpt lat="48.86563" lon="2.35375">
        <ele>46.599998474121</ele>
        <time>2016-07-04T20:23:23.000Z</time>
      </trkpt>
      <trkpt lat="48.86546" lon="2.35358">
        <ele>46</ele>
        <time>2016-07-04T20:23:28.000Z</time>
      </trkpt>
      <trkpt lat="48.86528" lon="2.35344">
        <ele>45.599998474121</ele>
        <time>2016-07-04T20:23:33.000Z</time>
      </trkpt>
      <trkpt lat="48.86506" lon="2.35339">
        <ele>45.400001525879</ele>
        <time>2016-07-04T20:23:38.000Z</time>
      </trkpt>
      <trkpt lat="48.86489" lon="2.35326">
        <ele>45.200000762939</ele>
        <time>2016-07-04T20:23:42.000Z</time>
      </trkpt>
      <trkpt lat="48.86468" lon="2.35317">
        <ele>45.400001525879</ele>
        <time>2016-07-04T20:23:46.000Z</time>
      </trkpt>
      <trkpt lat="48.86445" lon="2.35313">
        <ele>45.400001525879</ele>
        <time>2016-07-04T20:23:50.000Z</time>
      </trkpt>
      <trkpt lat="48.86428" lon="2.35306">
        <ele>45.400001525879</ele>
        <time>2016-07-04T20:23:53.000Z</time>
      </trkpt>
      <trkpt lat="48.86409" lon="2.35298">
        <ele>45.400001525879</ele>
        <time>2016-07-04T20:23:56.000Z</time>
      </trkpt>
      <trkpt lat="48.86388" lon="2.35285">
        <ele>45.400001525879</ele>
        <time>2016-07-04T20:24:00.000Z</time>
      </trkpt>
      <trkpt lat="48.86366" lon="2.35272">
        <ele>45.599998474121</ele>
        <time>2016-07-04T20:24:05.000Z</time>
      </trkpt>
      <trkpt lat="48.86353" lon="2.35269">
        <ele>45.599998474121</ele>
        <time>2016-07-04T20:24:08.000Z</time>
      </trkpt>
      <trkpt lat="48.86335" lon="2.35262">
        <ele>46.200000762939</ele>
        <time>2016-07-04T20:24:12.000Z</time>
      </trkpt>
      <trkpt lat="48.86318" lon="2.35247">
        <ele>47</ele>
        <time>2016-07-04T20:24:15.000Z</time>
      </trkpt>
      <trkpt lat="48.86306" lon="2.35237">
        <ele>47.400001525879</ele>
        <time>2016-07-04T20:24:18.000Z</time>
      </trkpt>
      <trkpt lat="48.86288" lon="2.35226">
        <ele>48.200000762939</ele>
        <time>2016-07-04T20:24:23.000Z</time>
      </trkpt>
      <trkpt lat="48.86267" lon="2.35219">
        <ele>48.400001525879</ele>
        <time>2016-07-04T20:24:28.000Z</time>
      </trkpt>
      <trkpt lat="48.86257" lon="2.35215">
        <ele>48</ele>
        <time>2016-07-04T20:24:30.000Z</time>
      </trkpt>
      <trkpt lat="48.86242" lon="2.35207">
        <ele>47.400001525879</ele>
        <time>2016-07-04T20:24:34.000Z</time>
      </trkpt>
      <trkpt lat="48.86223" lon="2.35198">
        <ele>46.799999237061</ele>
        <time>2016-07-04T20:24:39.000Z</time>
      </trkpt>
      <trkpt lat="48.86204" lon="2.35186">
        <ele>46.200000762939</ele>
        <time>2016-07-04T20:24:44.000Z</time>
      </trkpt>
      <trkpt lat="48.86187" lon="2.35173">
        <ele>46</ele>
        <time>2016-07-04T20:24:49.000Z</time>
      </trkpt>
      <trkpt lat="48.86185" lon="2.3517">
        <ele>46</ele>
        <time>2016-07-04T20:24:50.000Z</time>
      </trkpt>
      <trkpt lat="48.86166" lon="2.3517">
        <ele>46.200000762939</ele>
        <time>2016-07-04T20:25:00.000Z</time>
      </trkpt>
      <trkpt lat="48.86148" lon="2.35154">
        <ele>46.200000762939</ele>
        <time>2016-07-04T20:25:10.000Z</time>
      </trkpt>
      <trkpt lat="48.86145" lon="2.35151">
        <ele>46</ele>
        <time>2016-07-04T20:25:11.000Z</time>
      </trkpt>
      <trkpt lat="48.86123" lon="2.35151">
        <ele>46.400001525879</ele>
        <time>2016-07-04T20:25:16.000Z</time>
      </trkpt>
      <trkpt lat="48.861" lon="2.3516">
        <ele>46.799999237061</ele>
        <time>2016-07-04T20:25:21.000Z</time>
      </trkpt>
      <trkpt lat="48.86078" lon="2.35165">
        <ele>47.400001525879</ele>
        <time>2016-07-04T20:25:26.000Z</time>
      </trkpt>
      <trkpt lat="48.86056" lon="2.35166">
        <ele>47.799999237061</ele>
        <time>2016-07-04T20:25:32.000Z</time>
      </trkpt>
      <trkpt lat="48.86035" lon="2.35165">
        <ele>48</ele>
        <time>2016-07-04T20:25:37.000Z</time>
      </trkpt>
      <trkpt lat="48.86015" lon="2.35161">
        <ele>48.200000762939</ele>
        <time>2016-07-04T20:25:43.000Z</time>
      </trkpt>
      <trkpt lat="48.86013" lon="2.35143">
        <ele>47.599998474121</ele>
        <time>2016-07-04T20:25:46.000Z</time>
      </trkpt>
      <trkpt lat="48.86018" lon="2.3511">
        <ele>45.599998474121</ele>
        <time>2016-07-04T20:25:52.000Z</time>
      </trkpt>
      <trkpt lat="48.8602" lon="2.35103">
        <ele>45.200000762939</ele>
        <time>2016-07-04T20:25:53.000Z</time>
      </trkpt>
      <trkpt lat="48.86028" lon="2.35077">
        <ele>44.200000762939</ele>
        <time>2016-07-04T20:25:58.000Z</time>
      </trkpt>
      <trkpt lat="48.86035" lon="2.35049">
        <ele>45.599998474121</ele>
        <time>2016-07-04T20:26:04.000Z</time>
      </trkpt>
      <trkpt lat="48.86042" lon="2.3502">
        <ele>46.799999237061</ele>
        <time>2016-07-04T20:26:10.000Z</time>
      </trkpt>
      <trkpt lat="48.86049" lon="2.34991">
        <ele>47.400001525879</ele>
        <time>2016-07-04T20:26:15.000Z</time>
      </trkpt>
      <trkpt lat="48.86055" lon="2.34964">
        <ele>47.599998474121</ele>
        <time>2016-07-04T20:26:22.000Z</time>
      </trkpt>
      <trkpt lat="48.86055" lon="2.34959">
        <ele>47.799999237061</ele>
        <time>2016-07-04T20:26:24.000Z</time>
      </trkpt>
      <trkpt lat="48.86045" lon="2.34932">
        <ele>48.200000762939</ele>
        <time>2016-07-04T20:26:41.000Z</time>
      </trkpt>
      <trkpt lat="48.86043" lon="2.34931">
        <ele>48.400001525879</ele>
        <time>2016-07-04T20:26:42.000Z</time>
      </trkpt>
      <trkpt lat="48.86026" lon="2.34919">
        <ele>48.799999237061</ele>
        <time>2016-07-04T20:26:49.000Z</time>
      </trkpt>
      <trkpt lat="48.8601" lon="2.34903">
        <ele>48.799999237061</ele>
        <time>2016-07-04T20:26:55.000Z</time>
      </trkpt>
      <trkpt lat="48.85991" lon="2.34892">
        <ele>48.599998474121</ele>
        <time>2016-07-04T20:27:01.000Z</time>
      </trkpt>
      <trkpt lat="48.85973" lon="2.34882">
        <ele>48.400001525879</ele>
        <time>2016-07-04T20:27:07.000Z</time>
      </trkpt>
      <trkpt lat="48.85954" lon="2.34871">
        <ele>48.200000762939</ele>
        <time>2016-07-04T20:27:14.000Z</time>
      </trkpt>
      <trkpt lat="48.85935" lon="2.34859">
        <ele>48</ele>
        <time>2016-07-04T20:27:20.000Z</time>
      </trkpt>
      <trkpt lat="48.85914" lon="2.34856">
        <ele>48</ele>
        <time>2016-07-04T20:27:25.000Z</time>
      </trkpt>
      <trkpt lat="48.85895" lon="2.34856">
        <ele>48</ele>
        <time>2016-07-04T20:27:29.000Z</time>
      </trkpt>
      <trkpt lat="48.85873" lon="2.34856">
        <ele>48</ele>
        <time>2016-07-04T20:27:35.000Z</time>
      </trkpt>
      <trkpt lat="48.85857" lon="2.34842">
        <ele>48</ele>
        <time>2016-07-04T20:27:42.000Z</time>
      </trkpt>
      <trkpt lat="48.85856" lon="2.34839">
        <ele>48</ele>
        <time>2016-07-04T20:27:43.000Z</time>
      </trkpt>
      <trkpt lat="48.85862" lon="2.3481">
        <ele>47.799999237061</ele>
        <time>2016-07-04T20:27:48.000Z</time>
      </trkpt>
      <trkpt lat="48.85874" lon="2.34785">
        <ele>47.400001525879</ele>
        <time>2016-07-04T20:27:53.000Z</time>
      </trkpt>
      <trkpt lat="48.8589" lon="2.34765">
        <ele>46.599998474121</ele>
        <time>2016-07-04T20:27:59.000Z</time>
      </trkpt>
      <trkpt lat="48.85906" lon="2.34752">
        <ele>45.400001525879</ele>
        <time>2016-07-04T20:28:03.000Z</time>
      </trkpt>
      <trkpt lat="48.85926" lon="2.34734">
        <ele>44.799999237061</ele>
        <time>2016-07-04T20:28:08.000Z</time>
      </trkpt>
      <trkpt lat="48.85944" lon="2.3472">
        <ele>45</ele>
        <time>2016-07-04T20:28:14.000Z</time>
      </trkpt>
      <trkpt lat="48.85954" lon="2.34721">
        <ele>45.200000762939</ele>
        <time>2016-07-04T20:28:33.000Z</time>
      </trkpt>
    </trkseg>
  </trk>
</gpx>